<?xml version="1.0" encoding="UTF-8"?>
<gpx xmlns="http://www.topografix.com/GPX/1/1" xmlns:xsi="http://www.w3.org/2001/XMLSchema-instance" version="1.1" creator="Trace de Trail" xsi:schemaLocation="http://www.topografix.com/GPX/1/1 http://www.topografix.com/GPX/1/1/gpx.xsd">
  <metadata>
    <name>Trail de Dinant Winter  2026 - 32km</name>
    <desc>Parcours créé sur Trace de Trail</desc>
    <link href="https://tracedetrail.fr/fr/trace/356962">
      <text>Cartographie du parcours</text>
    </link>
    <time>2026-08-25T08:21:06+00:00</time>
  </metadata>
  <wpt lat="50.25887" lon="4.90728">
    <ele>145</ele>
    <type>depart</type>
  </wpt>
  <wpt lat="50.23574" lon="4.93826">
    <ele>248</ele>
    <name>Ravito 1 : Salle des fêtes Dréhance</name>
    <type>fanzone_ravitoc_ravitoliquide_toilettes</type>
  </wpt>
  <wpt lat="50.20648" lon="4.90204">
    <ele>199</ele>
    <name>Ravito 2 : Salle "Les échos de la Lesse" Falmignoul</name>
    <type>fanzone_ravitoc_ravitoliquide_toilettes</type>
  </wpt>
  <wpt lat="50.25887" lon="4.90728">
    <ele>145</ele>
    <type>arrivee</type>
  </wpt>
  <trk>
    <name>Trail de Dinant Winter  2026 - 32km sur TraceDeTrail.fr</name>
    <src>Trace de Trail</src>
    <trkseg>
      <trkpt lat="50.25887" lon="4.90728">
        <ele>145</ele>
        <time>2026-08-25T08:21:06+00:00</time>
      </trkpt>
      <trkpt lat="50.25911" lon="4.90716">
        <ele>143</ele>
        <time>2026-08-25T08:21:09+00:00</time>
      </trkpt>
      <trkpt lat="50.25944" lon="4.907">
        <ele>143</ele>
        <time>2026-08-25T08:21:12+00:00</time>
      </trkpt>
      <trkpt lat="50.25968" lon="4.90687">
        <ele>142</ele>
        <time>2026-08-25T08:21:15+00:00</time>
      </trkpt>
      <trkpt lat="50.25989" lon="4.90685">
        <ele>142</ele>
        <time>2026-08-25T08:21:18+00:00</time>
      </trkpt>
      <trkpt lat="50.26019" lon="4.90663">
        <ele>144</ele>
        <time>2026-08-25T08:21:21+00:00</time>
      </trkpt>
      <trkpt lat="50.26053" lon="4.90642">
        <ele>138</ele>
        <time>2026-08-25T08:21:24+00:00</time>
      </trkpt>
      <trkpt lat="50.26077" lon="4.90653">
        <ele>133</ele>
        <time>2026-08-25T08:21:27+00:00</time>
      </trkpt>
      <trkpt lat="50.26069" lon="4.90665">
        <ele>127</ele>
        <time>2026-08-25T08:21:30+00:00</time>
      </trkpt>
      <trkpt lat="50.26056" lon="4.907">
        <ele>124</ele>
        <time>2026-08-25T08:21:33+00:00</time>
      </trkpt>
      <trkpt lat="50.26049" lon="4.90729">
        <ele>123</ele>
        <time>2026-08-25T08:21:36+00:00</time>
      </trkpt>
      <trkpt lat="50.26044" lon="4.90768">
        <ele>116</ele>
        <time>2026-08-25T08:21:39+00:00</time>
      </trkpt>
      <trkpt lat="50.26039" lon="4.90785">
        <ele>115</ele>
        <time>2026-08-25T08:21:42+00:00</time>
      </trkpt>
      <trkpt lat="50.2603" lon="4.90803">
        <ele>112</ele>
        <time>2026-08-25T08:21:45+00:00</time>
      </trkpt>
      <trkpt lat="50.26004" lon="4.90844">
        <ele>113</ele>
        <time>2026-08-25T08:21:48+00:00</time>
      </trkpt>
      <trkpt lat="50.25976" lon="4.90878">
        <ele>112</ele>
        <time>2026-08-25T08:21:51+00:00</time>
      </trkpt>
      <trkpt lat="50.25959" lon="4.90898">
        <ele>112</ele>
        <time>2026-08-25T08:21:54+00:00</time>
      </trkpt>
      <trkpt lat="50.25941" lon="4.90919">
        <ele>108</ele>
        <time>2026-08-25T08:21:57+00:00</time>
      </trkpt>
      <trkpt lat="50.2592" lon="4.90949">
        <ele>104</ele>
        <time>2026-08-25T08:22:00+00:00</time>
      </trkpt>
      <trkpt lat="50.25922" lon="4.90951">
        <ele>99</ele>
        <time>2026-08-25T08:22:03+00:00</time>
      </trkpt>
      <trkpt lat="50.25911" lon="4.90966">
        <ele>97</ele>
        <time>2026-08-25T08:22:06+00:00</time>
      </trkpt>
      <trkpt lat="50.25913" lon="4.90968">
        <ele>97</ele>
        <time>2026-08-25T08:22:09+00:00</time>
      </trkpt>
      <trkpt lat="50.25922" lon="4.9096">
        <ele>97</ele>
        <time>2026-08-25T08:22:12+00:00</time>
      </trkpt>
      <trkpt lat="50.25927" lon="4.90972">
        <ele>97</ele>
        <time>2026-08-25T08:22:15+00:00</time>
      </trkpt>
      <trkpt lat="50.25931" lon="4.90977">
        <ele>97</ele>
        <time>2026-08-25T08:22:18+00:00</time>
      </trkpt>
      <trkpt lat="50.25949" lon="4.90979">
        <ele>97</ele>
        <time>2026-08-25T08:22:21+00:00</time>
      </trkpt>
      <trkpt lat="50.2596" lon="4.90981">
        <ele>97</ele>
        <time>2026-08-25T08:22:24+00:00</time>
      </trkpt>
      <trkpt lat="50.25986" lon="4.90983">
        <ele>96</ele>
        <time>2026-08-25T08:22:27+00:00</time>
      </trkpt>
      <trkpt lat="50.25996" lon="4.90992">
        <ele>95</ele>
        <time>2026-08-25T08:22:30+00:00</time>
      </trkpt>
      <trkpt lat="50.26002" lon="4.90991">
        <ele>95</ele>
        <time>2026-08-25T08:22:33+00:00</time>
      </trkpt>
      <trkpt lat="50.26004" lon="4.90997">
        <ele>95</ele>
        <time>2026-08-25T08:22:36+00:00</time>
      </trkpt>
      <trkpt lat="50.26006" lon="4.90998">
        <ele>95</ele>
        <time>2026-08-25T08:22:39+00:00</time>
      </trkpt>
      <trkpt lat="50.2601" lon="4.90998">
        <ele>95</ele>
        <time>2026-08-25T08:22:42+00:00</time>
      </trkpt>
      <trkpt lat="50.26015" lon="4.91022">
        <ele>94</ele>
        <time>2026-08-25T08:22:45+00:00</time>
      </trkpt>
      <trkpt lat="50.26021" lon="4.91047">
        <ele>94</ele>
        <time>2026-08-25T08:22:48+00:00</time>
      </trkpt>
      <trkpt lat="50.26023" lon="4.91059">
        <ele>93</ele>
        <time>2026-08-25T08:22:51+00:00</time>
      </trkpt>
      <trkpt lat="50.26031" lon="4.91098">
        <ele>92</ele>
        <time>2026-08-25T08:22:54+00:00</time>
      </trkpt>
      <trkpt lat="50.26038" lon="4.91137">
        <ele>91</ele>
        <time>2026-08-25T08:22:57+00:00</time>
      </trkpt>
      <trkpt lat="50.26046" lon="4.91176">
        <ele>91</ele>
        <time>2026-08-25T08:23:00+00:00</time>
      </trkpt>
      <trkpt lat="50.26049" lon="4.91195">
        <ele>92</ele>
        <time>2026-08-25T08:23:03+00:00</time>
      </trkpt>
      <trkpt lat="50.26064" lon="4.91208">
        <ele>93</ele>
        <time>2026-08-25T08:23:06+00:00</time>
      </trkpt>
      <trkpt lat="50.26083" lon="4.91224">
        <ele>93</ele>
        <time>2026-08-25T08:23:09+00:00</time>
      </trkpt>
      <trkpt lat="50.26091" lon="4.91247">
        <ele>93</ele>
        <time>2026-08-25T08:23:12+00:00</time>
      </trkpt>
      <trkpt lat="50.26098" lon="4.91269">
        <ele>95</ele>
        <time>2026-08-25T08:23:15+00:00</time>
      </trkpt>
      <trkpt lat="50.26108" lon="4.91296">
        <ele>98</ele>
        <time>2026-08-25T08:23:18+00:00</time>
      </trkpt>
      <trkpt lat="50.26124" lon="4.91342">
        <ele>122</ele>
        <time>2026-08-25T08:23:21+00:00</time>
      </trkpt>
      <trkpt lat="50.26152" lon="4.9135">
        <ele>145</ele>
        <time>2026-08-25T08:23:24+00:00</time>
      </trkpt>
      <trkpt lat="50.26154" lon="4.91328">
        <ele>134</ele>
        <time>2026-08-25T08:23:27+00:00</time>
      </trkpt>
      <trkpt lat="50.26156" lon="4.91328">
        <ele>134</ele>
        <time>2026-08-25T08:23:30+00:00</time>
      </trkpt>
      <trkpt lat="50.26155" lon="4.91361">
        <ele>141</ele>
        <time>2026-08-25T08:23:33+00:00</time>
      </trkpt>
      <trkpt lat="50.26157" lon="4.91361">
        <ele>150</ele>
        <time>2026-08-25T08:23:36+00:00</time>
      </trkpt>
      <trkpt lat="50.26161" lon="4.91328">
        <ele>137</ele>
        <time>2026-08-25T08:23:39+00:00</time>
      </trkpt>
      <trkpt lat="50.26161" lon="4.91322">
        <ele>137</ele>
        <time>2026-08-25T08:23:42+00:00</time>
      </trkpt>
      <trkpt lat="50.26158" lon="4.91293">
        <ele>132</ele>
        <time>2026-08-25T08:23:45+00:00</time>
      </trkpt>
      <trkpt lat="50.26159" lon="4.91292">
        <ele>124</ele>
        <time>2026-08-25T08:23:48+00:00</time>
      </trkpt>
      <trkpt lat="50.26161" lon="4.91292">
        <ele>128</ele>
        <time>2026-08-25T08:23:51+00:00</time>
      </trkpt>
      <trkpt lat="50.26161" lon="4.91296">
        <ele>128</ele>
        <time>2026-08-25T08:23:54+00:00</time>
      </trkpt>
      <trkpt lat="50.26162" lon="4.91304">
        <ele>130</ele>
        <time>2026-08-25T08:23:57+00:00</time>
      </trkpt>
      <trkpt lat="50.26167" lon="4.91303">
        <ele>130</ele>
        <time>2026-08-25T08:24:00+00:00</time>
      </trkpt>
      <trkpt lat="50.26167" lon="4.91295">
        <ele>128</ele>
        <time>2026-08-25T08:24:03+00:00</time>
      </trkpt>
      <trkpt lat="50.26166" lon="4.9129">
        <ele>128</ele>
        <time>2026-08-25T08:24:06+00:00</time>
      </trkpt>
      <trkpt lat="50.26167" lon="4.9129">
        <ele>128</ele>
        <time>2026-08-25T08:24:09+00:00</time>
      </trkpt>
      <trkpt lat="50.2616" lon="4.9126">
        <ele>116</ele>
        <time>2026-08-25T08:24:12+00:00</time>
      </trkpt>
      <trkpt lat="50.26165" lon="4.91217">
        <ele>118</ele>
        <time>2026-08-25T08:24:15+00:00</time>
      </trkpt>
      <trkpt lat="50.26181" lon="4.91243">
        <ele>120</ele>
        <time>2026-08-25T08:24:18+00:00</time>
      </trkpt>
      <trkpt lat="50.26188" lon="4.91269">
        <ele>125</ele>
        <time>2026-08-25T08:24:21+00:00</time>
      </trkpt>
      <trkpt lat="50.26191" lon="4.91297">
        <ele>135</ele>
        <time>2026-08-25T08:24:24+00:00</time>
      </trkpt>
      <trkpt lat="50.26193" lon="4.91339">
        <ele>146</ele>
        <time>2026-08-25T08:24:27+00:00</time>
      </trkpt>
      <trkpt lat="50.26204" lon="4.91336">
        <ele>148</ele>
        <time>2026-08-25T08:24:30+00:00</time>
      </trkpt>
      <trkpt lat="50.26204" lon="4.91349">
        <ele>147</ele>
        <time>2026-08-25T08:24:33+00:00</time>
      </trkpt>
      <trkpt lat="50.26194" lon="4.9135">
        <ele>152</ele>
        <time>2026-08-25T08:24:36+00:00</time>
      </trkpt>
      <trkpt lat="50.26174" lon="4.91355">
        <ele>149</ele>
        <time>2026-08-25T08:24:39+00:00</time>
      </trkpt>
      <trkpt lat="50.26174" lon="4.91357">
        <ele>149</ele>
        <time>2026-08-25T08:24:42+00:00</time>
      </trkpt>
      <trkpt lat="50.26177" lon="4.91357">
        <ele>149</ele>
        <time>2026-08-25T08:24:45+00:00</time>
      </trkpt>
      <trkpt lat="50.26177" lon="4.91401">
        <ele>164</ele>
        <time>2026-08-25T08:24:48+00:00</time>
      </trkpt>
      <trkpt lat="50.26176" lon="4.91414">
        <ele>167</ele>
        <time>2026-08-25T08:24:51+00:00</time>
      </trkpt>
      <trkpt lat="50.26176" lon="4.91428">
        <ele>169</ele>
        <time>2026-08-25T08:24:54+00:00</time>
      </trkpt>
      <trkpt lat="50.26175" lon="4.91436">
        <ele>171</ele>
        <time>2026-08-25T08:24:57+00:00</time>
      </trkpt>
      <trkpt lat="50.2615" lon="4.91457">
        <ele>172</ele>
        <time>2026-08-25T08:25:00+00:00</time>
      </trkpt>
      <trkpt lat="50.26143" lon="4.91472">
        <ele>173</ele>
        <time>2026-08-25T08:25:03+00:00</time>
      </trkpt>
      <trkpt lat="50.26141" lon="4.91483">
        <ele>174</ele>
        <time>2026-08-25T08:25:06+00:00</time>
      </trkpt>
      <trkpt lat="50.2614" lon="4.91491">
        <ele>173</ele>
        <time>2026-08-25T08:25:09+00:00</time>
      </trkpt>
      <trkpt lat="50.26141" lon="4.91501">
        <ele>178</ele>
        <time>2026-08-25T08:25:12+00:00</time>
      </trkpt>
      <trkpt lat="50.26143" lon="4.91507">
        <ele>178</ele>
        <time>2026-08-25T08:25:15+00:00</time>
      </trkpt>
      <trkpt lat="50.26147" lon="4.91512">
        <ele>181</ele>
        <time>2026-08-25T08:25:18+00:00</time>
      </trkpt>
      <trkpt lat="50.26152" lon="4.91516">
        <ele>182</ele>
        <time>2026-08-25T08:25:21+00:00</time>
      </trkpt>
      <trkpt lat="50.26155" lon="4.91521">
        <ele>183</ele>
        <time>2026-08-25T08:25:24+00:00</time>
      </trkpt>
      <trkpt lat="50.26167" lon="4.91526">
        <ele>183</ele>
        <time>2026-08-25T08:25:27+00:00</time>
      </trkpt>
      <trkpt lat="50.2616" lon="4.91588">
        <ele>183</ele>
        <time>2026-08-25T08:25:30+00:00</time>
      </trkpt>
      <trkpt lat="50.2616" lon="4.91591">
        <ele>183</ele>
        <time>2026-08-25T08:25:33+00:00</time>
      </trkpt>
      <trkpt lat="50.26156" lon="4.91626">
        <ele>183</ele>
        <time>2026-08-25T08:25:36+00:00</time>
      </trkpt>
      <trkpt lat="50.26151" lon="4.91667">
        <ele>184</ele>
        <time>2026-08-25T08:25:39+00:00</time>
      </trkpt>
      <trkpt lat="50.26149" lon="4.91677">
        <ele>185</ele>
        <time>2026-08-25T08:25:42+00:00</time>
      </trkpt>
      <trkpt lat="50.26135" lon="4.91673">
        <ele>185</ele>
        <time>2026-08-25T08:25:45+00:00</time>
      </trkpt>
      <trkpt lat="50.26126" lon="4.91673">
        <ele>186</ele>
        <time>2026-08-25T08:25:48+00:00</time>
      </trkpt>
      <trkpt lat="50.261" lon="4.91677">
        <ele>184</ele>
        <time>2026-08-25T08:25:51+00:00</time>
      </trkpt>
      <trkpt lat="50.26084" lon="4.91676">
        <ele>186</ele>
        <time>2026-08-25T08:25:54+00:00</time>
      </trkpt>
      <trkpt lat="50.26062" lon="4.91676">
        <ele>184</ele>
        <time>2026-08-25T08:25:57+00:00</time>
      </trkpt>
      <trkpt lat="50.26024" lon="4.91675">
        <ele>181</ele>
        <time>2026-08-25T08:26:00+00:00</time>
      </trkpt>
      <trkpt lat="50.26014" lon="4.91668">
        <ele>179</ele>
        <time>2026-08-25T08:26:03+00:00</time>
      </trkpt>
      <trkpt lat="50.26005" lon="4.91667">
        <ele>178</ele>
        <time>2026-08-25T08:26:06+00:00</time>
      </trkpt>
      <trkpt lat="50.25997" lon="4.91673">
        <ele>178</ele>
        <time>2026-08-25T08:26:09+00:00</time>
      </trkpt>
      <trkpt lat="50.25988" lon="4.91675">
        <ele>176</ele>
        <time>2026-08-25T08:26:12+00:00</time>
      </trkpt>
      <trkpt lat="50.25972" lon="4.91682">
        <ele>176</ele>
        <time>2026-08-25T08:26:15+00:00</time>
      </trkpt>
      <trkpt lat="50.25967" lon="4.91682">
        <ele>178</ele>
        <time>2026-08-25T08:26:18+00:00</time>
      </trkpt>
      <trkpt lat="50.25965" lon="4.91685">
        <ele>174</ele>
        <time>2026-08-25T08:26:21+00:00</time>
      </trkpt>
      <trkpt lat="50.25964" lon="4.91696">
        <ele>176</ele>
        <time>2026-08-25T08:26:24+00:00</time>
      </trkpt>
      <trkpt lat="50.25954" lon="4.91721">
        <ele>181</ele>
        <time>2026-08-25T08:26:27+00:00</time>
      </trkpt>
      <trkpt lat="50.25952" lon="4.91734">
        <ele>183</ele>
        <time>2026-08-25T08:26:30+00:00</time>
      </trkpt>
      <trkpt lat="50.25944" lon="4.9175">
        <ele>184</ele>
        <time>2026-08-25T08:26:33+00:00</time>
      </trkpt>
      <trkpt lat="50.25947" lon="4.91786">
        <ele>185</ele>
        <time>2026-08-25T08:26:36+00:00</time>
      </trkpt>
      <trkpt lat="50.25944" lon="4.91795">
        <ele>185</ele>
        <time>2026-08-25T08:26:39+00:00</time>
      </trkpt>
      <trkpt lat="50.25935" lon="4.91817">
        <ele>185</ele>
        <time>2026-08-25T08:26:42+00:00</time>
      </trkpt>
      <trkpt lat="50.2591" lon="4.91855">
        <ele>185</ele>
        <time>2026-08-25T08:26:45+00:00</time>
      </trkpt>
      <trkpt lat="50.25903" lon="4.91847">
        <ele>185</ele>
        <time>2026-08-25T08:26:48+00:00</time>
      </trkpt>
      <trkpt lat="50.25897" lon="4.91834">
        <ele>184</ele>
        <time>2026-08-25T08:26:51+00:00</time>
      </trkpt>
      <trkpt lat="50.25857" lon="4.91844">
        <ele>184</ele>
        <time>2026-08-25T08:26:54+00:00</time>
      </trkpt>
      <trkpt lat="50.25834" lon="4.91851">
        <ele>184</ele>
        <time>2026-08-25T08:26:57+00:00</time>
      </trkpt>
      <trkpt lat="50.25807" lon="4.9186">
        <ele>184</ele>
        <time>2026-08-25T08:27:00+00:00</time>
      </trkpt>
      <trkpt lat="50.258" lon="4.91855">
        <ele>185</ele>
        <time>2026-08-25T08:27:03+00:00</time>
      </trkpt>
      <trkpt lat="50.25793" lon="4.91854">
        <ele>184</ele>
        <time>2026-08-25T08:27:06+00:00</time>
      </trkpt>
      <trkpt lat="50.25788" lon="4.91855">
        <ele>184</ele>
        <time>2026-08-25T08:27:09+00:00</time>
      </trkpt>
      <trkpt lat="50.25777" lon="4.91867">
        <ele>184</ele>
        <time>2026-08-25T08:27:12+00:00</time>
      </trkpt>
      <trkpt lat="50.25769" lon="4.91889">
        <ele>184</ele>
        <time>2026-08-25T08:27:15+00:00</time>
      </trkpt>
      <trkpt lat="50.2576" lon="4.91912">
        <ele>185</ele>
        <time>2026-08-25T08:27:18+00:00</time>
      </trkpt>
      <trkpt lat="50.25743" lon="4.91954">
        <ele>189</ele>
        <time>2026-08-25T08:27:21+00:00</time>
      </trkpt>
      <trkpt lat="50.25729" lon="4.91971">
        <ele>190</ele>
        <time>2026-08-25T08:27:24+00:00</time>
      </trkpt>
      <trkpt lat="50.25725" lon="4.91974">
        <ele>190</ele>
        <time>2026-08-25T08:27:27+00:00</time>
      </trkpt>
      <trkpt lat="50.25716" lon="4.91978">
        <ele>190</ele>
        <time>2026-08-25T08:27:30+00:00</time>
      </trkpt>
      <trkpt lat="50.25707" lon="4.91979">
        <ele>190</ele>
        <time>2026-08-25T08:27:33+00:00</time>
      </trkpt>
      <trkpt lat="50.25705" lon="4.91979">
        <ele>190</ele>
        <time>2026-08-25T08:27:36+00:00</time>
      </trkpt>
      <trkpt lat="50.25698" lon="4.91976">
        <ele>190</ele>
        <time>2026-08-25T08:27:39+00:00</time>
      </trkpt>
      <trkpt lat="50.25688" lon="4.91967">
        <ele>190</ele>
        <time>2026-08-25T08:27:42+00:00</time>
      </trkpt>
      <trkpt lat="50.25677" lon="4.9195">
        <ele>190</ele>
        <time>2026-08-25T08:27:45+00:00</time>
      </trkpt>
      <trkpt lat="50.25664" lon="4.91923">
        <ele>190</ele>
        <time>2026-08-25T08:27:48+00:00</time>
      </trkpt>
      <trkpt lat="50.25657" lon="4.91913">
        <ele>191</ele>
        <time>2026-08-25T08:27:51+00:00</time>
      </trkpt>
      <trkpt lat="50.25655" lon="4.91911">
        <ele>191</ele>
        <time>2026-08-25T08:27:54+00:00</time>
      </trkpt>
      <trkpt lat="50.25632" lon="4.9191">
        <ele>190</ele>
        <time>2026-08-25T08:27:57+00:00</time>
      </trkpt>
      <trkpt lat="50.25627" lon="4.91908">
        <ele>191</ele>
        <time>2026-08-25T08:28:00+00:00</time>
      </trkpt>
      <trkpt lat="50.25604" lon="4.91913">
        <ele>190</ele>
        <time>2026-08-25T08:28:03+00:00</time>
      </trkpt>
      <trkpt lat="50.25591" lon="4.91923">
        <ele>189</ele>
        <time>2026-08-25T08:28:06+00:00</time>
      </trkpt>
      <trkpt lat="50.25587" lon="4.91932">
        <ele>190</ele>
        <time>2026-08-25T08:28:09+00:00</time>
      </trkpt>
      <trkpt lat="50.25584" lon="4.91936">
        <ele>190</ele>
        <time>2026-08-25T08:28:12+00:00</time>
      </trkpt>
      <trkpt lat="50.25579" lon="4.9194">
        <ele>191</ele>
        <time>2026-08-25T08:28:15+00:00</time>
      </trkpt>
      <trkpt lat="50.25577" lon="4.91939">
        <ele>189</ele>
        <time>2026-08-25T08:28:18+00:00</time>
      </trkpt>
      <trkpt lat="50.2557" lon="4.91933">
        <ele>191</ele>
        <time>2026-08-25T08:28:21+00:00</time>
      </trkpt>
      <trkpt lat="50.25566" lon="4.91933">
        <ele>189</ele>
        <time>2026-08-25T08:28:24+00:00</time>
      </trkpt>
      <trkpt lat="50.25563" lon="4.91935">
        <ele>189</ele>
        <time>2026-08-25T08:28:27+00:00</time>
      </trkpt>
      <trkpt lat="50.25547" lon="4.91939">
        <ele>192</ele>
        <time>2026-08-25T08:28:30+00:00</time>
      </trkpt>
      <trkpt lat="50.25534" lon="4.91961">
        <ele>196</ele>
        <time>2026-08-25T08:28:33+00:00</time>
      </trkpt>
      <trkpt lat="50.2553" lon="4.91965">
        <ele>196</ele>
        <time>2026-08-25T08:28:36+00:00</time>
      </trkpt>
      <trkpt lat="50.25513" lon="4.91975">
        <ele>196</ele>
        <time>2026-08-25T08:28:39+00:00</time>
      </trkpt>
      <trkpt lat="50.25501" lon="4.9198">
        <ele>196</ele>
        <time>2026-08-25T08:28:42+00:00</time>
      </trkpt>
      <trkpt lat="50.2549" lon="4.91986">
        <ele>196</ele>
        <time>2026-08-25T08:28:45+00:00</time>
      </trkpt>
      <trkpt lat="50.25472" lon="4.91987">
        <ele>196</ele>
        <time>2026-08-25T08:28:48+00:00</time>
      </trkpt>
      <trkpt lat="50.25451" lon="4.91994">
        <ele>195</ele>
        <time>2026-08-25T08:28:51+00:00</time>
      </trkpt>
      <trkpt lat="50.25438" lon="4.91995">
        <ele>193</ele>
        <time>2026-08-25T08:28:54+00:00</time>
      </trkpt>
      <trkpt lat="50.2543" lon="4.91998">
        <ele>193</ele>
        <time>2026-08-25T08:28:57+00:00</time>
      </trkpt>
      <trkpt lat="50.25422" lon="4.92002">
        <ele>191</ele>
        <time>2026-08-25T08:29:00+00:00</time>
      </trkpt>
      <trkpt lat="50.25416" lon="4.92002">
        <ele>189</ele>
        <time>2026-08-25T08:29:03+00:00</time>
      </trkpt>
      <trkpt lat="50.25408" lon="4.91997">
        <ele>186</ele>
        <time>2026-08-25T08:29:06+00:00</time>
      </trkpt>
      <trkpt lat="50.25404" lon="4.91998">
        <ele>186</ele>
        <time>2026-08-25T08:29:09+00:00</time>
      </trkpt>
      <trkpt lat="50.25401" lon="4.92">
        <ele>187</ele>
        <time>2026-08-25T08:29:12+00:00</time>
      </trkpt>
      <trkpt lat="50.25396" lon="4.92005">
        <ele>185</ele>
        <time>2026-08-25T08:29:15+00:00</time>
      </trkpt>
      <trkpt lat="50.25388" lon="4.92025">
        <ele>185</ele>
        <time>2026-08-25T08:29:18+00:00</time>
      </trkpt>
      <trkpt lat="50.25385" lon="4.92041">
        <ele>186</ele>
        <time>2026-08-25T08:29:21+00:00</time>
      </trkpt>
      <trkpt lat="50.25382" lon="4.92049">
        <ele>186</ele>
        <time>2026-08-25T08:29:24+00:00</time>
      </trkpt>
      <trkpt lat="50.25374" lon="4.92066">
        <ele>183</ele>
        <time>2026-08-25T08:29:27+00:00</time>
      </trkpt>
      <trkpt lat="50.25373" lon="4.92072">
        <ele>183</ele>
        <time>2026-08-25T08:29:30+00:00</time>
      </trkpt>
      <trkpt lat="50.25375" lon="4.92083">
        <ele>182</ele>
        <time>2026-08-25T08:29:33+00:00</time>
      </trkpt>
      <trkpt lat="50.25373" lon="4.92092">
        <ele>180</ele>
        <time>2026-08-25T08:29:36+00:00</time>
      </trkpt>
      <trkpt lat="50.25373" lon="4.921">
        <ele>180</ele>
        <time>2026-08-25T08:29:39+00:00</time>
      </trkpt>
      <trkpt lat="50.25376" lon="4.92107">
        <ele>180</ele>
        <time>2026-08-25T08:29:42+00:00</time>
      </trkpt>
      <trkpt lat="50.25368" lon="4.92124">
        <ele>179</ele>
        <time>2026-08-25T08:29:45+00:00</time>
      </trkpt>
      <trkpt lat="50.25349" lon="4.92142">
        <ele>179</ele>
        <time>2026-08-25T08:29:48+00:00</time>
      </trkpt>
      <trkpt lat="50.2533" lon="4.92161">
        <ele>180</ele>
        <time>2026-08-25T08:29:51+00:00</time>
      </trkpt>
      <trkpt lat="50.25342" lon="4.92204">
        <ele>186</ele>
        <time>2026-08-25T08:29:54+00:00</time>
      </trkpt>
      <trkpt lat="50.25355" lon="4.92246">
        <ele>193</ele>
        <time>2026-08-25T08:29:57+00:00</time>
      </trkpt>
      <trkpt lat="50.25371" lon="4.92302">
        <ele>195</ele>
        <time>2026-08-25T08:30:00+00:00</time>
      </trkpt>
      <trkpt lat="50.25385" lon="4.9236">
        <ele>198</ele>
        <time>2026-08-25T08:30:03+00:00</time>
      </trkpt>
      <trkpt lat="50.25389" lon="4.92423">
        <ele>198</ele>
        <time>2026-08-25T08:30:06+00:00</time>
      </trkpt>
      <trkpt lat="50.25389" lon="4.9244">
        <ele>199</ele>
        <time>2026-08-25T08:30:09+00:00</time>
      </trkpt>
      <trkpt lat="50.25388" lon="4.92455">
        <ele>199</ele>
        <time>2026-08-25T08:30:12+00:00</time>
      </trkpt>
      <trkpt lat="50.25385" lon="4.92472">
        <ele>201</ele>
        <time>2026-08-25T08:30:15+00:00</time>
      </trkpt>
      <trkpt lat="50.2538" lon="4.92489">
        <ele>202</ele>
        <time>2026-08-25T08:30:18+00:00</time>
      </trkpt>
      <trkpt lat="50.25359" lon="4.9254">
        <ele>206</ele>
        <time>2026-08-25T08:30:21+00:00</time>
      </trkpt>
      <trkpt lat="50.25358" lon="4.92549">
        <ele>206</ele>
        <time>2026-08-25T08:30:24+00:00</time>
      </trkpt>
      <trkpt lat="50.25363" lon="4.92598">
        <ele>213</ele>
        <time>2026-08-25T08:30:27+00:00</time>
      </trkpt>
      <trkpt lat="50.25367" lon="4.92631">
        <ele>215</ele>
        <time>2026-08-25T08:30:30+00:00</time>
      </trkpt>
      <trkpt lat="50.25372" lon="4.92664">
        <ele>217</ele>
        <time>2026-08-25T08:30:33+00:00</time>
      </trkpt>
      <trkpt lat="50.25382" lon="4.92709">
        <ele>219</ele>
        <time>2026-08-25T08:30:36+00:00</time>
      </trkpt>
      <trkpt lat="50.25388" lon="4.92744">
        <ele>220</ele>
        <time>2026-08-25T08:30:39+00:00</time>
      </trkpt>
      <trkpt lat="50.25396" lon="4.92782">
        <ele>222</ele>
        <time>2026-08-25T08:30:42+00:00</time>
      </trkpt>
      <trkpt lat="50.25407" lon="4.92835">
        <ele>223</ele>
        <time>2026-08-25T08:30:45+00:00</time>
      </trkpt>
      <trkpt lat="50.25416" lon="4.92882">
        <ele>224</ele>
        <time>2026-08-25T08:30:48+00:00</time>
      </trkpt>
      <trkpt lat="50.25425" lon="4.92928">
        <ele>225</ele>
        <time>2026-08-25T08:30:51+00:00</time>
      </trkpt>
      <trkpt lat="50.25439" lon="4.93002">
        <ele>226</ele>
        <time>2026-08-25T08:30:54+00:00</time>
      </trkpt>
      <trkpt lat="50.25444" lon="4.93009">
        <ele>226</ele>
        <time>2026-08-25T08:30:57+00:00</time>
      </trkpt>
      <trkpt lat="50.25445" lon="4.93037">
        <ele>226</ele>
        <time>2026-08-25T08:31:00+00:00</time>
      </trkpt>
      <trkpt lat="50.25435" lon="4.93031">
        <ele>227</ele>
        <time>2026-08-25T08:31:03+00:00</time>
      </trkpt>
      <trkpt lat="50.25418" lon="4.93018">
        <ele>228</ele>
        <time>2026-08-25T08:31:06+00:00</time>
      </trkpt>
      <trkpt lat="50.25397" lon="4.93002">
        <ele>229</ele>
        <time>2026-08-25T08:31:09+00:00</time>
      </trkpt>
      <trkpt lat="50.25371" lon="4.92981">
        <ele>229</ele>
        <time>2026-08-25T08:31:12+00:00</time>
      </trkpt>
      <trkpt lat="50.25346" lon="4.9296">
        <ele>231</ele>
        <time>2026-08-25T08:31:15+00:00</time>
      </trkpt>
      <trkpt lat="50.25319" lon="4.92939">
        <ele>231</ele>
        <time>2026-08-25T08:31:18+00:00</time>
      </trkpt>
      <trkpt lat="50.25298" lon="4.92923">
        <ele>232</ele>
        <time>2026-08-25T08:31:21+00:00</time>
      </trkpt>
      <trkpt lat="50.25273" lon="4.92905">
        <ele>233</ele>
        <time>2026-08-25T08:31:24+00:00</time>
      </trkpt>
      <trkpt lat="50.25251" lon="4.92888">
        <ele>234</ele>
        <time>2026-08-25T08:31:27+00:00</time>
      </trkpt>
      <trkpt lat="50.25223" lon="4.92867">
        <ele>237</ele>
        <time>2026-08-25T08:31:30+00:00</time>
      </trkpt>
      <trkpt lat="50.25194" lon="4.92844">
        <ele>238</ele>
        <time>2026-08-25T08:31:33+00:00</time>
      </trkpt>
      <trkpt lat="50.25166" lon="4.92822">
        <ele>238</ele>
        <time>2026-08-25T08:31:36+00:00</time>
      </trkpt>
      <trkpt lat="50.25111" lon="4.92778">
        <ele>239</ele>
        <time>2026-08-25T08:31:39+00:00</time>
      </trkpt>
      <trkpt lat="50.25086" lon="4.92761">
        <ele>239</ele>
        <time>2026-08-25T08:31:42+00:00</time>
      </trkpt>
      <trkpt lat="50.25068" lon="4.9275">
        <ele>239</ele>
        <time>2026-08-25T08:31:45+00:00</time>
      </trkpt>
      <trkpt lat="50.2503" lon="4.92749">
        <ele>237</ele>
        <time>2026-08-25T08:31:48+00:00</time>
      </trkpt>
      <trkpt lat="50.25005" lon="4.92745">
        <ele>234</ele>
        <time>2026-08-25T08:31:51+00:00</time>
      </trkpt>
      <trkpt lat="50.24968" lon="4.92739">
        <ele>230</ele>
        <time>2026-08-25T08:31:54+00:00</time>
      </trkpt>
      <trkpt lat="50.24945" lon="4.92736">
        <ele>227</ele>
        <time>2026-08-25T08:31:57+00:00</time>
      </trkpt>
      <trkpt lat="50.24918" lon="4.92731">
        <ele>224</ele>
        <time>2026-08-25T08:32:00+00:00</time>
      </trkpt>
      <trkpt lat="50.24871" lon="4.92722">
        <ele>220</ele>
        <time>2026-08-25T08:32:03+00:00</time>
      </trkpt>
      <trkpt lat="50.24839" lon="4.92718">
        <ele>217</ele>
        <time>2026-08-25T08:32:06+00:00</time>
      </trkpt>
      <trkpt lat="50.24815" lon="4.92709">
        <ele>215</ele>
        <time>2026-08-25T08:32:09+00:00</time>
      </trkpt>
      <trkpt lat="50.24803" lon="4.92696">
        <ele>213</ele>
        <time>2026-08-25T08:32:12+00:00</time>
      </trkpt>
      <trkpt lat="50.24795" lon="4.92677">
        <ele>211</ele>
        <time>2026-08-25T08:32:15+00:00</time>
      </trkpt>
      <trkpt lat="50.24788" lon="4.92658">
        <ele>210</ele>
        <time>2026-08-25T08:32:18+00:00</time>
      </trkpt>
      <trkpt lat="50.24774" lon="4.92643">
        <ele>209</ele>
        <time>2026-08-25T08:32:21+00:00</time>
      </trkpt>
      <trkpt lat="50.24767" lon="4.92638">
        <ele>208</ele>
        <time>2026-08-25T08:32:24+00:00</time>
      </trkpt>
      <trkpt lat="50.24754" lon="4.92637">
        <ele>207</ele>
        <time>2026-08-25T08:32:27+00:00</time>
      </trkpt>
      <trkpt lat="50.24737" lon="4.92623">
        <ele>206</ele>
        <time>2026-08-25T08:32:30+00:00</time>
      </trkpt>
      <trkpt lat="50.24715" lon="4.92605">
        <ele>205</ele>
        <time>2026-08-25T08:32:33+00:00</time>
      </trkpt>
      <trkpt lat="50.24687" lon="4.92581">
        <ele>204</ele>
        <time>2026-08-25T08:32:36+00:00</time>
      </trkpt>
      <trkpt lat="50.24665" lon="4.92567">
        <ele>204</ele>
        <time>2026-08-25T08:32:39+00:00</time>
      </trkpt>
      <trkpt lat="50.2464" lon="4.9255">
        <ele>202</ele>
        <time>2026-08-25T08:32:42+00:00</time>
      </trkpt>
      <trkpt lat="50.24615" lon="4.92535">
        <ele>202</ele>
        <time>2026-08-25T08:32:45+00:00</time>
      </trkpt>
      <trkpt lat="50.24583" lon="4.92514">
        <ele>205</ele>
        <time>2026-08-25T08:32:48+00:00</time>
      </trkpt>
      <trkpt lat="50.24566" lon="4.92506">
        <ele>216</ele>
        <time>2026-08-25T08:32:51+00:00</time>
      </trkpt>
      <trkpt lat="50.24548" lon="4.925">
        <ele>219</ele>
        <time>2026-08-25T08:32:54+00:00</time>
      </trkpt>
      <trkpt lat="50.24533" lon="4.92508">
        <ele>219</ele>
        <time>2026-08-25T08:32:57+00:00</time>
      </trkpt>
      <trkpt lat="50.24521" lon="4.92504">
        <ele>219</ele>
        <time>2026-08-25T08:33:00+00:00</time>
      </trkpt>
      <trkpt lat="50.24508" lon="4.92497">
        <ele>217</ele>
        <time>2026-08-25T08:33:03+00:00</time>
      </trkpt>
      <trkpt lat="50.2449" lon="4.92466">
        <ele>219</ele>
        <time>2026-08-25T08:33:06+00:00</time>
      </trkpt>
      <trkpt lat="50.24488" lon="4.92469">
        <ele>213</ele>
        <time>2026-08-25T08:33:09+00:00</time>
      </trkpt>
      <trkpt lat="50.24491" lon="4.92479">
        <ele>217</ele>
        <time>2026-08-25T08:33:12+00:00</time>
      </trkpt>
      <trkpt lat="50.24489" lon="4.92485">
        <ele>209</ele>
        <time>2026-08-25T08:33:15+00:00</time>
      </trkpt>
      <trkpt lat="50.24482" lon="4.92477">
        <ele>211</ele>
        <time>2026-08-25T08:33:18+00:00</time>
      </trkpt>
      <trkpt lat="50.24479" lon="4.92484">
        <ele>205</ele>
        <time>2026-08-25T08:33:21+00:00</time>
      </trkpt>
      <trkpt lat="50.24482" lon="4.92503">
        <ele>205</ele>
        <time>2026-08-25T08:33:24+00:00</time>
      </trkpt>
      <trkpt lat="50.2448" lon="4.92506">
        <ele>205</ele>
        <time>2026-08-25T08:33:27+00:00</time>
      </trkpt>
      <trkpt lat="50.24467" lon="4.9249">
        <ele>198</ele>
        <time>2026-08-25T08:33:30+00:00</time>
      </trkpt>
      <trkpt lat="50.24452" lon="4.92476">
        <ele>194</ele>
        <time>2026-08-25T08:33:33+00:00</time>
      </trkpt>
      <trkpt lat="50.24437" lon="4.92455">
        <ele>180</ele>
        <time>2026-08-25T08:33:36+00:00</time>
      </trkpt>
      <trkpt lat="50.24428" lon="4.92415">
        <ele>175</ele>
        <time>2026-08-25T08:33:39+00:00</time>
      </trkpt>
      <trkpt lat="50.24422" lon="4.92443">
        <ele>174</ele>
        <time>2026-08-25T08:33:42+00:00</time>
      </trkpt>
      <trkpt lat="50.24419" lon="4.92414">
        <ele>170</ele>
        <time>2026-08-25T08:33:45+00:00</time>
      </trkpt>
      <trkpt lat="50.2441" lon="4.92435">
        <ele>169</ele>
        <time>2026-08-25T08:33:48+00:00</time>
      </trkpt>
      <trkpt lat="50.24405" lon="4.92398">
        <ele>162</ele>
        <time>2026-08-25T08:33:51+00:00</time>
      </trkpt>
      <trkpt lat="50.244" lon="4.92414">
        <ele>162</ele>
        <time>2026-08-25T08:33:54+00:00</time>
      </trkpt>
      <trkpt lat="50.24396" lon="4.92436">
        <ele>158</ele>
        <time>2026-08-25T08:33:57+00:00</time>
      </trkpt>
      <trkpt lat="50.24395" lon="4.92452">
        <ele>158</ele>
        <time>2026-08-25T08:34:00+00:00</time>
      </trkpt>
      <trkpt lat="50.24396" lon="4.92477">
        <ele>155</ele>
        <time>2026-08-25T08:34:03+00:00</time>
      </trkpt>
      <trkpt lat="50.24393" lon="4.92479">
        <ele>155</ele>
        <time>2026-08-25T08:34:06+00:00</time>
      </trkpt>
      <trkpt lat="50.24386" lon="4.92463">
        <ele>149</ele>
        <time>2026-08-25T08:34:09+00:00</time>
      </trkpt>
      <trkpt lat="50.24381" lon="4.92441">
        <ele>149</ele>
        <time>2026-08-25T08:34:12+00:00</time>
      </trkpt>
      <trkpt lat="50.24372" lon="4.92384">
        <ele>138</ele>
        <time>2026-08-25T08:34:15+00:00</time>
      </trkpt>
      <trkpt lat="50.24369" lon="4.92353">
        <ele>131</ele>
        <time>2026-08-25T08:34:18+00:00</time>
      </trkpt>
      <trkpt lat="50.24364" lon="4.92312">
        <ele>129</ele>
        <time>2026-08-25T08:34:21+00:00</time>
      </trkpt>
      <trkpt lat="50.24363" lon="4.92311">
        <ele>129</ele>
        <time>2026-08-25T08:34:24+00:00</time>
      </trkpt>
      <trkpt lat="50.24358" lon="4.92334">
        <ele>121</ele>
        <time>2026-08-25T08:34:27+00:00</time>
      </trkpt>
      <trkpt lat="50.24352" lon="4.92367">
        <ele>120</ele>
        <time>2026-08-25T08:34:30+00:00</time>
      </trkpt>
      <trkpt lat="50.24347" lon="4.92385">
        <ele>107</ele>
        <time>2026-08-25T08:34:33+00:00</time>
      </trkpt>
      <trkpt lat="50.24344" lon="4.9241">
        <ele>109</ele>
        <time>2026-08-25T08:34:36+00:00</time>
      </trkpt>
      <trkpt lat="50.24341" lon="4.92424">
        <ele>109</ele>
        <time>2026-08-25T08:34:39+00:00</time>
      </trkpt>
      <trkpt lat="50.24339" lon="4.92424">
        <ele>102</ele>
        <time>2026-08-25T08:34:42+00:00</time>
      </trkpt>
      <trkpt lat="50.24336" lon="4.92403">
        <ele>100</ele>
        <time>2026-08-25T08:34:45+00:00</time>
      </trkpt>
      <trkpt lat="50.24332" lon="4.92361">
        <ele>98</ele>
        <time>2026-08-25T08:34:48+00:00</time>
      </trkpt>
      <trkpt lat="50.2433" lon="4.92351">
        <ele>98</ele>
        <time>2026-08-25T08:34:51+00:00</time>
      </trkpt>
      <trkpt lat="50.24329" lon="4.92331">
        <ele>98</ele>
        <time>2026-08-25T08:34:54+00:00</time>
      </trkpt>
      <trkpt lat="50.24323" lon="4.92331">
        <ele>97</ele>
        <time>2026-08-25T08:34:57+00:00</time>
      </trkpt>
      <trkpt lat="50.24324" lon="4.92365">
        <ele>98</ele>
        <time>2026-08-25T08:35:00+00:00</time>
      </trkpt>
      <trkpt lat="50.24325" lon="4.92411">
        <ele>99</ele>
        <time>2026-08-25T08:35:03+00:00</time>
      </trkpt>
      <trkpt lat="50.24325" lon="4.92454">
        <ele>100</ele>
        <time>2026-08-25T08:35:06+00:00</time>
      </trkpt>
      <trkpt lat="50.24324" lon="4.92529">
        <ele>109</ele>
        <time>2026-08-25T08:35:09+00:00</time>
      </trkpt>
      <trkpt lat="50.24324" lon="4.9257">
        <ele>118</ele>
        <time>2026-08-25T08:35:12+00:00</time>
      </trkpt>
      <trkpt lat="50.24325" lon="4.92585">
        <ele>119</ele>
        <time>2026-08-25T08:35:15+00:00</time>
      </trkpt>
      <trkpt lat="50.24328" lon="4.92601">
        <ele>118</ele>
        <time>2026-08-25T08:35:18+00:00</time>
      </trkpt>
      <trkpt lat="50.24332" lon="4.92609">
        <ele>121</ele>
        <time>2026-08-25T08:35:21+00:00</time>
      </trkpt>
      <trkpt lat="50.24349" lon="4.92637">
        <ele>119</ele>
        <time>2026-08-25T08:35:24+00:00</time>
      </trkpt>
      <trkpt lat="50.24376" lon="4.92682">
        <ele>118</ele>
        <time>2026-08-25T08:35:27+00:00</time>
      </trkpt>
      <trkpt lat="50.2439" lon="4.92709">
        <ele>118</ele>
        <time>2026-08-25T08:35:30+00:00</time>
      </trkpt>
      <trkpt lat="50.24405" lon="4.92737">
        <ele>126</ele>
        <time>2026-08-25T08:35:33+00:00</time>
      </trkpt>
      <trkpt lat="50.24399" lon="4.92737">
        <ele>131</ele>
        <time>2026-08-25T08:35:36+00:00</time>
      </trkpt>
      <trkpt lat="50.24379" lon="4.92717">
        <ele>136</ele>
        <time>2026-08-25T08:35:39+00:00</time>
      </trkpt>
      <trkpt lat="50.2435" lon="4.92687">
        <ele>137</ele>
        <time>2026-08-25T08:35:42+00:00</time>
      </trkpt>
      <trkpt lat="50.24331" lon="4.92672">
        <ele>138</ele>
        <time>2026-08-25T08:35:45+00:00</time>
      </trkpt>
      <trkpt lat="50.24311" lon="4.92656">
        <ele>142</ele>
        <time>2026-08-25T08:35:48+00:00</time>
      </trkpt>
      <trkpt lat="50.24283" lon="4.92629">
        <ele>148</ele>
        <time>2026-08-25T08:35:51+00:00</time>
      </trkpt>
      <trkpt lat="50.24262" lon="4.92597">
        <ele>154</ele>
        <time>2026-08-25T08:35:54+00:00</time>
      </trkpt>
      <trkpt lat="50.24248" lon="4.92553">
        <ele>159</ele>
        <time>2026-08-25T08:35:57+00:00</time>
      </trkpt>
      <trkpt lat="50.2424" lon="4.92513">
        <ele>160</ele>
        <time>2026-08-25T08:36:00+00:00</time>
      </trkpt>
      <trkpt lat="50.24227" lon="4.9245">
        <ele>163</ele>
        <time>2026-08-25T08:36:03+00:00</time>
      </trkpt>
      <trkpt lat="50.24218" lon="4.92418">
        <ele>164</ele>
        <time>2026-08-25T08:36:06+00:00</time>
      </trkpt>
      <trkpt lat="50.24208" lon="4.92382">
        <ele>169</ele>
        <time>2026-08-25T08:36:09+00:00</time>
      </trkpt>
      <trkpt lat="50.24193" lon="4.92326">
        <ele>168</ele>
        <time>2026-08-25T08:36:12+00:00</time>
      </trkpt>
      <trkpt lat="50.24173" lon="4.92289">
        <ele>167</ele>
        <time>2026-08-25T08:36:15+00:00</time>
      </trkpt>
      <trkpt lat="50.24161" lon="4.92282">
        <ele>163</ele>
        <time>2026-08-25T08:36:18+00:00</time>
      </trkpt>
      <trkpt lat="50.24154" lon="4.92283">
        <ele>166</ele>
        <time>2026-08-25T08:36:21+00:00</time>
      </trkpt>
      <trkpt lat="50.24146" lon="4.92294">
        <ele>160</ele>
        <time>2026-08-25T08:36:24+00:00</time>
      </trkpt>
      <trkpt lat="50.24154" lon="4.92313">
        <ele>166</ele>
        <time>2026-08-25T08:36:27+00:00</time>
      </trkpt>
      <trkpt lat="50.24168" lon="4.92358">
        <ele>167</ele>
        <time>2026-08-25T08:36:30+00:00</time>
      </trkpt>
      <trkpt lat="50.24173" lon="4.92383">
        <ele>173</ele>
        <time>2026-08-25T08:36:33+00:00</time>
      </trkpt>
      <trkpt lat="50.24174" lon="4.92405">
        <ele>176</ele>
        <time>2026-08-25T08:36:36+00:00</time>
      </trkpt>
      <trkpt lat="50.24175" lon="4.92428">
        <ele>178</ele>
        <time>2026-08-25T08:36:39+00:00</time>
      </trkpt>
      <trkpt lat="50.2418" lon="4.92472">
        <ele>180</ele>
        <time>2026-08-25T08:36:42+00:00</time>
      </trkpt>
      <trkpt lat="50.2418" lon="4.92504">
        <ele>186</ele>
        <time>2026-08-25T08:36:45+00:00</time>
      </trkpt>
      <trkpt lat="50.24182" lon="4.92513">
        <ele>182</ele>
        <time>2026-08-25T08:36:48+00:00</time>
      </trkpt>
      <trkpt lat="50.24187" lon="4.92522">
        <ele>184</ele>
        <time>2026-08-25T08:36:51+00:00</time>
      </trkpt>
      <trkpt lat="50.2419" lon="4.9253">
        <ele>187</ele>
        <time>2026-08-25T08:36:54+00:00</time>
      </trkpt>
      <trkpt lat="50.24195" lon="4.92568">
        <ele>192</ele>
        <time>2026-08-25T08:36:57+00:00</time>
      </trkpt>
      <trkpt lat="50.24196" lon="4.92582">
        <ele>194</ele>
        <time>2026-08-25T08:37:00+00:00</time>
      </trkpt>
      <trkpt lat="50.24196" lon="4.92597">
        <ele>192</ele>
        <time>2026-08-25T08:37:03+00:00</time>
      </trkpt>
      <trkpt lat="50.24193" lon="4.92609">
        <ele>193</ele>
        <time>2026-08-25T08:37:06+00:00</time>
      </trkpt>
      <trkpt lat="50.24187" lon="4.92628">
        <ele>192</ele>
        <time>2026-08-25T08:37:09+00:00</time>
      </trkpt>
      <trkpt lat="50.24181" lon="4.92652">
        <ele>192</ele>
        <time>2026-08-25T08:37:12+00:00</time>
      </trkpt>
      <trkpt lat="50.24175" lon="4.92682">
        <ele>200</ele>
        <time>2026-08-25T08:37:15+00:00</time>
      </trkpt>
      <trkpt lat="50.24176" lon="4.92703">
        <ele>200</ele>
        <time>2026-08-25T08:37:18+00:00</time>
      </trkpt>
      <trkpt lat="50.24186" lon="4.92736">
        <ele>200</ele>
        <time>2026-08-25T08:37:21+00:00</time>
      </trkpt>
      <trkpt lat="50.24189" lon="4.92766">
        <ele>202</ele>
        <time>2026-08-25T08:37:24+00:00</time>
      </trkpt>
      <trkpt lat="50.24198" lon="4.92814">
        <ele>205</ele>
        <time>2026-08-25T08:37:27+00:00</time>
      </trkpt>
      <trkpt lat="50.24183" lon="4.92788">
        <ele>207</ele>
        <time>2026-08-25T08:37:30+00:00</time>
      </trkpt>
      <trkpt lat="50.24168" lon="4.9276">
        <ele>219</ele>
        <time>2026-08-25T08:37:33+00:00</time>
      </trkpt>
      <trkpt lat="50.24156" lon="4.9274">
        <ele>217</ele>
        <time>2026-08-25T08:37:36+00:00</time>
      </trkpt>
      <trkpt lat="50.24152" lon="4.92709">
        <ele>215</ele>
        <time>2026-08-25T08:37:39+00:00</time>
      </trkpt>
      <trkpt lat="50.24146" lon="4.92687">
        <ele>218</ele>
        <time>2026-08-25T08:37:42+00:00</time>
      </trkpt>
      <trkpt lat="50.24135" lon="4.92658">
        <ele>215</ele>
        <time>2026-08-25T08:37:45+00:00</time>
      </trkpt>
      <trkpt lat="50.24117" lon="4.92611">
        <ele>212</ele>
        <time>2026-08-25T08:37:48+00:00</time>
      </trkpt>
      <trkpt lat="50.24111" lon="4.92639">
        <ele>215</ele>
        <time>2026-08-25T08:37:51+00:00</time>
      </trkpt>
      <trkpt lat="50.24108" lon="4.92701">
        <ele>219</ele>
        <time>2026-08-25T08:37:54+00:00</time>
      </trkpt>
      <trkpt lat="50.24105" lon="4.92706">
        <ele>219</ele>
        <time>2026-08-25T08:37:57+00:00</time>
      </trkpt>
      <trkpt lat="50.24103" lon="4.92716">
        <ele>220</ele>
        <time>2026-08-25T08:38:00+00:00</time>
      </trkpt>
      <trkpt lat="50.24099" lon="4.9272">
        <ele>219</ele>
        <time>2026-08-25T08:38:03+00:00</time>
      </trkpt>
      <trkpt lat="50.24092" lon="4.92723">
        <ele>220</ele>
        <time>2026-08-25T08:38:06+00:00</time>
      </trkpt>
      <trkpt lat="50.2409" lon="4.92725">
        <ele>220</ele>
        <time>2026-08-25T08:38:09+00:00</time>
      </trkpt>
      <trkpt lat="50.24089" lon="4.92728">
        <ele>216</ele>
        <time>2026-08-25T08:38:12+00:00</time>
      </trkpt>
      <trkpt lat="50.24093" lon="4.92765">
        <ele>219</ele>
        <time>2026-08-25T08:38:15+00:00</time>
      </trkpt>
      <trkpt lat="50.24092" lon="4.9278">
        <ele>223</ele>
        <time>2026-08-25T08:38:18+00:00</time>
      </trkpt>
      <trkpt lat="50.24089" lon="4.92794">
        <ele>221</ele>
        <time>2026-08-25T08:38:21+00:00</time>
      </trkpt>
      <trkpt lat="50.24092" lon="4.92805">
        <ele>225</ele>
        <time>2026-08-25T08:38:24+00:00</time>
      </trkpt>
      <trkpt lat="50.24092" lon="4.92815">
        <ele>224</ele>
        <time>2026-08-25T08:38:27+00:00</time>
      </trkpt>
      <trkpt lat="50.24091" lon="4.9282">
        <ele>220</ele>
        <time>2026-08-25T08:38:30+00:00</time>
      </trkpt>
      <trkpt lat="50.24085" lon="4.92823">
        <ele>221</ele>
        <time>2026-08-25T08:38:33+00:00</time>
      </trkpt>
      <trkpt lat="50.24072" lon="4.92824">
        <ele>219</ele>
        <time>2026-08-25T08:38:36+00:00</time>
      </trkpt>
      <trkpt lat="50.24044" lon="4.92814">
        <ele>218</ele>
        <time>2026-08-25T08:38:39+00:00</time>
      </trkpt>
      <trkpt lat="50.24039" lon="4.92818">
        <ele>217</ele>
        <time>2026-08-25T08:38:42+00:00</time>
      </trkpt>
      <trkpt lat="50.24035" lon="4.92828">
        <ele>217</ele>
        <time>2026-08-25T08:38:45+00:00</time>
      </trkpt>
      <trkpt lat="50.24022" lon="4.92847">
        <ele>218</ele>
        <time>2026-08-25T08:38:48+00:00</time>
      </trkpt>
      <trkpt lat="50.24007" lon="4.9287">
        <ele>217</ele>
        <time>2026-08-25T08:38:51+00:00</time>
      </trkpt>
      <trkpt lat="50.23971" lon="4.92896">
        <ele>216</ele>
        <time>2026-08-25T08:38:54+00:00</time>
      </trkpt>
      <trkpt lat="50.23968" lon="4.9296">
        <ele>216</ele>
        <time>2026-08-25T08:38:57+00:00</time>
      </trkpt>
      <trkpt lat="50.23974" lon="4.93007">
        <ele>216</ele>
        <time>2026-08-25T08:39:00+00:00</time>
      </trkpt>
      <trkpt lat="50.23966" lon="4.93041">
        <ele>211</ele>
        <time>2026-08-25T08:39:03+00:00</time>
      </trkpt>
      <trkpt lat="50.23955" lon="4.9308">
        <ele>209</ele>
        <time>2026-08-25T08:39:06+00:00</time>
      </trkpt>
      <trkpt lat="50.23927" lon="4.93093">
        <ele>209</ele>
        <time>2026-08-25T08:39:09+00:00</time>
      </trkpt>
      <trkpt lat="50.23919" lon="4.93029">
        <ele>205</ele>
        <time>2026-08-25T08:39:12+00:00</time>
      </trkpt>
      <trkpt lat="50.23924" lon="4.92985">
        <ele>204</ele>
        <time>2026-08-25T08:39:15+00:00</time>
      </trkpt>
      <trkpt lat="50.23933" lon="4.929">
        <ele>200</ele>
        <time>2026-08-25T08:39:18+00:00</time>
      </trkpt>
      <trkpt lat="50.23935" lon="4.92862">
        <ele>198</ele>
        <time>2026-08-25T08:39:21+00:00</time>
      </trkpt>
      <trkpt lat="50.23937" lon="4.92811">
        <ele>192</ele>
        <time>2026-08-25T08:39:24+00:00</time>
      </trkpt>
      <trkpt lat="50.23925" lon="4.92827">
        <ele>192</ele>
        <time>2026-08-25T08:39:27+00:00</time>
      </trkpt>
      <trkpt lat="50.23918" lon="4.9282">
        <ele>191</ele>
        <time>2026-08-25T08:39:30+00:00</time>
      </trkpt>
      <trkpt lat="50.23918" lon="4.92801">
        <ele>191</ele>
        <time>2026-08-25T08:39:33+00:00</time>
      </trkpt>
      <trkpt lat="50.23925" lon="4.92776">
        <ele>190</ele>
        <time>2026-08-25T08:39:36+00:00</time>
      </trkpt>
      <trkpt lat="50.23932" lon="4.92748">
        <ele>189</ele>
        <time>2026-08-25T08:39:39+00:00</time>
      </trkpt>
      <trkpt lat="50.23932" lon="4.92736">
        <ele>189</ele>
        <time>2026-08-25T08:39:42+00:00</time>
      </trkpt>
      <trkpt lat="50.23936" lon="4.92698">
        <ele>186</ele>
        <time>2026-08-25T08:39:45+00:00</time>
      </trkpt>
      <trkpt lat="50.23944" lon="4.92634">
        <ele>184</ele>
        <time>2026-08-25T08:39:48+00:00</time>
      </trkpt>
      <trkpt lat="50.23951" lon="4.92604">
        <ele>183</ele>
        <time>2026-08-25T08:39:51+00:00</time>
      </trkpt>
      <trkpt lat="50.2396" lon="4.92582">
        <ele>182</ele>
        <time>2026-08-25T08:39:54+00:00</time>
      </trkpt>
      <trkpt lat="50.23965" lon="4.92567">
        <ele>181</ele>
        <time>2026-08-25T08:39:57+00:00</time>
      </trkpt>
      <trkpt lat="50.23968" lon="4.92527">
        <ele>176</ele>
        <time>2026-08-25T08:40:00+00:00</time>
      </trkpt>
      <trkpt lat="50.23978" lon="4.92485">
        <ele>175</ele>
        <time>2026-08-25T08:40:03+00:00</time>
      </trkpt>
      <trkpt lat="50.23987" lon="4.92454">
        <ele>174</ele>
        <time>2026-08-25T08:40:06+00:00</time>
      </trkpt>
      <trkpt lat="50.23996" lon="4.92442">
        <ele>174</ele>
        <time>2026-08-25T08:40:09+00:00</time>
      </trkpt>
      <trkpt lat="50.24018" lon="4.92426">
        <ele>170</ele>
        <time>2026-08-25T08:40:12+00:00</time>
      </trkpt>
      <trkpt lat="50.24025" lon="4.92419">
        <ele>167</ele>
        <time>2026-08-25T08:40:15+00:00</time>
      </trkpt>
      <trkpt lat="50.24041" lon="4.92396">
        <ele>164</ele>
        <time>2026-08-25T08:40:18+00:00</time>
      </trkpt>
      <trkpt lat="50.24049" lon="4.92376">
        <ele>165</ele>
        <time>2026-08-25T08:40:21+00:00</time>
      </trkpt>
      <trkpt lat="50.24053" lon="4.92359">
        <ele>165</ele>
        <time>2026-08-25T08:40:24+00:00</time>
      </trkpt>
      <trkpt lat="50.24046" lon="4.92324">
        <ele>165</ele>
        <time>2026-08-25T08:40:27+00:00</time>
      </trkpt>
      <trkpt lat="50.24044" lon="4.92281">
        <ele>165</ele>
        <time>2026-08-25T08:40:30+00:00</time>
      </trkpt>
      <trkpt lat="50.2404" lon="4.92261">
        <ele>165</ele>
        <time>2026-08-25T08:40:33+00:00</time>
      </trkpt>
      <trkpt lat="50.24024" lon="4.92248">
        <ele>165</ele>
        <time>2026-08-25T08:40:36+00:00</time>
      </trkpt>
      <trkpt lat="50.24005" lon="4.92233">
        <ele>164</ele>
        <time>2026-08-25T08:40:39+00:00</time>
      </trkpt>
      <trkpt lat="50.23991" lon="4.92245">
        <ele>165</ele>
        <time>2026-08-25T08:40:42+00:00</time>
      </trkpt>
      <trkpt lat="50.23981" lon="4.9227">
        <ele>166</ele>
        <time>2026-08-25T08:40:45+00:00</time>
      </trkpt>
      <trkpt lat="50.23966" lon="4.92307">
        <ele>165</ele>
        <time>2026-08-25T08:40:48+00:00</time>
      </trkpt>
      <trkpt lat="50.23955" lon="4.9234">
        <ele>165</ele>
        <time>2026-08-25T08:40:51+00:00</time>
      </trkpt>
      <trkpt lat="50.23942" lon="4.92382">
        <ele>165</ele>
        <time>2026-08-25T08:40:54+00:00</time>
      </trkpt>
      <trkpt lat="50.23929" lon="4.92433">
        <ele>183</ele>
        <time>2026-08-25T08:40:57+00:00</time>
      </trkpt>
      <trkpt lat="50.23922" lon="4.92472">
        <ele>184</ele>
        <time>2026-08-25T08:41:00+00:00</time>
      </trkpt>
      <trkpt lat="50.23913" lon="4.92528">
        <ele>183</ele>
        <time>2026-08-25T08:41:03+00:00</time>
      </trkpt>
      <trkpt lat="50.23904" lon="4.92566">
        <ele>182</ele>
        <time>2026-08-25T08:41:06+00:00</time>
      </trkpt>
      <trkpt lat="50.2389" lon="4.92623">
        <ele>183</ele>
        <time>2026-08-25T08:41:09+00:00</time>
      </trkpt>
      <trkpt lat="50.23879" lon="4.92658">
        <ele>184</ele>
        <time>2026-08-25T08:41:12+00:00</time>
      </trkpt>
      <trkpt lat="50.23875" lon="4.92677">
        <ele>185</ele>
        <time>2026-08-25T08:41:15+00:00</time>
      </trkpt>
      <trkpt lat="50.23865" lon="4.92718">
        <ele>188</ele>
        <time>2026-08-25T08:41:18+00:00</time>
      </trkpt>
      <trkpt lat="50.23855" lon="4.92759">
        <ele>193</ele>
        <time>2026-08-25T08:41:21+00:00</time>
      </trkpt>
      <trkpt lat="50.23838" lon="4.9283">
        <ele>198</ele>
        <time>2026-08-25T08:41:24+00:00</time>
      </trkpt>
      <trkpt lat="50.23834" lon="4.92874">
        <ele>199</ele>
        <time>2026-08-25T08:41:27+00:00</time>
      </trkpt>
      <trkpt lat="50.2383" lon="4.92904">
        <ele>201</ele>
        <time>2026-08-25T08:41:30+00:00</time>
      </trkpt>
      <trkpt lat="50.23825" lon="4.92921">
        <ele>202</ele>
        <time>2026-08-25T08:41:33+00:00</time>
      </trkpt>
      <trkpt lat="50.23815" lon="4.92946">
        <ele>203</ele>
        <time>2026-08-25T08:41:36+00:00</time>
      </trkpt>
      <trkpt lat="50.2381" lon="4.92962">
        <ele>205</ele>
        <time>2026-08-25T08:41:39+00:00</time>
      </trkpt>
      <trkpt lat="50.23801" lon="4.92996">
        <ele>207</ele>
        <time>2026-08-25T08:41:42+00:00</time>
      </trkpt>
      <trkpt lat="50.23786" lon="4.93054">
        <ele>213</ele>
        <time>2026-08-25T08:41:45+00:00</time>
      </trkpt>
      <trkpt lat="50.23775" lon="4.93086">
        <ele>215</ele>
        <time>2026-08-25T08:41:48+00:00</time>
      </trkpt>
      <trkpt lat="50.23766" lon="4.93129">
        <ele>217</ele>
        <time>2026-08-25T08:41:51+00:00</time>
      </trkpt>
      <trkpt lat="50.23759" lon="4.93156">
        <ele>219</ele>
        <time>2026-08-25T08:41:54+00:00</time>
      </trkpt>
      <trkpt lat="50.23747" lon="4.93187">
        <ele>221</ele>
        <time>2026-08-25T08:41:57+00:00</time>
      </trkpt>
      <trkpt lat="50.23736" lon="4.93209">
        <ele>223</ele>
        <time>2026-08-25T08:42:00+00:00</time>
      </trkpt>
      <trkpt lat="50.23713" lon="4.93247">
        <ele>226</ele>
        <time>2026-08-25T08:42:03+00:00</time>
      </trkpt>
      <trkpt lat="50.23698" lon="4.93276">
        <ele>230</ele>
        <time>2026-08-25T08:42:06+00:00</time>
      </trkpt>
      <trkpt lat="50.2368" lon="4.93311">
        <ele>234</ele>
        <time>2026-08-25T08:42:09+00:00</time>
      </trkpt>
      <trkpt lat="50.23659" lon="4.93348">
        <ele>237</ele>
        <time>2026-08-25T08:42:12+00:00</time>
      </trkpt>
      <trkpt lat="50.23643" lon="4.9337">
        <ele>240</ele>
        <time>2026-08-25T08:42:15+00:00</time>
      </trkpt>
      <trkpt lat="50.23608" lon="4.93392">
        <ele>242</ele>
        <time>2026-08-25T08:42:18+00:00</time>
      </trkpt>
      <trkpt lat="50.23593" lon="4.93408">
        <ele>243</ele>
        <time>2026-08-25T08:42:21+00:00</time>
      </trkpt>
      <trkpt lat="50.23599" lon="4.93437">
        <ele>244</ele>
        <time>2026-08-25T08:42:24+00:00</time>
      </trkpt>
      <trkpt lat="50.23604" lon="4.93471">
        <ele>245</ele>
        <time>2026-08-25T08:42:27+00:00</time>
      </trkpt>
      <trkpt lat="50.23609" lon="4.93507">
        <ele>246</ele>
        <time>2026-08-25T08:42:30+00:00</time>
      </trkpt>
      <trkpt lat="50.23613" lon="4.93553">
        <ele>247</ele>
        <time>2026-08-25T08:42:33+00:00</time>
      </trkpt>
      <trkpt lat="50.23617" lon="4.936">
        <ele>248</ele>
        <time>2026-08-25T08:42:36+00:00</time>
      </trkpt>
      <trkpt lat="50.23623" lon="4.93659">
        <ele>248</ele>
        <time>2026-08-25T08:42:39+00:00</time>
      </trkpt>
      <trkpt lat="50.23628" lon="4.93708">
        <ele>251</ele>
        <time>2026-08-25T08:42:42+00:00</time>
      </trkpt>
      <trkpt lat="50.23642" lon="4.93765">
        <ele>252</ele>
        <time>2026-08-25T08:42:45+00:00</time>
      </trkpt>
      <trkpt lat="50.23634" lon="4.93779">
        <ele>253</ele>
        <time>2026-08-25T08:42:48+00:00</time>
      </trkpt>
      <trkpt lat="50.23611" lon="4.93796">
        <ele>252</ele>
        <time>2026-08-25T08:42:51+00:00</time>
      </trkpt>
      <trkpt lat="50.23599" lon="4.93817">
        <ele>249</ele>
        <time>2026-08-25T08:42:54+00:00</time>
      </trkpt>
      <trkpt lat="50.23574" lon="4.93826">
        <ele>248</ele>
        <time>2026-08-25T08:42:57+00:00</time>
      </trkpt>
      <trkpt lat="50.23538" lon="4.93839">
        <ele>246</ele>
        <time>2026-08-25T08:43:00+00:00</time>
      </trkpt>
      <trkpt lat="50.23535" lon="4.93838">
        <ele>246</ele>
        <time>2026-08-25T08:43:03+00:00</time>
      </trkpt>
      <trkpt lat="50.23536" lon="4.93827">
        <ele>246</ele>
        <time>2026-08-25T08:43:06+00:00</time>
      </trkpt>
      <trkpt lat="50.23517" lon="4.9382">
        <ele>244</ele>
        <time>2026-08-25T08:43:09+00:00</time>
      </trkpt>
      <trkpt lat="50.23493" lon="4.93812">
        <ele>243</ele>
        <time>2026-08-25T08:43:12+00:00</time>
      </trkpt>
      <trkpt lat="50.23476" lon="4.93808">
        <ele>241</ele>
        <time>2026-08-25T08:43:15+00:00</time>
      </trkpt>
      <trkpt lat="50.23477" lon="4.93768">
        <ele>239</ele>
        <time>2026-08-25T08:43:18+00:00</time>
      </trkpt>
      <trkpt lat="50.23451" lon="4.93766">
        <ele>238</ele>
        <time>2026-08-25T08:43:21+00:00</time>
      </trkpt>
      <trkpt lat="50.2341" lon="4.93763">
        <ele>236</ele>
        <time>2026-08-25T08:43:24+00:00</time>
      </trkpt>
      <trkpt lat="50.23382" lon="4.93756">
        <ele>234</ele>
        <time>2026-08-25T08:43:27+00:00</time>
      </trkpt>
      <trkpt lat="50.23382" lon="4.93735">
        <ele>233</ele>
        <time>2026-08-25T08:43:30+00:00</time>
      </trkpt>
      <trkpt lat="50.23378" lon="4.93728">
        <ele>232</ele>
        <time>2026-08-25T08:43:33+00:00</time>
      </trkpt>
      <trkpt lat="50.23371" lon="4.93728">
        <ele>232</ele>
        <time>2026-08-25T08:43:36+00:00</time>
      </trkpt>
      <trkpt lat="50.2334" lon="4.93723">
        <ele>231</ele>
        <time>2026-08-25T08:43:39+00:00</time>
      </trkpt>
      <trkpt lat="50.23309" lon="4.93717">
        <ele>229</ele>
        <time>2026-08-25T08:43:42+00:00</time>
      </trkpt>
      <trkpt lat="50.23278" lon="4.93712">
        <ele>226</ele>
        <time>2026-08-25T08:43:45+00:00</time>
      </trkpt>
      <trkpt lat="50.23243" lon="4.93706">
        <ele>224</ele>
        <time>2026-08-25T08:43:48+00:00</time>
      </trkpt>
      <trkpt lat="50.23216" lon="4.93757">
        <ele>224</ele>
        <time>2026-08-25T08:43:51+00:00</time>
      </trkpt>
      <trkpt lat="50.23195" lon="4.93793">
        <ele>224</ele>
        <time>2026-08-25T08:43:54+00:00</time>
      </trkpt>
      <trkpt lat="50.23174" lon="4.9383">
        <ele>223</ele>
        <time>2026-08-25T08:43:57+00:00</time>
      </trkpt>
      <trkpt lat="50.23137" lon="4.93893">
        <ele>222</ele>
        <time>2026-08-25T08:44:00+00:00</time>
      </trkpt>
      <trkpt lat="50.23114" lon="4.9393">
        <ele>220</ele>
        <time>2026-08-25T08:44:03+00:00</time>
      </trkpt>
      <trkpt lat="50.23098" lon="4.93959">
        <ele>219</ele>
        <time>2026-08-25T08:44:06+00:00</time>
      </trkpt>
      <trkpt lat="50.23092" lon="4.93988">
        <ele>218</ele>
        <time>2026-08-25T08:44:09+00:00</time>
      </trkpt>
      <trkpt lat="50.23092" lon="4.94005">
        <ele>217</ele>
        <time>2026-08-25T08:44:12+00:00</time>
      </trkpt>
      <trkpt lat="50.23096" lon="4.94041">
        <ele>217</ele>
        <time>2026-08-25T08:44:15+00:00</time>
      </trkpt>
      <trkpt lat="50.23096" lon="4.94053">
        <ele>215</ele>
        <time>2026-08-25T08:44:18+00:00</time>
      </trkpt>
      <trkpt lat="50.23093" lon="4.94067">
        <ele>216</ele>
        <time>2026-08-25T08:44:21+00:00</time>
      </trkpt>
      <trkpt lat="50.2309" lon="4.94078">
        <ele>217</ele>
        <time>2026-08-25T08:44:24+00:00</time>
      </trkpt>
      <trkpt lat="50.2308" lon="4.94099">
        <ele>216</ele>
        <time>2026-08-25T08:44:27+00:00</time>
      </trkpt>
      <trkpt lat="50.23058" lon="4.94134">
        <ele>217</ele>
        <time>2026-08-25T08:44:30+00:00</time>
      </trkpt>
      <trkpt lat="50.23036" lon="4.9417">
        <ele>218</ele>
        <time>2026-08-25T08:44:33+00:00</time>
      </trkpt>
      <trkpt lat="50.23014" lon="4.94205">
        <ele>219</ele>
        <time>2026-08-25T08:44:36+00:00</time>
      </trkpt>
      <trkpt lat="50.22992" lon="4.9424">
        <ele>220</ele>
        <time>2026-08-25T08:44:39+00:00</time>
      </trkpt>
      <trkpt lat="50.22967" lon="4.94281">
        <ele>223</ele>
        <time>2026-08-25T08:44:42+00:00</time>
      </trkpt>
      <trkpt lat="50.22949" lon="4.94306">
        <ele>226</ele>
        <time>2026-08-25T08:44:45+00:00</time>
      </trkpt>
      <trkpt lat="50.22924" lon="4.94333">
        <ele>228</ele>
        <time>2026-08-25T08:44:48+00:00</time>
      </trkpt>
      <trkpt lat="50.22898" lon="4.9436">
        <ele>229</ele>
        <time>2026-08-25T08:44:51+00:00</time>
      </trkpt>
      <trkpt lat="50.2286" lon="4.94401">
        <ele>231</ele>
        <time>2026-08-25T08:44:54+00:00</time>
      </trkpt>
      <trkpt lat="50.22852" lon="4.94411">
        <ele>231</ele>
        <time>2026-08-25T08:44:57+00:00</time>
      </trkpt>
      <trkpt lat="50.2284" lon="4.94431">
        <ele>231</ele>
        <time>2026-08-25T08:45:00+00:00</time>
      </trkpt>
      <trkpt lat="50.22832" lon="4.94447">
        <ele>231</ele>
        <time>2026-08-25T08:45:03+00:00</time>
      </trkpt>
      <trkpt lat="50.22811" lon="4.94454">
        <ele>231</ele>
        <time>2026-08-25T08:45:06+00:00</time>
      </trkpt>
      <trkpt lat="50.22778" lon="4.94465">
        <ele>230</ele>
        <time>2026-08-25T08:45:09+00:00</time>
      </trkpt>
      <trkpt lat="50.22755" lon="4.94468">
        <ele>228</ele>
        <time>2026-08-25T08:45:12+00:00</time>
      </trkpt>
      <trkpt lat="50.2273" lon="4.94476">
        <ele>226</ele>
        <time>2026-08-25T08:45:15+00:00</time>
      </trkpt>
      <trkpt lat="50.22695" lon="4.94488">
        <ele>222</ele>
        <time>2026-08-25T08:45:18+00:00</time>
      </trkpt>
      <trkpt lat="50.22672" lon="4.94502">
        <ele>220</ele>
        <time>2026-08-25T08:45:21+00:00</time>
      </trkpt>
      <trkpt lat="50.22648" lon="4.94499">
        <ele>217</ele>
        <time>2026-08-25T08:45:24+00:00</time>
      </trkpt>
      <trkpt lat="50.2262" lon="4.94495">
        <ele>214</ele>
        <time>2026-08-25T08:45:27+00:00</time>
      </trkpt>
      <trkpt lat="50.22594" lon="4.94497">
        <ele>210</ele>
        <time>2026-08-25T08:45:30+00:00</time>
      </trkpt>
      <trkpt lat="50.22555" lon="4.945">
        <ele>203</ele>
        <time>2026-08-25T08:45:33+00:00</time>
      </trkpt>
      <trkpt lat="50.22524" lon="4.94501">
        <ele>200</ele>
        <time>2026-08-25T08:45:36+00:00</time>
      </trkpt>
      <trkpt lat="50.22492" lon="4.94502">
        <ele>197</ele>
        <time>2026-08-25T08:45:39+00:00</time>
      </trkpt>
      <trkpt lat="50.22439" lon="4.94504">
        <ele>194</ele>
        <time>2026-08-25T08:45:42+00:00</time>
      </trkpt>
      <trkpt lat="50.22412" lon="4.94505">
        <ele>197</ele>
        <time>2026-08-25T08:45:45+00:00</time>
      </trkpt>
      <trkpt lat="50.22367" lon="4.94508">
        <ele>201</ele>
        <time>2026-08-25T08:45:48+00:00</time>
      </trkpt>
      <trkpt lat="50.22349" lon="4.94505">
        <ele>202</ele>
        <time>2026-08-25T08:45:51+00:00</time>
      </trkpt>
      <trkpt lat="50.22314" lon="4.94486">
        <ele>207</ele>
        <time>2026-08-25T08:45:54+00:00</time>
      </trkpt>
      <trkpt lat="50.22288" lon="4.94474">
        <ele>211</ele>
        <time>2026-08-25T08:45:57+00:00</time>
      </trkpt>
      <trkpt lat="50.22283" lon="4.94476">
        <ele>211</ele>
        <time>2026-08-25T08:46:00+00:00</time>
      </trkpt>
      <trkpt lat="50.22262" lon="4.94469">
        <ele>211</ele>
        <time>2026-08-25T08:46:03+00:00</time>
      </trkpt>
      <trkpt lat="50.2224" lon="4.94454">
        <ele>211</ele>
        <time>2026-08-25T08:46:06+00:00</time>
      </trkpt>
      <trkpt lat="50.22211" lon="4.94449">
        <ele>209</ele>
        <time>2026-08-25T08:46:09+00:00</time>
      </trkpt>
      <trkpt lat="50.22183" lon="4.94437">
        <ele>203</ele>
        <time>2026-08-25T08:46:12+00:00</time>
      </trkpt>
      <trkpt lat="50.22162" lon="4.94438">
        <ele>200</ele>
        <time>2026-08-25T08:46:15+00:00</time>
      </trkpt>
      <trkpt lat="50.22123" lon="4.9441">
        <ele>198</ele>
        <time>2026-08-25T08:46:18+00:00</time>
      </trkpt>
      <trkpt lat="50.2211" lon="4.94403">
        <ele>199</ele>
        <time>2026-08-25T08:46:21+00:00</time>
      </trkpt>
      <trkpt lat="50.22098" lon="4.94411">
        <ele>200</ele>
        <time>2026-08-25T08:46:24+00:00</time>
      </trkpt>
      <trkpt lat="50.22079" lon="4.94399">
        <ele>198</ele>
        <time>2026-08-25T08:46:27+00:00</time>
      </trkpt>
      <trkpt lat="50.22069" lon="4.944">
        <ele>197</ele>
        <time>2026-08-25T08:46:30+00:00</time>
      </trkpt>
      <trkpt lat="50.22051" lon="4.94394">
        <ele>196</ele>
        <time>2026-08-25T08:46:33+00:00</time>
      </trkpt>
      <trkpt lat="50.22043" lon="4.94397">
        <ele>191</ele>
        <time>2026-08-25T08:46:36+00:00</time>
      </trkpt>
      <trkpt lat="50.22035" lon="4.94411">
        <ele>180</ele>
        <time>2026-08-25T08:46:39+00:00</time>
      </trkpt>
      <trkpt lat="50.22032" lon="4.94421">
        <ele>176</ele>
        <time>2026-08-25T08:46:42+00:00</time>
      </trkpt>
      <trkpt lat="50.22021" lon="4.94421">
        <ele>172</ele>
        <time>2026-08-25T08:46:45+00:00</time>
      </trkpt>
      <trkpt lat="50.2201" lon="4.94426">
        <ele>168</ele>
        <time>2026-08-25T08:46:48+00:00</time>
      </trkpt>
      <trkpt lat="50.22004" lon="4.94415">
        <ele>168</ele>
        <time>2026-08-25T08:46:51+00:00</time>
      </trkpt>
      <trkpt lat="50.21999" lon="4.94422">
        <ele>163</ele>
        <time>2026-08-25T08:46:54+00:00</time>
      </trkpt>
      <trkpt lat="50.21996" lon="4.94423">
        <ele>163</ele>
        <time>2026-08-25T08:46:57+00:00</time>
      </trkpt>
      <trkpt lat="50.2199" lon="4.94422">
        <ele>160</ele>
        <time>2026-08-25T08:47:00+00:00</time>
      </trkpt>
      <trkpt lat="50.21986" lon="4.94415">
        <ele>163</ele>
        <time>2026-08-25T08:47:03+00:00</time>
      </trkpt>
      <trkpt lat="50.21965" lon="4.94397">
        <ele>159</ele>
        <time>2026-08-25T08:47:06+00:00</time>
      </trkpt>
      <trkpt lat="50.21946" lon="4.94354">
        <ele>158</ele>
        <time>2026-08-25T08:47:09+00:00</time>
      </trkpt>
      <trkpt lat="50.21927" lon="4.94337">
        <ele>151</ele>
        <time>2026-08-25T08:47:12+00:00</time>
      </trkpt>
      <trkpt lat="50.21908" lon="4.94301">
        <ele>147</ele>
        <time>2026-08-25T08:47:15+00:00</time>
      </trkpt>
      <trkpt lat="50.21891" lon="4.94279">
        <ele>147</ele>
        <time>2026-08-25T08:47:18+00:00</time>
      </trkpt>
      <trkpt lat="50.21884" lon="4.9428">
        <ele>141</ele>
        <time>2026-08-25T08:47:21+00:00</time>
      </trkpt>
      <trkpt lat="50.2188" lon="4.94305">
        <ele>140</ele>
        <time>2026-08-25T08:47:24+00:00</time>
      </trkpt>
      <trkpt lat="50.21887" lon="4.94337">
        <ele>138</ele>
        <time>2026-08-25T08:47:27+00:00</time>
      </trkpt>
      <trkpt lat="50.21887" lon="4.94346">
        <ele>138</ele>
        <time>2026-08-25T08:47:30+00:00</time>
      </trkpt>
      <trkpt lat="50.21884" lon="4.94358">
        <ele>136</ele>
        <time>2026-08-25T08:47:33+00:00</time>
      </trkpt>
      <trkpt lat="50.21884" lon="4.94378">
        <ele>134</ele>
        <time>2026-08-25T08:47:36+00:00</time>
      </trkpt>
      <trkpt lat="50.21875" lon="4.94417">
        <ele>124</ele>
        <time>2026-08-25T08:47:39+00:00</time>
      </trkpt>
      <trkpt lat="50.21874" lon="4.94446">
        <ele>120</ele>
        <time>2026-08-25T08:47:42+00:00</time>
      </trkpt>
      <trkpt lat="50.21877" lon="4.94457">
        <ele>119</ele>
        <time>2026-08-25T08:47:45+00:00</time>
      </trkpt>
      <trkpt lat="50.21884" lon="4.94472">
        <ele>120</ele>
        <time>2026-08-25T08:47:48+00:00</time>
      </trkpt>
      <trkpt lat="50.21888" lon="4.94493">
        <ele>116</ele>
        <time>2026-08-25T08:47:51+00:00</time>
      </trkpt>
      <trkpt lat="50.21885" lon="4.9451">
        <ele>114</ele>
        <time>2026-08-25T08:47:54+00:00</time>
      </trkpt>
      <trkpt lat="50.21874" lon="4.9452">
        <ele>112</ele>
        <time>2026-08-25T08:47:57+00:00</time>
      </trkpt>
      <trkpt lat="50.21867" lon="4.94531">
        <ele>110</ele>
        <time>2026-08-25T08:48:00+00:00</time>
      </trkpt>
      <trkpt lat="50.21864" lon="4.9454">
        <ele>110</ele>
        <time>2026-08-25T08:48:03+00:00</time>
      </trkpt>
      <trkpt lat="50.21854" lon="4.94559">
        <ele>109</ele>
        <time>2026-08-25T08:48:06+00:00</time>
      </trkpt>
      <trkpt lat="50.21831" lon="4.94567">
        <ele>109</ele>
        <time>2026-08-25T08:48:09+00:00</time>
      </trkpt>
      <trkpt lat="50.21825" lon="4.94558">
        <ele>107</ele>
        <time>2026-08-25T08:48:12+00:00</time>
      </trkpt>
      <trkpt lat="50.2183" lon="4.94547">
        <ele>108</ele>
        <time>2026-08-25T08:48:15+00:00</time>
      </trkpt>
      <trkpt lat="50.21832" lon="4.94518">
        <ele>109</ele>
        <time>2026-08-25T08:48:18+00:00</time>
      </trkpt>
      <trkpt lat="50.21835" lon="4.94517">
        <ele>109</ele>
        <time>2026-08-25T08:48:21+00:00</time>
      </trkpt>
      <trkpt lat="50.21839" lon="4.94541">
        <ele>108</ele>
        <time>2026-08-25T08:48:24+00:00</time>
      </trkpt>
      <trkpt lat="50.21841" lon="4.94558">
        <ele>108</ele>
        <time>2026-08-25T08:48:27+00:00</time>
      </trkpt>
      <trkpt lat="50.2184" lon="4.94586">
        <ele>110</ele>
        <time>2026-08-25T08:48:30+00:00</time>
      </trkpt>
      <trkpt lat="50.2184" lon="4.9462">
        <ele>112</ele>
        <time>2026-08-25T08:48:33+00:00</time>
      </trkpt>
      <trkpt lat="50.21838" lon="4.94642">
        <ele>121</ele>
        <time>2026-08-25T08:48:36+00:00</time>
      </trkpt>
      <trkpt lat="50.21837" lon="4.94647">
        <ele>121</ele>
        <time>2026-08-25T08:48:39+00:00</time>
      </trkpt>
      <trkpt lat="50.21832" lon="4.94652">
        <ele>122</ele>
        <time>2026-08-25T08:48:42+00:00</time>
      </trkpt>
      <trkpt lat="50.21829" lon="4.94651">
        <ele>129</ele>
        <time>2026-08-25T08:48:45+00:00</time>
      </trkpt>
      <trkpt lat="50.21825" lon="4.94641">
        <ele>128</ele>
        <time>2026-08-25T08:48:48+00:00</time>
      </trkpt>
      <trkpt lat="50.21829" lon="4.94636">
        <ele>115</ele>
        <time>2026-08-25T08:48:51+00:00</time>
      </trkpt>
      <trkpt lat="50.21843" lon="4.94634">
        <ele>113</ele>
        <time>2026-08-25T08:48:54+00:00</time>
      </trkpt>
      <trkpt lat="50.2185" lon="4.94631">
        <ele>110</ele>
        <time>2026-08-25T08:48:57+00:00</time>
      </trkpt>
      <trkpt lat="50.21869" lon="4.94614">
        <ele>108</ele>
        <time>2026-08-25T08:49:00+00:00</time>
      </trkpt>
      <trkpt lat="50.21889" lon="4.94596">
        <ele>106</ele>
        <time>2026-08-25T08:49:03+00:00</time>
      </trkpt>
      <trkpt lat="50.21899" lon="4.94588">
        <ele>107</ele>
        <time>2026-08-25T08:49:06+00:00</time>
      </trkpt>
      <trkpt lat="50.2191" lon="4.94585">
        <ele>105</ele>
        <time>2026-08-25T08:49:09+00:00</time>
      </trkpt>
      <trkpt lat="50.21915" lon="4.94623">
        <ele>104</ele>
        <time>2026-08-25T08:49:12+00:00</time>
      </trkpt>
      <trkpt lat="50.21917" lon="4.94635">
        <ele>100</ele>
        <time>2026-08-25T08:49:15+00:00</time>
      </trkpt>
      <trkpt lat="50.21919" lon="4.94666">
        <ele>104</ele>
        <time>2026-08-25T08:49:18+00:00</time>
      </trkpt>
      <trkpt lat="50.21919" lon="4.94705">
        <ele>105</ele>
        <time>2026-08-25T08:49:21+00:00</time>
      </trkpt>
      <trkpt lat="50.21921" lon="4.94713">
        <ele>103</ele>
        <time>2026-08-25T08:49:24+00:00</time>
      </trkpt>
      <trkpt lat="50.21935" lon="4.94747">
        <ele>106</ele>
        <time>2026-08-25T08:49:27+00:00</time>
      </trkpt>
      <trkpt lat="50.21939" lon="4.94763">
        <ele>108</ele>
        <time>2026-08-25T08:49:30+00:00</time>
      </trkpt>
      <trkpt lat="50.21941" lon="4.94781">
        <ele>107</ele>
        <time>2026-08-25T08:49:33+00:00</time>
      </trkpt>
      <trkpt lat="50.21939" lon="4.94797">
        <ele>109</ele>
        <time>2026-08-25T08:49:36+00:00</time>
      </trkpt>
      <trkpt lat="50.21932" lon="4.94818">
        <ele>109</ele>
        <time>2026-08-25T08:49:39+00:00</time>
      </trkpt>
      <trkpt lat="50.21923" lon="4.94835">
        <ele>110</ele>
        <time>2026-08-25T08:49:42+00:00</time>
      </trkpt>
      <trkpt lat="50.21921" lon="4.94843">
        <ele>109</ele>
        <time>2026-08-25T08:49:45+00:00</time>
      </trkpt>
      <trkpt lat="50.21913" lon="4.94863">
        <ele>109</ele>
        <time>2026-08-25T08:49:48+00:00</time>
      </trkpt>
      <trkpt lat="50.21902" lon="4.94881">
        <ele>109</ele>
        <time>2026-08-25T08:49:51+00:00</time>
      </trkpt>
      <trkpt lat="50.2189" lon="4.94901">
        <ele>109</ele>
        <time>2026-08-25T08:49:54+00:00</time>
      </trkpt>
      <trkpt lat="50.21884" lon="4.94908">
        <ele>109</ele>
        <time>2026-08-25T08:49:57+00:00</time>
      </trkpt>
      <trkpt lat="50.21859" lon="4.94923">
        <ele>109</ele>
        <time>2026-08-25T08:50:00+00:00</time>
      </trkpt>
      <trkpt lat="50.21837" lon="4.9493">
        <ele>109</ele>
        <time>2026-08-25T08:50:03+00:00</time>
      </trkpt>
      <trkpt lat="50.21815" lon="4.94937">
        <ele>107</ele>
        <time>2026-08-25T08:50:06+00:00</time>
      </trkpt>
      <trkpt lat="50.21801" lon="4.94945">
        <ele>105</ele>
        <time>2026-08-25T08:50:09+00:00</time>
      </trkpt>
      <trkpt lat="50.21782" lon="4.94952">
        <ele>104</ele>
        <time>2026-08-25T08:50:12+00:00</time>
      </trkpt>
      <trkpt lat="50.21754" lon="4.94951">
        <ele>103</ele>
        <time>2026-08-25T08:50:15+00:00</time>
      </trkpt>
      <trkpt lat="50.21747" lon="4.94954">
        <ele>105</ele>
        <time>2026-08-25T08:50:18+00:00</time>
      </trkpt>
      <trkpt lat="50.21734" lon="4.94962">
        <ele>100</ele>
        <time>2026-08-25T08:50:21+00:00</time>
      </trkpt>
      <trkpt lat="50.21714" lon="4.9497">
        <ele>99</ele>
        <time>2026-08-25T08:50:24+00:00</time>
      </trkpt>
      <trkpt lat="50.21687" lon="4.94974">
        <ele>99</ele>
        <time>2026-08-25T08:50:27+00:00</time>
      </trkpt>
      <trkpt lat="50.21662" lon="4.94969">
        <ele>100</ele>
        <time>2026-08-25T08:50:30+00:00</time>
      </trkpt>
      <trkpt lat="50.21636" lon="4.9496">
        <ele>100</ele>
        <time>2026-08-25T08:50:33+00:00</time>
      </trkpt>
      <trkpt lat="50.21595" lon="4.94947">
        <ele>100</ele>
        <time>2026-08-25T08:50:36+00:00</time>
      </trkpt>
      <trkpt lat="50.21572" lon="4.94938">
        <ele>100</ele>
        <time>2026-08-25T08:50:39+00:00</time>
      </trkpt>
      <trkpt lat="50.21546" lon="4.94928">
        <ele>101</ele>
        <time>2026-08-25T08:50:42+00:00</time>
      </trkpt>
      <trkpt lat="50.21525" lon="4.94919">
        <ele>101</ele>
        <time>2026-08-25T08:50:45+00:00</time>
      </trkpt>
      <trkpt lat="50.215" lon="4.94906">
        <ele>104</ele>
        <time>2026-08-25T08:50:48+00:00</time>
      </trkpt>
      <trkpt lat="50.21458" lon="4.94885">
        <ele>114</ele>
        <time>2026-08-25T08:50:51+00:00</time>
      </trkpt>
      <trkpt lat="50.21418" lon="4.94879">
        <ele>119</ele>
        <time>2026-08-25T08:50:54+00:00</time>
      </trkpt>
      <trkpt lat="50.21393" lon="4.94879">
        <ele>119</ele>
        <time>2026-08-25T08:50:57+00:00</time>
      </trkpt>
      <trkpt lat="50.21358" lon="4.94878">
        <ele>119</ele>
        <time>2026-08-25T08:51:00+00:00</time>
      </trkpt>
      <trkpt lat="50.2133" lon="4.94878">
        <ele>119</ele>
        <time>2026-08-25T08:51:03+00:00</time>
      </trkpt>
      <trkpt lat="50.21279" lon="4.94879">
        <ele>117</ele>
        <time>2026-08-25T08:51:06+00:00</time>
      </trkpt>
      <trkpt lat="50.21241" lon="4.94877">
        <ele>120</ele>
        <time>2026-08-25T08:51:09+00:00</time>
      </trkpt>
      <trkpt lat="50.21217" lon="4.94873">
        <ele>117</ele>
        <time>2026-08-25T08:51:12+00:00</time>
      </trkpt>
      <trkpt lat="50.21189" lon="4.94868">
        <ele>115</ele>
        <time>2026-08-25T08:51:15+00:00</time>
      </trkpt>
      <trkpt lat="50.21166" lon="4.9486">
        <ele>115</ele>
        <time>2026-08-25T08:51:18+00:00</time>
      </trkpt>
      <trkpt lat="50.21153" lon="4.94852">
        <ele>116</ele>
        <time>2026-08-25T08:51:21+00:00</time>
      </trkpt>
      <trkpt lat="50.21131" lon="4.94823">
        <ele>113</ele>
        <time>2026-08-25T08:51:24+00:00</time>
      </trkpt>
      <trkpt lat="50.2113" lon="4.94812">
        <ele>107</ele>
        <time>2026-08-25T08:51:27+00:00</time>
      </trkpt>
      <trkpt lat="50.21125" lon="4.94782">
        <ele>120</ele>
        <time>2026-08-25T08:51:30+00:00</time>
      </trkpt>
      <trkpt lat="50.21119" lon="4.94747">
        <ele>127</ele>
        <time>2026-08-25T08:51:33+00:00</time>
      </trkpt>
      <trkpt lat="50.21113" lon="4.94722">
        <ele>128</ele>
        <time>2026-08-25T08:51:36+00:00</time>
      </trkpt>
      <trkpt lat="50.21109" lon="4.94695">
        <ele>135</ele>
        <time>2026-08-25T08:51:39+00:00</time>
      </trkpt>
      <trkpt lat="50.21104" lon="4.94659">
        <ele>138</ele>
        <time>2026-08-25T08:51:42+00:00</time>
      </trkpt>
      <trkpt lat="50.21095" lon="4.94625">
        <ele>138</ele>
        <time>2026-08-25T08:51:45+00:00</time>
      </trkpt>
      <trkpt lat="50.21085" lon="4.94583">
        <ele>138</ele>
        <time>2026-08-25T08:51:48+00:00</time>
      </trkpt>
      <trkpt lat="50.2108" lon="4.94548">
        <ele>144</ele>
        <time>2026-08-25T08:51:51+00:00</time>
      </trkpt>
      <trkpt lat="50.21075" lon="4.94507">
        <ele>144</ele>
        <time>2026-08-25T08:51:54+00:00</time>
      </trkpt>
      <trkpt lat="50.21071" lon="4.94458">
        <ele>146</ele>
        <time>2026-08-25T08:51:57+00:00</time>
      </trkpt>
      <trkpt lat="50.21071" lon="4.94418">
        <ele>148</ele>
        <time>2026-08-25T08:52:00+00:00</time>
      </trkpt>
      <trkpt lat="50.2107" lon="4.94357">
        <ele>148</ele>
        <time>2026-08-25T08:52:03+00:00</time>
      </trkpt>
      <trkpt lat="50.21066" lon="4.94325">
        <ele>150</ele>
        <time>2026-08-25T08:52:06+00:00</time>
      </trkpt>
      <trkpt lat="50.21056" lon="4.9429">
        <ele>150</ele>
        <time>2026-08-25T08:52:09+00:00</time>
      </trkpt>
      <trkpt lat="50.21052" lon="4.94265">
        <ele>151</ele>
        <time>2026-08-25T08:52:12+00:00</time>
      </trkpt>
      <trkpt lat="50.21046" lon="4.94236">
        <ele>150</ele>
        <time>2026-08-25T08:52:15+00:00</time>
      </trkpt>
      <trkpt lat="50.21038" lon="4.94193">
        <ele>151</ele>
        <time>2026-08-25T08:52:18+00:00</time>
      </trkpt>
      <trkpt lat="50.21033" lon="4.94171">
        <ele>153</ele>
        <time>2026-08-25T08:52:21+00:00</time>
      </trkpt>
      <trkpt lat="50.2102" lon="4.94141">
        <ele>152</ele>
        <time>2026-08-25T08:52:24+00:00</time>
      </trkpt>
      <trkpt lat="50.20994" lon="4.94084">
        <ele>150</ele>
        <time>2026-08-25T08:52:27+00:00</time>
      </trkpt>
      <trkpt lat="50.20987" lon="4.94065">
        <ele>158</ele>
        <time>2026-08-25T08:52:30+00:00</time>
      </trkpt>
      <trkpt lat="50.20964" lon="4.94045">
        <ele>148</ele>
        <time>2026-08-25T08:52:33+00:00</time>
      </trkpt>
      <trkpt lat="50.20941" lon="4.94026">
        <ele>148</ele>
        <time>2026-08-25T08:52:36+00:00</time>
      </trkpt>
      <trkpt lat="50.20908" lon="4.93998">
        <ele>148</ele>
        <time>2026-08-25T08:52:39+00:00</time>
      </trkpt>
      <trkpt lat="50.2089" lon="4.93976">
        <ele>148</ele>
        <time>2026-08-25T08:52:42+00:00</time>
      </trkpt>
      <trkpt lat="50.20871" lon="4.93953">
        <ele>148</ele>
        <time>2026-08-25T08:52:45+00:00</time>
      </trkpt>
      <trkpt lat="50.20855" lon="4.93922">
        <ele>148</ele>
        <time>2026-08-25T08:52:48+00:00</time>
      </trkpt>
      <trkpt lat="50.20832" lon="4.93879">
        <ele>149</ele>
        <time>2026-08-25T08:52:51+00:00</time>
      </trkpt>
      <trkpt lat="50.20822" lon="4.93848">
        <ele>149</ele>
        <time>2026-08-25T08:52:54+00:00</time>
      </trkpt>
      <trkpt lat="50.20812" lon="4.93814">
        <ele>148</ele>
        <time>2026-08-25T08:52:57+00:00</time>
      </trkpt>
      <trkpt lat="50.208" lon="4.93765">
        <ele>155</ele>
        <time>2026-08-25T08:53:00+00:00</time>
      </trkpt>
      <trkpt lat="50.20779" lon="4.93718">
        <ele>162</ele>
        <time>2026-08-25T08:53:03+00:00</time>
      </trkpt>
      <trkpt lat="50.20761" lon="4.93698">
        <ele>163</ele>
        <time>2026-08-25T08:53:06+00:00</time>
      </trkpt>
      <trkpt lat="50.20754" lon="4.93689">
        <ele>167</ele>
        <time>2026-08-25T08:53:09+00:00</time>
      </trkpt>
      <trkpt lat="50.20744" lon="4.9368">
        <ele>170</ele>
        <time>2026-08-25T08:53:12+00:00</time>
      </trkpt>
      <trkpt lat="50.20731" lon="4.93671">
        <ele>172</ele>
        <time>2026-08-25T08:53:15+00:00</time>
      </trkpt>
      <trkpt lat="50.20712" lon="4.93652">
        <ele>174</ele>
        <time>2026-08-25T08:53:18+00:00</time>
      </trkpt>
      <trkpt lat="50.20689" lon="4.93602">
        <ele>176</ele>
        <time>2026-08-25T08:53:21+00:00</time>
      </trkpt>
      <trkpt lat="50.20663" lon="4.93558">
        <ele>179</ele>
        <time>2026-08-25T08:53:24+00:00</time>
      </trkpt>
      <trkpt lat="50.2065" lon="4.9353">
        <ele>180</ele>
        <time>2026-08-25T08:53:27+00:00</time>
      </trkpt>
      <trkpt lat="50.20636" lon="4.93499">
        <ele>180</ele>
        <time>2026-08-25T08:53:30+00:00</time>
      </trkpt>
      <trkpt lat="50.20614" lon="4.93443">
        <ele>180</ele>
        <time>2026-08-25T08:53:33+00:00</time>
      </trkpt>
      <trkpt lat="50.20579" lon="4.93417">
        <ele>177</ele>
        <time>2026-08-25T08:53:36+00:00</time>
      </trkpt>
      <trkpt lat="50.20572" lon="4.93411">
        <ele>181</ele>
        <time>2026-08-25T08:53:39+00:00</time>
      </trkpt>
      <trkpt lat="50.20565" lon="4.93389">
        <ele>178</ele>
        <time>2026-08-25T08:53:42+00:00</time>
      </trkpt>
      <trkpt lat="50.20559" lon="4.93389">
        <ele>178</ele>
        <time>2026-08-25T08:53:45+00:00</time>
      </trkpt>
      <trkpt lat="50.20553" lon="4.93385">
        <ele>178</ele>
        <time>2026-08-25T08:53:48+00:00</time>
      </trkpt>
      <trkpt lat="50.2053" lon="4.93357">
        <ele>179</ele>
        <time>2026-08-25T08:53:51+00:00</time>
      </trkpt>
      <trkpt lat="50.20519" lon="4.93349">
        <ele>177</ele>
        <time>2026-08-25T08:53:54+00:00</time>
      </trkpt>
      <trkpt lat="50.20499" lon="4.93342">
        <ele>181</ele>
        <time>2026-08-25T08:53:57+00:00</time>
      </trkpt>
      <trkpt lat="50.20469" lon="4.93331">
        <ele>185</ele>
        <time>2026-08-25T08:54:00+00:00</time>
      </trkpt>
      <trkpt lat="50.20449" lon="4.93321">
        <ele>189</ele>
        <time>2026-08-25T08:54:03+00:00</time>
      </trkpt>
      <trkpt lat="50.20427" lon="4.93305">
        <ele>189</ele>
        <time>2026-08-25T08:54:06+00:00</time>
      </trkpt>
      <trkpt lat="50.20401" lon="4.93285">
        <ele>189</ele>
        <time>2026-08-25T08:54:09+00:00</time>
      </trkpt>
      <trkpt lat="50.20372" lon="4.93266">
        <ele>187</ele>
        <time>2026-08-25T08:54:12+00:00</time>
      </trkpt>
      <trkpt lat="50.20352" lon="4.93258">
        <ele>186</ele>
        <time>2026-08-25T08:54:15+00:00</time>
      </trkpt>
      <trkpt lat="50.20354" lon="4.93245">
        <ele>185</ele>
        <time>2026-08-25T08:54:18+00:00</time>
      </trkpt>
      <trkpt lat="50.20366" lon="4.932">
        <ele>186</ele>
        <time>2026-08-25T08:54:21+00:00</time>
      </trkpt>
      <trkpt lat="50.20355" lon="4.93168">
        <ele>188</ele>
        <time>2026-08-25T08:54:24+00:00</time>
      </trkpt>
      <trkpt lat="50.20337" lon="4.93122">
        <ele>193</ele>
        <time>2026-08-25T08:54:27+00:00</time>
      </trkpt>
      <trkpt lat="50.20329" lon="4.93111">
        <ele>194</ele>
        <time>2026-08-25T08:54:30+00:00</time>
      </trkpt>
      <trkpt lat="50.20311" lon="4.93084">
        <ele>197</ele>
        <time>2026-08-25T08:54:33+00:00</time>
      </trkpt>
      <trkpt lat="50.20278" lon="4.93032">
        <ele>200</ele>
        <time>2026-08-25T08:54:36+00:00</time>
      </trkpt>
      <trkpt lat="50.20257" lon="4.92996">
        <ele>201</ele>
        <time>2026-08-25T08:54:39+00:00</time>
      </trkpt>
      <trkpt lat="50.2024" lon="4.92966">
        <ele>201</ele>
        <time>2026-08-25T08:54:42+00:00</time>
      </trkpt>
      <trkpt lat="50.20217" lon="4.92925">
        <ele>204</ele>
        <time>2026-08-25T08:54:45+00:00</time>
      </trkpt>
      <trkpt lat="50.20209" lon="4.92893">
        <ele>204</ele>
        <time>2026-08-25T08:54:48+00:00</time>
      </trkpt>
      <trkpt lat="50.20209" lon="4.92862">
        <ele>205</ele>
        <time>2026-08-25T08:54:51+00:00</time>
      </trkpt>
      <trkpt lat="50.20212" lon="4.92815">
        <ele>204</ele>
        <time>2026-08-25T08:54:54+00:00</time>
      </trkpt>
      <trkpt lat="50.20215" lon="4.92776">
        <ele>204</ele>
        <time>2026-08-25T08:54:57+00:00</time>
      </trkpt>
      <trkpt lat="50.2022" lon="4.9272">
        <ele>204</ele>
        <time>2026-08-25T08:55:00+00:00</time>
      </trkpt>
      <trkpt lat="50.20222" lon="4.92684">
        <ele>204</ele>
        <time>2026-08-25T08:55:03+00:00</time>
      </trkpt>
      <trkpt lat="50.20227" lon="4.92656">
        <ele>203</ele>
        <time>2026-08-25T08:55:06+00:00</time>
      </trkpt>
      <trkpt lat="50.2023" lon="4.92614">
        <ele>203</ele>
        <time>2026-08-25T08:55:09+00:00</time>
      </trkpt>
      <trkpt lat="50.2023" lon="4.92577">
        <ele>206</ele>
        <time>2026-08-25T08:55:12+00:00</time>
      </trkpt>
      <trkpt lat="50.2023" lon="4.9253">
        <ele>206</ele>
        <time>2026-08-25T08:55:15+00:00</time>
      </trkpt>
      <trkpt lat="50.20225" lon="4.92495">
        <ele>206</ele>
        <time>2026-08-25T08:55:18+00:00</time>
      </trkpt>
      <trkpt lat="50.20221" lon="4.92471">
        <ele>208</ele>
        <time>2026-08-25T08:55:21+00:00</time>
      </trkpt>
      <trkpt lat="50.20213" lon="4.92446">
        <ele>206</ele>
        <time>2026-08-25T08:55:24+00:00</time>
      </trkpt>
      <trkpt lat="50.20203" lon="4.92413">
        <ele>206</ele>
        <time>2026-08-25T08:55:27+00:00</time>
      </trkpt>
      <trkpt lat="50.20184" lon="4.92364">
        <ele>209</ele>
        <time>2026-08-25T08:55:30+00:00</time>
      </trkpt>
      <trkpt lat="50.20169" lon="4.92332">
        <ele>208</ele>
        <time>2026-08-25T08:55:33+00:00</time>
      </trkpt>
      <trkpt lat="50.20148" lon="4.92285">
        <ele>207</ele>
        <time>2026-08-25T08:55:36+00:00</time>
      </trkpt>
      <trkpt lat="50.20142" lon="4.92276">
        <ele>206</ele>
        <time>2026-08-25T08:55:39+00:00</time>
      </trkpt>
      <trkpt lat="50.20148" lon="4.92236">
        <ele>206</ele>
        <time>2026-08-25T08:55:42+00:00</time>
      </trkpt>
      <trkpt lat="50.20154" lon="4.92197">
        <ele>206</ele>
        <time>2026-08-25T08:55:45+00:00</time>
      </trkpt>
      <trkpt lat="50.2016" lon="4.92157">
        <ele>207</ele>
        <time>2026-08-25T08:55:48+00:00</time>
      </trkpt>
      <trkpt lat="50.20165" lon="4.9212">
        <ele>209</ele>
        <time>2026-08-25T08:55:51+00:00</time>
      </trkpt>
      <trkpt lat="50.20171" lon="4.92075">
        <ele>210</ele>
        <time>2026-08-25T08:55:54+00:00</time>
      </trkpt>
      <trkpt lat="50.20169" lon="4.92033">
        <ele>212</ele>
        <time>2026-08-25T08:55:57+00:00</time>
      </trkpt>
      <trkpt lat="50.20166" lon="4.91963">
        <ele>217</ele>
        <time>2026-08-25T08:56:00+00:00</time>
      </trkpt>
      <trkpt lat="50.2016" lon="4.91913">
        <ele>219</ele>
        <time>2026-08-25T08:56:03+00:00</time>
      </trkpt>
      <trkpt lat="50.20154" lon="4.91862">
        <ele>221</ele>
        <time>2026-08-25T08:56:06+00:00</time>
      </trkpt>
      <trkpt lat="50.20149" lon="4.91812">
        <ele>223</ele>
        <time>2026-08-25T08:56:09+00:00</time>
      </trkpt>
      <trkpt lat="50.20142" lon="4.91753">
        <ele>227</ele>
        <time>2026-08-25T08:56:12+00:00</time>
      </trkpt>
      <trkpt lat="50.2015" lon="4.91712">
        <ele>231</ele>
        <time>2026-08-25T08:56:15+00:00</time>
      </trkpt>
      <trkpt lat="50.20165" lon="4.91639">
        <ele>235</ele>
        <time>2026-08-25T08:56:18+00:00</time>
      </trkpt>
      <trkpt lat="50.20177" lon="4.91608">
        <ele>236</ele>
        <time>2026-08-25T08:56:21+00:00</time>
      </trkpt>
      <trkpt lat="50.20191" lon="4.91571">
        <ele>237</ele>
        <time>2026-08-25T08:56:24+00:00</time>
      </trkpt>
      <trkpt lat="50.20193" lon="4.9153">
        <ele>239</ele>
        <time>2026-08-25T08:56:27+00:00</time>
      </trkpt>
      <trkpt lat="50.20185" lon="4.91491">
        <ele>241</ele>
        <time>2026-08-25T08:56:30+00:00</time>
      </trkpt>
      <trkpt lat="50.20173" lon="4.91433">
        <ele>244</ele>
        <time>2026-08-25T08:56:33+00:00</time>
      </trkpt>
      <trkpt lat="50.20168" lon="4.91388">
        <ele>245</ele>
        <time>2026-08-25T08:56:36+00:00</time>
      </trkpt>
      <trkpt lat="50.20163" lon="4.91342">
        <ele>247</ele>
        <time>2026-08-25T08:56:39+00:00</time>
      </trkpt>
      <trkpt lat="50.20158" lon="4.9129">
        <ele>250</ele>
        <time>2026-08-25T08:56:42+00:00</time>
      </trkpt>
      <trkpt lat="50.2015" lon="4.91247">
        <ele>251</ele>
        <time>2026-08-25T08:56:45+00:00</time>
      </trkpt>
      <trkpt lat="50.20141" lon="4.91204">
        <ele>251</ele>
        <time>2026-08-25T08:56:48+00:00</time>
      </trkpt>
      <trkpt lat="50.20133" lon="4.9116">
        <ele>252</ele>
        <time>2026-08-25T08:56:51+00:00</time>
      </trkpt>
      <trkpt lat="50.20116" lon="4.91124">
        <ele>253</ele>
        <time>2026-08-25T08:56:54+00:00</time>
      </trkpt>
      <trkpt lat="50.20098" lon="4.91088">
        <ele>255</ele>
        <time>2026-08-25T08:56:57+00:00</time>
      </trkpt>
      <trkpt lat="50.2008" lon="4.91051">
        <ele>255</ele>
        <time>2026-08-25T08:57:00+00:00</time>
      </trkpt>
      <trkpt lat="50.20058" lon="4.91006">
        <ele>256</ele>
        <time>2026-08-25T08:57:03+00:00</time>
      </trkpt>
      <trkpt lat="50.20037" lon="4.90961">
        <ele>257</ele>
        <time>2026-08-25T08:57:06+00:00</time>
      </trkpt>
      <trkpt lat="50.20015" lon="4.90916">
        <ele>258</ele>
        <time>2026-08-25T08:57:09+00:00</time>
      </trkpt>
      <trkpt lat="50.19994" lon="4.90872">
        <ele>258</ele>
        <time>2026-08-25T08:57:12+00:00</time>
      </trkpt>
      <trkpt lat="50.19951" lon="4.90783">
        <ele>258</ele>
        <time>2026-08-25T08:57:15+00:00</time>
      </trkpt>
      <trkpt lat="50.19936" lon="4.90754">
        <ele>257</ele>
        <time>2026-08-25T08:57:18+00:00</time>
      </trkpt>
      <trkpt lat="50.19917" lon="4.90718">
        <ele>256</ele>
        <time>2026-08-25T08:57:21+00:00</time>
      </trkpt>
      <trkpt lat="50.19899" lon="4.90677">
        <ele>256</ele>
        <time>2026-08-25T08:57:24+00:00</time>
      </trkpt>
      <trkpt lat="50.1988" lon="4.90636">
        <ele>256</ele>
        <time>2026-08-25T08:57:27+00:00</time>
      </trkpt>
      <trkpt lat="50.19845" lon="4.90557">
        <ele>255</ele>
        <time>2026-08-25T08:57:30+00:00</time>
      </trkpt>
      <trkpt lat="50.19832" lon="4.90534">
        <ele>254</ele>
        <time>2026-08-25T08:57:33+00:00</time>
      </trkpt>
      <trkpt lat="50.19841" lon="4.90516">
        <ele>253</ele>
        <time>2026-08-25T08:57:36+00:00</time>
      </trkpt>
      <trkpt lat="50.19853" lon="4.90489">
        <ele>253</ele>
        <time>2026-08-25T08:57:39+00:00</time>
      </trkpt>
      <trkpt lat="50.19872" lon="4.90445">
        <ele>251</ele>
        <time>2026-08-25T08:57:42+00:00</time>
      </trkpt>
      <trkpt lat="50.19887" lon="4.90414">
        <ele>250</ele>
        <time>2026-08-25T08:57:45+00:00</time>
      </trkpt>
      <trkpt lat="50.19905" lon="4.90388">
        <ele>249</ele>
        <time>2026-08-25T08:57:48+00:00</time>
      </trkpt>
      <trkpt lat="50.19915" lon="4.90377">
        <ele>248</ele>
        <time>2026-08-25T08:57:51+00:00</time>
      </trkpt>
      <trkpt lat="50.19938" lon="4.90354">
        <ele>246</ele>
        <time>2026-08-25T08:57:54+00:00</time>
      </trkpt>
      <trkpt lat="50.19962" lon="4.90336">
        <ele>245</ele>
        <time>2026-08-25T08:57:57+00:00</time>
      </trkpt>
      <trkpt lat="50.19981" lon="4.90324">
        <ele>244</ele>
        <time>2026-08-25T08:58:00+00:00</time>
      </trkpt>
      <trkpt lat="50.20003" lon="4.90312">
        <ele>243</ele>
        <time>2026-08-25T08:58:03+00:00</time>
      </trkpt>
      <trkpt lat="50.20027" lon="4.90299">
        <ele>242</ele>
        <time>2026-08-25T08:58:06+00:00</time>
      </trkpt>
      <trkpt lat="50.20045" lon="4.90286">
        <ele>241</ele>
        <time>2026-08-25T08:58:09+00:00</time>
      </trkpt>
      <trkpt lat="50.20061" lon="4.90271">
        <ele>241</ele>
        <time>2026-08-25T08:58:12+00:00</time>
      </trkpt>
      <trkpt lat="50.20068" lon="4.90262">
        <ele>241</ele>
        <time>2026-08-25T08:58:15+00:00</time>
      </trkpt>
      <trkpt lat="50.20077" lon="4.9024">
        <ele>241</ele>
        <time>2026-08-25T08:58:18+00:00</time>
      </trkpt>
      <trkpt lat="50.20087" lon="4.90187">
        <ele>240</ele>
        <time>2026-08-25T08:58:21+00:00</time>
      </trkpt>
      <trkpt lat="50.20089" lon="4.9016">
        <ele>240</ele>
        <time>2026-08-25T08:58:24+00:00</time>
      </trkpt>
      <trkpt lat="50.20084" lon="4.90134">
        <ele>240</ele>
        <time>2026-08-25T08:58:27+00:00</time>
      </trkpt>
      <trkpt lat="50.20077" lon="4.90108">
        <ele>240</ele>
        <time>2026-08-25T08:58:30+00:00</time>
      </trkpt>
      <trkpt lat="50.20065" lon="4.90056">
        <ele>239</ele>
        <time>2026-08-25T08:58:33+00:00</time>
      </trkpt>
      <trkpt lat="50.20053" lon="4.90005">
        <ele>238</ele>
        <time>2026-08-25T08:58:36+00:00</time>
      </trkpt>
      <trkpt lat="50.20041" lon="4.89953">
        <ele>238</ele>
        <time>2026-08-25T08:58:39+00:00</time>
      </trkpt>
      <trkpt lat="50.20029" lon="4.89901">
        <ele>238</ele>
        <time>2026-08-25T08:58:42+00:00</time>
      </trkpt>
      <trkpt lat="50.20012" lon="4.89827">
        <ele>237</ele>
        <time>2026-08-25T08:58:45+00:00</time>
      </trkpt>
      <trkpt lat="50.19999" lon="4.8978">
        <ele>236</ele>
        <time>2026-08-25T08:58:48+00:00</time>
      </trkpt>
      <trkpt lat="50.19988" lon="4.89754">
        <ele>236</ele>
        <time>2026-08-25T08:58:51+00:00</time>
      </trkpt>
      <trkpt lat="50.19978" lon="4.89726">
        <ele>235</ele>
        <time>2026-08-25T08:58:54+00:00</time>
      </trkpt>
      <trkpt lat="50.19966" lon="4.89704">
        <ele>234</ele>
        <time>2026-08-25T08:58:57+00:00</time>
      </trkpt>
      <trkpt lat="50.19949" lon="4.89665">
        <ele>234</ele>
        <time>2026-08-25T08:59:00+00:00</time>
      </trkpt>
      <trkpt lat="50.19932" lon="4.89625">
        <ele>233</ele>
        <time>2026-08-25T08:59:03+00:00</time>
      </trkpt>
      <trkpt lat="50.19909" lon="4.89572">
        <ele>231</ele>
        <time>2026-08-25T08:59:06+00:00</time>
      </trkpt>
      <trkpt lat="50.1989" lon="4.89542">
        <ele>230</ele>
        <time>2026-08-25T08:59:09+00:00</time>
      </trkpt>
      <trkpt lat="50.19871" lon="4.89552">
        <ele>230</ele>
        <time>2026-08-25T08:59:12+00:00</time>
      </trkpt>
      <trkpt lat="50.19841" lon="4.89516">
        <ele>228</ele>
        <time>2026-08-25T08:59:15+00:00</time>
      </trkpt>
      <trkpt lat="50.1983" lon="4.895">
        <ele>228</ele>
        <time>2026-08-25T08:59:18+00:00</time>
      </trkpt>
      <trkpt lat="50.19841" lon="4.89484">
        <ele>227</ele>
        <time>2026-08-25T08:59:21+00:00</time>
      </trkpt>
      <trkpt lat="50.19836" lon="4.89475">
        <ele>228</ele>
        <time>2026-08-25T08:59:24+00:00</time>
      </trkpt>
      <trkpt lat="50.19833" lon="4.89446">
        <ele>226</ele>
        <time>2026-08-25T08:59:27+00:00</time>
      </trkpt>
      <trkpt lat="50.1983" lon="4.89416">
        <ele>224</ele>
        <time>2026-08-25T08:59:30+00:00</time>
      </trkpt>
      <trkpt lat="50.19821" lon="4.89352">
        <ele>216</ele>
        <time>2026-08-25T08:59:33+00:00</time>
      </trkpt>
      <trkpt lat="50.19818" lon="4.89322">
        <ele>215</ele>
        <time>2026-08-25T08:59:36+00:00</time>
      </trkpt>
      <trkpt lat="50.19818" lon="4.89311">
        <ele>213</ele>
        <time>2026-08-25T08:59:39+00:00</time>
      </trkpt>
      <trkpt lat="50.19809" lon="4.89305">
        <ele>212</ele>
        <time>2026-08-25T08:59:42+00:00</time>
      </trkpt>
      <trkpt lat="50.19793" lon="4.89287">
        <ele>210</ele>
        <time>2026-08-25T08:59:45+00:00</time>
      </trkpt>
      <trkpt lat="50.1977" lon="4.8926">
        <ele>207</ele>
        <time>2026-08-25T08:59:48+00:00</time>
      </trkpt>
      <trkpt lat="50.19761" lon="4.89251">
        <ele>207</ele>
        <time>2026-08-25T08:59:51+00:00</time>
      </trkpt>
      <trkpt lat="50.19764" lon="4.89246">
        <ele>204</ele>
        <time>2026-08-25T08:59:54+00:00</time>
      </trkpt>
      <trkpt lat="50.19767" lon="4.89243">
        <ele>207</ele>
        <time>2026-08-25T08:59:57+00:00</time>
      </trkpt>
      <trkpt lat="50.19764" lon="4.89246">
        <ele>204</ele>
        <time>2026-08-25T09:00:00+00:00</time>
      </trkpt>
      <trkpt lat="50.19761" lon="4.89251">
        <ele>207</ele>
        <time>2026-08-25T09:00:03+00:00</time>
      </trkpt>
      <trkpt lat="50.19747" lon="4.89235">
        <ele>205</ele>
        <time>2026-08-25T09:00:06+00:00</time>
      </trkpt>
      <trkpt lat="50.19742" lon="4.89212">
        <ele>205</ele>
        <time>2026-08-25T09:00:09+00:00</time>
      </trkpt>
      <trkpt lat="50.19745" lon="4.89194">
        <ele>204</ele>
        <time>2026-08-25T09:00:12+00:00</time>
      </trkpt>
      <trkpt lat="50.19745" lon="4.89129">
        <ele>204</ele>
        <time>2026-08-25T09:00:15+00:00</time>
      </trkpt>
      <trkpt lat="50.19749" lon="4.89119">
        <ele>201</ele>
        <time>2026-08-25T09:00:18+00:00</time>
      </trkpt>
      <trkpt lat="50.19773" lon="4.89116">
        <ele>205</ele>
        <time>2026-08-25T09:00:21+00:00</time>
      </trkpt>
      <trkpt lat="50.19815" lon="4.89112">
        <ele>205</ele>
        <time>2026-08-25T09:00:24+00:00</time>
      </trkpt>
      <trkpt lat="50.19853" lon="4.89125">
        <ele>210</ele>
        <time>2026-08-25T09:00:27+00:00</time>
      </trkpt>
      <trkpt lat="50.19876" lon="4.89125">
        <ele>210</ele>
        <time>2026-08-25T09:00:30+00:00</time>
      </trkpt>
      <trkpt lat="50.19904" lon="4.89126">
        <ele>208</ele>
        <time>2026-08-25T09:00:33+00:00</time>
      </trkpt>
      <trkpt lat="50.1994" lon="4.89113">
        <ele>207</ele>
        <time>2026-08-25T09:00:36+00:00</time>
      </trkpt>
      <trkpt lat="50.19982" lon="4.89099">
        <ele>206</ele>
        <time>2026-08-25T09:00:39+00:00</time>
      </trkpt>
      <trkpt lat="50.20011" lon="4.89081">
        <ele>207</ele>
        <time>2026-08-25T09:00:42+00:00</time>
      </trkpt>
      <trkpt lat="50.20041" lon="4.89063">
        <ele>208</ele>
        <time>2026-08-25T09:00:45+00:00</time>
      </trkpt>
      <trkpt lat="50.20093" lon="4.89031">
        <ele>208</ele>
        <time>2026-08-25T09:00:48+00:00</time>
      </trkpt>
      <trkpt lat="50.20107" lon="4.88995">
        <ele>208</ele>
        <time>2026-08-25T09:00:51+00:00</time>
      </trkpt>
      <trkpt lat="50.20127" lon="4.89017">
        <ele>207</ele>
        <time>2026-08-25T09:00:54+00:00</time>
      </trkpt>
      <trkpt lat="50.20154" lon="4.89046">
        <ele>205</ele>
        <time>2026-08-25T09:00:57+00:00</time>
      </trkpt>
      <trkpt lat="50.20176" lon="4.89057">
        <ele>204</ele>
        <time>2026-08-25T09:01:00+00:00</time>
      </trkpt>
      <trkpt lat="50.20202" lon="4.8907">
        <ele>204</ele>
        <time>2026-08-25T09:01:03+00:00</time>
      </trkpt>
      <trkpt lat="50.20228" lon="4.89081">
        <ele>203</ele>
        <time>2026-08-25T09:01:06+00:00</time>
      </trkpt>
      <trkpt lat="50.20255" lon="4.89076">
        <ele>203</ele>
        <time>2026-08-25T09:01:09+00:00</time>
      </trkpt>
      <trkpt lat="50.20304" lon="4.89068">
        <ele>201</ele>
        <time>2026-08-25T09:01:12+00:00</time>
      </trkpt>
      <trkpt lat="50.20325" lon="4.89072">
        <ele>200</ele>
        <time>2026-08-25T09:01:15+00:00</time>
      </trkpt>
      <trkpt lat="50.20347" lon="4.89076">
        <ele>199</ele>
        <time>2026-08-25T09:01:18+00:00</time>
      </trkpt>
      <trkpt lat="50.20352" lon="4.89112">
        <ele>198</ele>
        <time>2026-08-25T09:01:21+00:00</time>
      </trkpt>
      <trkpt lat="50.20358" lon="4.89154">
        <ele>197</ele>
        <time>2026-08-25T09:01:24+00:00</time>
      </trkpt>
      <trkpt lat="50.20393" lon="4.89156">
        <ele>197</ele>
        <time>2026-08-25T09:01:27+00:00</time>
      </trkpt>
      <trkpt lat="50.20415" lon="4.89162">
        <ele>194</ele>
        <time>2026-08-25T09:01:30+00:00</time>
      </trkpt>
      <trkpt lat="50.20433" lon="4.89178">
        <ele>192</ele>
        <time>2026-08-25T09:01:33+00:00</time>
      </trkpt>
      <trkpt lat="50.20453" lon="4.89201">
        <ele>192</ele>
        <time>2026-08-25T09:01:36+00:00</time>
      </trkpt>
      <trkpt lat="50.20458" lon="4.8921">
        <ele>192</ele>
        <time>2026-08-25T09:01:39+00:00</time>
      </trkpt>
      <trkpt lat="50.20451" lon="4.89229">
        <ele>192</ele>
        <time>2026-08-25T09:01:42+00:00</time>
      </trkpt>
      <trkpt lat="50.20457" lon="4.89242">
        <ele>191</ele>
        <time>2026-08-25T09:01:45+00:00</time>
      </trkpt>
      <trkpt lat="50.20462" lon="4.89264">
        <ele>191</ele>
        <time>2026-08-25T09:01:48+00:00</time>
      </trkpt>
      <trkpt lat="50.20466" lon="4.89286">
        <ele>190</ele>
        <time>2026-08-25T09:01:51+00:00</time>
      </trkpt>
      <trkpt lat="50.20467" lon="4.89328">
        <ele>188</ele>
        <time>2026-08-25T09:01:54+00:00</time>
      </trkpt>
      <trkpt lat="50.20453" lon="4.89333">
        <ele>187</ele>
        <time>2026-08-25T09:01:57+00:00</time>
      </trkpt>
      <trkpt lat="50.20461" lon="4.89364">
        <ele>187</ele>
        <time>2026-08-25T09:02:00+00:00</time>
      </trkpt>
      <trkpt lat="50.20473" lon="4.89413">
        <ele>187</ele>
        <time>2026-08-25T09:02:03+00:00</time>
      </trkpt>
      <trkpt lat="50.20484" lon="4.89447">
        <ele>186</ele>
        <time>2026-08-25T09:02:06+00:00</time>
      </trkpt>
      <trkpt lat="50.20497" lon="4.89476">
        <ele>184</ele>
        <time>2026-08-25T09:02:09+00:00</time>
      </trkpt>
      <trkpt lat="50.20505" lon="4.89487">
        <ele>184</ele>
        <time>2026-08-25T09:02:12+00:00</time>
      </trkpt>
      <trkpt lat="50.20523" lon="4.89501">
        <ele>183</ele>
        <time>2026-08-25T09:02:15+00:00</time>
      </trkpt>
      <trkpt lat="50.20512" lon="4.89531">
        <ele>183</ele>
        <time>2026-08-25T09:02:18+00:00</time>
      </trkpt>
      <trkpt lat="50.20509" lon="4.89549">
        <ele>185</ele>
        <time>2026-08-25T09:02:21+00:00</time>
      </trkpt>
      <trkpt lat="50.20508" lon="4.8957">
        <ele>188</ele>
        <time>2026-08-25T09:02:24+00:00</time>
      </trkpt>
      <trkpt lat="50.20511" lon="4.89586">
        <ele>187</ele>
        <time>2026-08-25T09:02:27+00:00</time>
      </trkpt>
      <trkpt lat="50.20514" lon="4.89592">
        <ele>188</ele>
        <time>2026-08-25T09:02:30+00:00</time>
      </trkpt>
      <trkpt lat="50.20519" lon="4.89599">
        <ele>188</ele>
        <time>2026-08-25T09:02:33+00:00</time>
      </trkpt>
      <trkpt lat="50.20538" lon="4.89621">
        <ele>188</ele>
        <time>2026-08-25T09:02:36+00:00</time>
      </trkpt>
      <trkpt lat="50.20562" lon="4.89648">
        <ele>189</ele>
        <time>2026-08-25T09:02:39+00:00</time>
      </trkpt>
      <trkpt lat="50.20569" lon="4.8966">
        <ele>189</ele>
        <time>2026-08-25T09:02:42+00:00</time>
      </trkpt>
      <trkpt lat="50.20589" lon="4.89669">
        <ele>189</ele>
        <time>2026-08-25T09:02:45+00:00</time>
      </trkpt>
      <trkpt lat="50.20615" lon="4.89681">
        <ele>189</ele>
        <time>2026-08-25T09:02:48+00:00</time>
      </trkpt>
      <trkpt lat="50.20614" lon="4.89692">
        <ele>189</ele>
        <time>2026-08-25T09:02:51+00:00</time>
      </trkpt>
      <trkpt lat="50.2063" lon="4.89735">
        <ele>190</ele>
        <time>2026-08-25T09:02:54+00:00</time>
      </trkpt>
      <trkpt lat="50.20638" lon="4.8976">
        <ele>192</ele>
        <time>2026-08-25T09:02:57+00:00</time>
      </trkpt>
      <trkpt lat="50.20642" lon="4.89776">
        <ele>191</ele>
        <time>2026-08-25T09:03:00+00:00</time>
      </trkpt>
      <trkpt lat="50.20648" lon="4.89816">
        <ele>192</ele>
        <time>2026-08-25T09:03:03+00:00</time>
      </trkpt>
      <trkpt lat="50.2065" lon="4.8986">
        <ele>192</ele>
        <time>2026-08-25T09:03:06+00:00</time>
      </trkpt>
      <trkpt lat="50.20653" lon="4.89943">
        <ele>192</ele>
        <time>2026-08-25T09:03:09+00:00</time>
      </trkpt>
      <trkpt lat="50.20655" lon="4.89966">
        <ele>192</ele>
        <time>2026-08-25T09:03:12+00:00</time>
      </trkpt>
      <trkpt lat="50.20654" lon="4.89998">
        <ele>193</ele>
        <time>2026-08-25T09:03:15+00:00</time>
      </trkpt>
      <trkpt lat="50.20652" lon="4.90048">
        <ele>194</ele>
        <time>2026-08-25T09:03:18+00:00</time>
      </trkpt>
      <trkpt lat="50.20648" lon="4.90097">
        <ele>196</ele>
        <time>2026-08-25T09:03:21+00:00</time>
      </trkpt>
      <trkpt lat="50.20646" lon="4.90134">
        <ele>197</ele>
        <time>2026-08-25T09:03:24+00:00</time>
      </trkpt>
      <trkpt lat="50.20647" lon="4.90168">
        <ele>199</ele>
        <time>2026-08-25T09:03:27+00:00</time>
      </trkpt>
      <trkpt lat="50.20648" lon="4.90204">
        <ele>199</ele>
        <time>2026-08-25T09:03:30+00:00</time>
      </trkpt>
      <trkpt lat="50.20654" lon="4.90248">
        <ele>199</ele>
        <time>2026-08-25T09:03:33+00:00</time>
      </trkpt>
      <trkpt lat="50.20661" lon="4.90283">
        <ele>199</ele>
        <time>2026-08-25T09:03:36+00:00</time>
      </trkpt>
      <trkpt lat="50.20669" lon="4.90325">
        <ele>201</ele>
        <time>2026-08-25T09:03:39+00:00</time>
      </trkpt>
      <trkpt lat="50.20677" lon="4.90378">
        <ele>202</ele>
        <time>2026-08-25T09:03:42+00:00</time>
      </trkpt>
      <trkpt lat="50.20683" lon="4.90414">
        <ele>205</ele>
        <time>2026-08-25T09:03:45+00:00</time>
      </trkpt>
      <trkpt lat="50.20691" lon="4.90458">
        <ele>207</ele>
        <time>2026-08-25T09:03:48+00:00</time>
      </trkpt>
      <trkpt lat="50.20695" lon="4.90498">
        <ele>208</ele>
        <time>2026-08-25T09:03:51+00:00</time>
      </trkpt>
      <trkpt lat="50.207" lon="4.90557">
        <ele>209</ele>
        <time>2026-08-25T09:03:54+00:00</time>
      </trkpt>
      <trkpt lat="50.20701" lon="4.90592">
        <ele>210</ele>
        <time>2026-08-25T09:03:57+00:00</time>
      </trkpt>
      <trkpt lat="50.207" lon="4.90626">
        <ele>211</ele>
        <time>2026-08-25T09:04:00+00:00</time>
      </trkpt>
      <trkpt lat="50.20699" lon="4.90662">
        <ele>212</ele>
        <time>2026-08-25T09:04:03+00:00</time>
      </trkpt>
      <trkpt lat="50.20699" lon="4.90677">
        <ele>212</ele>
        <time>2026-08-25T09:04:06+00:00</time>
      </trkpt>
      <trkpt lat="50.20704" lon="4.90717">
        <ele>213</ele>
        <time>2026-08-25T09:04:09+00:00</time>
      </trkpt>
      <trkpt lat="50.2071" lon="4.90751">
        <ele>214</ele>
        <time>2026-08-25T09:04:12+00:00</time>
      </trkpt>
      <trkpt lat="50.20716" lon="4.90789">
        <ele>214</ele>
        <time>2026-08-25T09:04:15+00:00</time>
      </trkpt>
      <trkpt lat="50.20723" lon="4.90823">
        <ele>216</ele>
        <time>2026-08-25T09:04:18+00:00</time>
      </trkpt>
      <trkpt lat="50.20732" lon="4.90862">
        <ele>217</ele>
        <time>2026-08-25T09:04:21+00:00</time>
      </trkpt>
      <trkpt lat="50.20754" lon="4.90915">
        <ele>218</ele>
        <time>2026-08-25T09:04:24+00:00</time>
      </trkpt>
      <trkpt lat="50.20763" lon="4.90939">
        <ele>219</ele>
        <time>2026-08-25T09:04:27+00:00</time>
      </trkpt>
      <trkpt lat="50.20768" lon="4.90965">
        <ele>219</ele>
        <time>2026-08-25T09:04:30+00:00</time>
      </trkpt>
      <trkpt lat="50.20773" lon="4.90964">
        <ele>219</ele>
        <time>2026-08-25T09:04:33+00:00</time>
      </trkpt>
      <trkpt lat="50.20768" lon="4.90965">
        <ele>219</ele>
        <time>2026-08-25T09:04:36+00:00</time>
      </trkpt>
      <trkpt lat="50.20771" lon="4.90981">
        <ele>219</ele>
        <time>2026-08-25T09:04:39+00:00</time>
      </trkpt>
      <trkpt lat="50.20781" lon="4.91011">
        <ele>218</ele>
        <time>2026-08-25T09:04:42+00:00</time>
      </trkpt>
      <trkpt lat="50.20792" lon="4.91042">
        <ele>218</ele>
        <time>2026-08-25T09:04:45+00:00</time>
      </trkpt>
      <trkpt lat="50.20797" lon="4.91078">
        <ele>217</ele>
        <time>2026-08-25T09:04:48+00:00</time>
      </trkpt>
      <trkpt lat="50.20805" lon="4.91111">
        <ele>215</ele>
        <time>2026-08-25T09:04:51+00:00</time>
      </trkpt>
      <trkpt lat="50.20815" lon="4.91141">
        <ele>214</ele>
        <time>2026-08-25T09:04:54+00:00</time>
      </trkpt>
      <trkpt lat="50.20825" lon="4.91172">
        <ele>212</ele>
        <time>2026-08-25T09:04:57+00:00</time>
      </trkpt>
      <trkpt lat="50.20834" lon="4.91209">
        <ele>210</ele>
        <time>2026-08-25T09:05:00+00:00</time>
      </trkpt>
      <trkpt lat="50.20844" lon="4.9124">
        <ele>209</ele>
        <time>2026-08-25T09:05:03+00:00</time>
      </trkpt>
      <trkpt lat="50.20857" lon="4.9127">
        <ele>208</ele>
        <time>2026-08-25T09:05:06+00:00</time>
      </trkpt>
      <trkpt lat="50.20873" lon="4.91307">
        <ele>207</ele>
        <time>2026-08-25T09:05:09+00:00</time>
      </trkpt>
      <trkpt lat="50.20889" lon="4.91329">
        <ele>206</ele>
        <time>2026-08-25T09:05:12+00:00</time>
      </trkpt>
      <trkpt lat="50.20908" lon="4.9135">
        <ele>204</ele>
        <time>2026-08-25T09:05:15+00:00</time>
      </trkpt>
      <trkpt lat="50.20929" lon="4.91364">
        <ele>203</ele>
        <time>2026-08-25T09:05:18+00:00</time>
      </trkpt>
      <trkpt lat="50.20951" lon="4.9138">
        <ele>200</ele>
        <time>2026-08-25T09:05:21+00:00</time>
      </trkpt>
      <trkpt lat="50.20981" lon="4.91407">
        <ele>199</ele>
        <time>2026-08-25T09:05:24+00:00</time>
      </trkpt>
      <trkpt lat="50.21011" lon="4.91434">
        <ele>197</ele>
        <time>2026-08-25T09:05:27+00:00</time>
      </trkpt>
      <trkpt lat="50.21041" lon="4.9146">
        <ele>193</ele>
        <time>2026-08-25T09:05:30+00:00</time>
      </trkpt>
      <trkpt lat="50.21072" lon="4.91487">
        <ele>191</ele>
        <time>2026-08-25T09:05:33+00:00</time>
      </trkpt>
      <trkpt lat="50.21105" lon="4.91517">
        <ele>191</ele>
        <time>2026-08-25T09:05:36+00:00</time>
      </trkpt>
      <trkpt lat="50.21123" lon="4.91534">
        <ele>190</ele>
        <time>2026-08-25T09:05:39+00:00</time>
      </trkpt>
      <trkpt lat="50.21141" lon="4.91565">
        <ele>190</ele>
        <time>2026-08-25T09:05:42+00:00</time>
      </trkpt>
      <trkpt lat="50.21156" lon="4.91626">
        <ele>191</ele>
        <time>2026-08-25T09:05:45+00:00</time>
      </trkpt>
      <trkpt lat="50.21163" lon="4.9165">
        <ele>191</ele>
        <time>2026-08-25T09:05:48+00:00</time>
      </trkpt>
      <trkpt lat="50.21167" lon="4.91675">
        <ele>191</ele>
        <time>2026-08-25T09:05:51+00:00</time>
      </trkpt>
      <trkpt lat="50.21172" lon="4.91708">
        <ele>192</ele>
        <time>2026-08-25T09:05:54+00:00</time>
      </trkpt>
      <trkpt lat="50.21174" lon="4.91728">
        <ele>192</ele>
        <time>2026-08-25T09:05:57+00:00</time>
      </trkpt>
      <trkpt lat="50.21174" lon="4.91749">
        <ele>192</ele>
        <time>2026-08-25T09:06:00+00:00</time>
      </trkpt>
      <trkpt lat="50.21172" lon="4.91772">
        <ele>193</ele>
        <time>2026-08-25T09:06:03+00:00</time>
      </trkpt>
      <trkpt lat="50.21159" lon="4.91788">
        <ele>191</ele>
        <time>2026-08-25T09:06:06+00:00</time>
      </trkpt>
      <trkpt lat="50.21143" lon="4.91807">
        <ele>191</ele>
        <time>2026-08-25T09:06:09+00:00</time>
      </trkpt>
      <trkpt lat="50.2114" lon="4.91825">
        <ele>192</ele>
        <time>2026-08-25T09:06:12+00:00</time>
      </trkpt>
      <trkpt lat="50.21151" lon="4.91848">
        <ele>195</ele>
        <time>2026-08-25T09:06:15+00:00</time>
      </trkpt>
      <trkpt lat="50.21164" lon="4.91873">
        <ele>197</ele>
        <time>2026-08-25T09:06:18+00:00</time>
      </trkpt>
      <trkpt lat="50.21179" lon="4.91907">
        <ele>197</ele>
        <time>2026-08-25T09:06:21+00:00</time>
      </trkpt>
      <trkpt lat="50.21204" lon="4.91962">
        <ele>196</ele>
        <time>2026-08-25T09:06:24+00:00</time>
      </trkpt>
      <trkpt lat="50.21218" lon="4.91992">
        <ele>195</ele>
        <time>2026-08-25T09:06:27+00:00</time>
      </trkpt>
      <trkpt lat="50.21235" lon="4.92028">
        <ele>191</ele>
        <time>2026-08-25T09:06:30+00:00</time>
      </trkpt>
      <trkpt lat="50.21259" lon="4.92051">
        <ele>188</ele>
        <time>2026-08-25T09:06:33+00:00</time>
      </trkpt>
      <trkpt lat="50.21285" lon="4.92079">
        <ele>185</ele>
        <time>2026-08-25T09:06:36+00:00</time>
      </trkpt>
      <trkpt lat="50.21301" lon="4.92103">
        <ele>181</ele>
        <time>2026-08-25T09:06:39+00:00</time>
      </trkpt>
      <trkpt lat="50.21317" lon="4.92127">
        <ele>180</ele>
        <time>2026-08-25T09:06:42+00:00</time>
      </trkpt>
      <trkpt lat="50.21328" lon="4.92159">
        <ele>180</ele>
        <time>2026-08-25T09:06:45+00:00</time>
      </trkpt>
      <trkpt lat="50.21341" lon="4.92198">
        <ele>180</ele>
        <time>2026-08-25T09:06:48+00:00</time>
      </trkpt>
      <trkpt lat="50.21354" lon="4.92228">
        <ele>181</ele>
        <time>2026-08-25T09:06:51+00:00</time>
      </trkpt>
      <trkpt lat="50.21369" lon="4.92256">
        <ele>185</ele>
        <time>2026-08-25T09:06:54+00:00</time>
      </trkpt>
      <trkpt lat="50.21388" lon="4.9229">
        <ele>185</ele>
        <time>2026-08-25T09:06:57+00:00</time>
      </trkpt>
      <trkpt lat="50.21404" lon="4.92334">
        <ele>178</ele>
        <time>2026-08-25T09:07:00+00:00</time>
      </trkpt>
      <trkpt lat="50.21421" lon="4.92378">
        <ele>178</ele>
        <time>2026-08-25T09:07:03+00:00</time>
      </trkpt>
      <trkpt lat="50.21438" lon="4.92422">
        <ele>178</ele>
        <time>2026-08-25T09:07:06+00:00</time>
      </trkpt>
      <trkpt lat="50.21456" lon="4.92471">
        <ele>177</ele>
        <time>2026-08-25T09:07:09+00:00</time>
      </trkpt>
      <trkpt lat="50.21469" lon="4.92502">
        <ele>175</ele>
        <time>2026-08-25T09:07:12+00:00</time>
      </trkpt>
      <trkpt lat="50.21484" lon="4.9254">
        <ele>170</ele>
        <time>2026-08-25T09:07:15+00:00</time>
      </trkpt>
      <trkpt lat="50.21512" lon="4.92578">
        <ele>161</ele>
        <time>2026-08-25T09:07:18+00:00</time>
      </trkpt>
      <trkpt lat="50.21537" lon="4.92599">
        <ele>157</ele>
        <time>2026-08-25T09:07:21+00:00</time>
      </trkpt>
      <trkpt lat="50.21587" lon="4.92641">
        <ele>155</ele>
        <time>2026-08-25T09:07:24+00:00</time>
      </trkpt>
      <trkpt lat="50.21615" lon="4.92657">
        <ele>154</ele>
        <time>2026-08-25T09:07:27+00:00</time>
      </trkpt>
      <trkpt lat="50.21644" lon="4.92672">
        <ele>153</ele>
        <time>2026-08-25T09:07:30+00:00</time>
      </trkpt>
      <trkpt lat="50.21681" lon="4.92693">
        <ele>149</ele>
        <time>2026-08-25T09:07:33+00:00</time>
      </trkpt>
      <trkpt lat="50.21705" lon="4.92694">
        <ele>144</ele>
        <time>2026-08-25T09:07:36+00:00</time>
      </trkpt>
      <trkpt lat="50.21737" lon="4.92696">
        <ele>138</ele>
        <time>2026-08-25T09:07:39+00:00</time>
      </trkpt>
      <trkpt lat="50.21761" lon="4.92699">
        <ele>133</ele>
        <time>2026-08-25T09:07:42+00:00</time>
      </trkpt>
      <trkpt lat="50.2179" lon="4.92702">
        <ele>128</ele>
        <time>2026-08-25T09:07:45+00:00</time>
      </trkpt>
      <trkpt lat="50.21796" lon="4.92699">
        <ele>126</ele>
        <time>2026-08-25T09:07:48+00:00</time>
      </trkpt>
      <trkpt lat="50.21802" lon="4.92691">
        <ele>123</ele>
        <time>2026-08-25T09:07:51+00:00</time>
      </trkpt>
      <trkpt lat="50.21805" lon="4.92682">
        <ele>123</ele>
        <time>2026-08-25T09:07:54+00:00</time>
      </trkpt>
      <trkpt lat="50.21808" lon="4.92669">
        <ele>122</ele>
        <time>2026-08-25T09:07:57+00:00</time>
      </trkpt>
      <trkpt lat="50.21814" lon="4.92649">
        <ele>122</ele>
        <time>2026-08-25T09:08:00+00:00</time>
      </trkpt>
      <trkpt lat="50.21823" lon="4.92614">
        <ele>121</ele>
        <time>2026-08-25T09:08:03+00:00</time>
      </trkpt>
      <trkpt lat="50.21836" lon="4.92567">
        <ele>119</ele>
        <time>2026-08-25T09:08:06+00:00</time>
      </trkpt>
      <trkpt lat="50.21841" lon="4.9255">
        <ele>118</ele>
        <time>2026-08-25T09:08:09+00:00</time>
      </trkpt>
      <trkpt lat="50.21847" lon="4.92508">
        <ele>112</ele>
        <time>2026-08-25T09:08:12+00:00</time>
      </trkpt>
      <trkpt lat="50.21849" lon="4.92477">
        <ele>109</ele>
        <time>2026-08-25T09:08:15+00:00</time>
      </trkpt>
      <trkpt lat="50.21847" lon="4.92417">
        <ele>101</ele>
        <time>2026-08-25T09:08:18+00:00</time>
      </trkpt>
      <trkpt lat="50.21843" lon="4.92378">
        <ele>98</ele>
        <time>2026-08-25T09:08:21+00:00</time>
      </trkpt>
      <trkpt lat="50.21841" lon="4.92339">
        <ele>97</ele>
        <time>2026-08-25T09:08:24+00:00</time>
      </trkpt>
      <trkpt lat="50.21838" lon="4.92287">
        <ele>97</ele>
        <time>2026-08-25T09:08:27+00:00</time>
      </trkpt>
      <trkpt lat="50.21838" lon="4.92252">
        <ele>97</ele>
        <time>2026-08-25T09:08:30+00:00</time>
      </trkpt>
      <trkpt lat="50.21838" lon="4.92214">
        <ele>97</ele>
        <time>2026-08-25T09:08:33+00:00</time>
      </trkpt>
      <trkpt lat="50.21825" lon="4.92188">
        <ele>96</ele>
        <time>2026-08-25T09:08:36+00:00</time>
      </trkpt>
      <trkpt lat="50.21807" lon="4.92137">
        <ele>96</ele>
        <time>2026-08-25T09:08:39+00:00</time>
      </trkpt>
      <trkpt lat="50.21789" lon="4.92076">
        <ele>96</ele>
        <time>2026-08-25T09:08:42+00:00</time>
      </trkpt>
      <trkpt lat="50.2178" lon="4.92018">
        <ele>96</ele>
        <time>2026-08-25T09:08:45+00:00</time>
      </trkpt>
      <trkpt lat="50.21777" lon="4.91985">
        <ele>96</ele>
        <time>2026-08-25T09:08:48+00:00</time>
      </trkpt>
      <trkpt lat="50.21774" lon="4.91951">
        <ele>96</ele>
        <time>2026-08-25T09:08:51+00:00</time>
      </trkpt>
      <trkpt lat="50.2177" lon="4.91937">
        <ele>96</ele>
        <time>2026-08-25T09:08:54+00:00</time>
      </trkpt>
      <trkpt lat="50.21772" lon="4.91927">
        <ele>96</ele>
        <time>2026-08-25T09:08:57+00:00</time>
      </trkpt>
      <trkpt lat="50.21788" lon="4.91915">
        <ele>96</ele>
        <time>2026-08-25T09:09:00+00:00</time>
      </trkpt>
      <trkpt lat="50.21809" lon="4.91899">
        <ele>96</ele>
        <time>2026-08-25T09:09:03+00:00</time>
      </trkpt>
      <trkpt lat="50.21811" lon="4.91904">
        <ele>96</ele>
        <time>2026-08-25T09:09:06+00:00</time>
      </trkpt>
      <trkpt lat="50.21817" lon="4.91935">
        <ele>96</ele>
        <time>2026-08-25T09:09:09+00:00</time>
      </trkpt>
      <trkpt lat="50.21823" lon="4.91967">
        <ele>96</ele>
        <time>2026-08-25T09:09:12+00:00</time>
      </trkpt>
      <trkpt lat="50.21829" lon="4.91984">
        <ele>96</ele>
        <time>2026-08-25T09:09:15+00:00</time>
      </trkpt>
      <trkpt lat="50.21846" lon="4.92013">
        <ele>96</ele>
        <time>2026-08-25T09:09:18+00:00</time>
      </trkpt>
      <trkpt lat="50.21855" lon="4.92022">
        <ele>97</ele>
        <time>2026-08-25T09:09:21+00:00</time>
      </trkpt>
      <trkpt lat="50.21867" lon="4.92031">
        <ele>97</ele>
        <time>2026-08-25T09:09:24+00:00</time>
      </trkpt>
      <trkpt lat="50.21875" lon="4.92033">
        <ele>97</ele>
        <time>2026-08-25T09:09:27+00:00</time>
      </trkpt>
      <trkpt lat="50.2188" lon="4.9203">
        <ele>98</ele>
        <time>2026-08-25T09:09:30+00:00</time>
      </trkpt>
      <trkpt lat="50.21893" lon="4.92036">
        <ele>97</ele>
        <time>2026-08-25T09:09:33+00:00</time>
      </trkpt>
      <trkpt lat="50.21901" lon="4.92027">
        <ele>97</ele>
        <time>2026-08-25T09:09:36+00:00</time>
      </trkpt>
      <trkpt lat="50.21902" lon="4.92023">
        <ele>97</ele>
        <time>2026-08-25T09:09:39+00:00</time>
      </trkpt>
      <trkpt lat="50.21902" lon="4.92005">
        <ele>97</ele>
        <time>2026-08-25T09:09:42+00:00</time>
      </trkpt>
      <trkpt lat="50.21913" lon="4.91952">
        <ele>98</ele>
        <time>2026-08-25T09:09:45+00:00</time>
      </trkpt>
      <trkpt lat="50.21919" lon="4.91918">
        <ele>98</ele>
        <time>2026-08-25T09:09:48+00:00</time>
      </trkpt>
      <trkpt lat="50.21926" lon="4.91882">
        <ele>98</ele>
        <time>2026-08-25T09:09:51+00:00</time>
      </trkpt>
      <trkpt lat="50.21938" lon="4.91839">
        <ele>98</ele>
        <time>2026-08-25T09:09:54+00:00</time>
      </trkpt>
      <trkpt lat="50.21949" lon="4.91807">
        <ele>99</ele>
        <time>2026-08-25T09:09:57+00:00</time>
      </trkpt>
      <trkpt lat="50.21961" lon="4.91772">
        <ele>103</ele>
        <time>2026-08-25T09:10:00+00:00</time>
      </trkpt>
      <trkpt lat="50.21973" lon="4.91748">
        <ele>103</ele>
        <time>2026-08-25T09:10:03+00:00</time>
      </trkpt>
      <trkpt lat="50.21977" lon="4.91743">
        <ele>103</ele>
        <time>2026-08-25T09:10:06+00:00</time>
      </trkpt>
      <trkpt lat="50.2199" lon="4.91693">
        <ele>103</ele>
        <time>2026-08-25T09:10:09+00:00</time>
      </trkpt>
      <trkpt lat="50.21996" lon="4.91673">
        <ele>102</ele>
        <time>2026-08-25T09:10:12+00:00</time>
      </trkpt>
      <trkpt lat="50.22005" lon="4.91651">
        <ele>103</ele>
        <time>2026-08-25T09:10:15+00:00</time>
      </trkpt>
      <trkpt lat="50.22015" lon="4.91626">
        <ele>103</ele>
        <time>2026-08-25T09:10:18+00:00</time>
      </trkpt>
      <trkpt lat="50.22025" lon="4.91608">
        <ele>103</ele>
        <time>2026-08-25T09:10:21+00:00</time>
      </trkpt>
      <trkpt lat="50.22043" lon="4.91586">
        <ele>104</ele>
        <time>2026-08-25T09:10:24+00:00</time>
      </trkpt>
      <trkpt lat="50.22075" lon="4.91546">
        <ele>107</ele>
        <time>2026-08-25T09:10:27+00:00</time>
      </trkpt>
      <trkpt lat="50.22099" lon="4.91506">
        <ele>108</ele>
        <time>2026-08-25T09:10:30+00:00</time>
      </trkpt>
      <trkpt lat="50.2211" lon="4.91475">
        <ele>110</ele>
        <time>2026-08-25T09:10:33+00:00</time>
      </trkpt>
      <trkpt lat="50.22123" lon="4.91441">
        <ele>110</ele>
        <time>2026-08-25T09:10:36+00:00</time>
      </trkpt>
      <trkpt lat="50.22125" lon="4.91437">
        <ele>109</ele>
        <time>2026-08-25T09:10:39+00:00</time>
      </trkpt>
      <trkpt lat="50.22137" lon="4.91403">
        <ele>109</ele>
        <time>2026-08-25T09:10:42+00:00</time>
      </trkpt>
      <trkpt lat="50.22157" lon="4.91349">
        <ele>106</ele>
        <time>2026-08-25T09:10:45+00:00</time>
      </trkpt>
      <trkpt lat="50.22167" lon="4.91316">
        <ele>103</ele>
        <time>2026-08-25T09:10:48+00:00</time>
      </trkpt>
      <trkpt lat="50.2218" lon="4.91278">
        <ele>103</ele>
        <time>2026-08-25T09:10:51+00:00</time>
      </trkpt>
      <trkpt lat="50.2219" lon="4.91238">
        <ele>101</ele>
        <time>2026-08-25T09:10:54+00:00</time>
      </trkpt>
      <trkpt lat="50.22208" lon="4.91167">
        <ele>101</ele>
        <time>2026-08-25T09:10:57+00:00</time>
      </trkpt>
      <trkpt lat="50.22218" lon="4.91133">
        <ele>101</ele>
        <time>2026-08-25T09:11:00+00:00</time>
      </trkpt>
      <trkpt lat="50.22231" lon="4.91091">
        <ele>98</ele>
        <time>2026-08-25T09:11:03+00:00</time>
      </trkpt>
      <trkpt lat="50.22237" lon="4.91074">
        <ele>96</ele>
        <time>2026-08-25T09:11:06+00:00</time>
      </trkpt>
      <trkpt lat="50.22243" lon="4.91065">
        <ele>97</ele>
        <time>2026-08-25T09:11:09+00:00</time>
      </trkpt>
      <trkpt lat="50.2225" lon="4.91059">
        <ele>95</ele>
        <time>2026-08-25T09:11:12+00:00</time>
      </trkpt>
      <trkpt lat="50.22258" lon="4.91054">
        <ele>96</ele>
        <time>2026-08-25T09:11:15+00:00</time>
      </trkpt>
      <trkpt lat="50.22263" lon="4.91053">
        <ele>97</ele>
        <time>2026-08-25T09:11:18+00:00</time>
      </trkpt>
      <trkpt lat="50.22272" lon="4.91055">
        <ele>100</ele>
        <time>2026-08-25T09:11:21+00:00</time>
      </trkpt>
      <trkpt lat="50.22283" lon="4.91062">
        <ele>103</ele>
        <time>2026-08-25T09:11:24+00:00</time>
      </trkpt>
      <trkpt lat="50.22295" lon="4.91074">
        <ele>105</ele>
        <time>2026-08-25T09:11:27+00:00</time>
      </trkpt>
      <trkpt lat="50.2231" lon="4.91093">
        <ele>103</ele>
        <time>2026-08-25T09:11:30+00:00</time>
      </trkpt>
      <trkpt lat="50.22331" lon="4.91119">
        <ele>101</ele>
        <time>2026-08-25T09:11:33+00:00</time>
      </trkpt>
      <trkpt lat="50.2235" lon="4.91138">
        <ele>101</ele>
        <time>2026-08-25T09:11:36+00:00</time>
      </trkpt>
      <trkpt lat="50.22366" lon="4.91152">
        <ele>101</ele>
        <time>2026-08-25T09:11:39+00:00</time>
      </trkpt>
      <trkpt lat="50.2238" lon="4.91159">
        <ele>101</ele>
        <time>2026-08-25T09:11:42+00:00</time>
      </trkpt>
      <trkpt lat="50.22375" lon="4.91189">
        <ele>110</ele>
        <time>2026-08-25T09:11:45+00:00</time>
      </trkpt>
      <trkpt lat="50.22369" lon="4.91198">
        <ele>118</ele>
        <time>2026-08-25T09:11:48+00:00</time>
      </trkpt>
      <trkpt lat="50.22362" lon="4.91192">
        <ele>118</ele>
        <time>2026-08-25T09:11:51+00:00</time>
      </trkpt>
      <trkpt lat="50.2235" lon="4.91184">
        <ele>120</ele>
        <time>2026-08-25T09:11:54+00:00</time>
      </trkpt>
      <trkpt lat="50.22337" lon="4.91176">
        <ele>120</ele>
        <time>2026-08-25T09:11:57+00:00</time>
      </trkpt>
      <trkpt lat="50.22341" lon="4.91196">
        <ele>124</ele>
        <time>2026-08-25T09:12:00+00:00</time>
      </trkpt>
      <trkpt lat="50.22358" lon="4.91215">
        <ele>127</ele>
        <time>2026-08-25T09:12:03+00:00</time>
      </trkpt>
      <trkpt lat="50.22369" lon="4.91229">
        <ele>127</ele>
        <time>2026-08-25T09:12:06+00:00</time>
      </trkpt>
      <trkpt lat="50.22371" lon="4.91271">
        <ele>135</ele>
        <time>2026-08-25T09:12:09+00:00</time>
      </trkpt>
      <trkpt lat="50.22378" lon="4.9131">
        <ele>136</ele>
        <time>2026-08-25T09:12:12+00:00</time>
      </trkpt>
      <trkpt lat="50.22391" lon="4.9133">
        <ele>138</ele>
        <time>2026-08-25T09:12:15+00:00</time>
      </trkpt>
      <trkpt lat="50.22388" lon="4.91343">
        <ele>151</ele>
        <time>2026-08-25T09:12:18+00:00</time>
      </trkpt>
      <trkpt lat="50.22387" lon="4.91371">
        <ele>158</ele>
        <time>2026-08-25T09:12:21+00:00</time>
      </trkpt>
      <trkpt lat="50.22394" lon="4.91407">
        <ele>160</ele>
        <time>2026-08-25T09:12:24+00:00</time>
      </trkpt>
      <trkpt lat="50.22412" lon="4.91454">
        <ele>163</ele>
        <time>2026-08-25T09:12:27+00:00</time>
      </trkpt>
      <trkpt lat="50.22415" lon="4.91471">
        <ele>166</ele>
        <time>2026-08-25T09:12:30+00:00</time>
      </trkpt>
      <trkpt lat="50.22419" lon="4.91516">
        <ele>175</ele>
        <time>2026-08-25T09:12:33+00:00</time>
      </trkpt>
      <trkpt lat="50.22429" lon="4.91557">
        <ele>176</ele>
        <time>2026-08-25T09:12:36+00:00</time>
      </trkpt>
      <trkpt lat="50.22441" lon="4.91586">
        <ele>181</ele>
        <time>2026-08-25T09:12:39+00:00</time>
      </trkpt>
      <trkpt lat="50.22451" lon="4.91605">
        <ele>183</ele>
        <time>2026-08-25T09:12:42+00:00</time>
      </trkpt>
      <trkpt lat="50.22462" lon="4.91618">
        <ele>183</ele>
        <time>2026-08-25T09:12:45+00:00</time>
      </trkpt>
      <trkpt lat="50.22474" lon="4.91632">
        <ele>183</ele>
        <time>2026-08-25T09:12:48+00:00</time>
      </trkpt>
      <trkpt lat="50.22494" lon="4.91653">
        <ele>182</ele>
        <time>2026-08-25T09:12:51+00:00</time>
      </trkpt>
      <trkpt lat="50.2252" lon="4.91681">
        <ele>182</ele>
        <time>2026-08-25T09:12:54+00:00</time>
      </trkpt>
      <trkpt lat="50.22549" lon="4.91707">
        <ele>184</ele>
        <time>2026-08-25T09:12:57+00:00</time>
      </trkpt>
      <trkpt lat="50.2256" lon="4.91705">
        <ele>185</ele>
        <time>2026-08-25T09:13:00+00:00</time>
      </trkpt>
      <trkpt lat="50.2257" lon="4.91699">
        <ele>186</ele>
        <time>2026-08-25T09:13:03+00:00</time>
      </trkpt>
      <trkpt lat="50.2258" lon="4.91684">
        <ele>187</ele>
        <time>2026-08-25T09:13:06+00:00</time>
      </trkpt>
      <trkpt lat="50.22594" lon="4.91675">
        <ele>187</ele>
        <time>2026-08-25T09:13:09+00:00</time>
      </trkpt>
      <trkpt lat="50.22617" lon="4.91679">
        <ele>191</ele>
        <time>2026-08-25T09:13:12+00:00</time>
      </trkpt>
      <trkpt lat="50.22646" lon="4.91684">
        <ele>196</ele>
        <time>2026-08-25T09:13:15+00:00</time>
      </trkpt>
      <trkpt lat="50.22678" lon="4.91683">
        <ele>198</ele>
        <time>2026-08-25T09:13:18+00:00</time>
      </trkpt>
      <trkpt lat="50.22683" lon="4.9168">
        <ele>201</ele>
        <time>2026-08-25T09:13:21+00:00</time>
      </trkpt>
      <trkpt lat="50.2269" lon="4.91671">
        <ele>204</ele>
        <time>2026-08-25T09:13:24+00:00</time>
      </trkpt>
      <trkpt lat="50.22695" lon="4.91662">
        <ele>203</ele>
        <time>2026-08-25T09:13:27+00:00</time>
      </trkpt>
      <trkpt lat="50.22701" lon="4.91655">
        <ele>205</ele>
        <time>2026-08-25T09:13:30+00:00</time>
      </trkpt>
      <trkpt lat="50.22708" lon="4.91649">
        <ele>204</ele>
        <time>2026-08-25T09:13:33+00:00</time>
      </trkpt>
      <trkpt lat="50.22712" lon="4.91637">
        <ele>205</ele>
        <time>2026-08-25T09:13:36+00:00</time>
      </trkpt>
      <trkpt lat="50.22714" lon="4.91626">
        <ele>204</ele>
        <time>2026-08-25T09:13:39+00:00</time>
      </trkpt>
      <trkpt lat="50.22713" lon="4.91615">
        <ele>204</ele>
        <time>2026-08-25T09:13:42+00:00</time>
      </trkpt>
      <trkpt lat="50.22725" lon="4.91611">
        <ele>206</ele>
        <time>2026-08-25T09:13:45+00:00</time>
      </trkpt>
      <trkpt lat="50.22735" lon="4.91603">
        <ele>208</ele>
        <time>2026-08-25T09:13:48+00:00</time>
      </trkpt>
      <trkpt lat="50.22749" lon="4.91587">
        <ele>208</ele>
        <time>2026-08-25T09:13:51+00:00</time>
      </trkpt>
      <trkpt lat="50.22766" lon="4.91562">
        <ele>213</ele>
        <time>2026-08-25T09:13:54+00:00</time>
      </trkpt>
      <trkpt lat="50.22778" lon="4.91553">
        <ele>216</ele>
        <time>2026-08-25T09:13:57+00:00</time>
      </trkpt>
      <trkpt lat="50.22789" lon="4.91536">
        <ele>213</ele>
        <time>2026-08-25T09:14:00+00:00</time>
      </trkpt>
      <trkpt lat="50.22801" lon="4.9152">
        <ele>214</ele>
        <time>2026-08-25T09:14:03+00:00</time>
      </trkpt>
      <trkpt lat="50.22821" lon="4.91497">
        <ele>213</ele>
        <time>2026-08-25T09:14:06+00:00</time>
      </trkpt>
      <trkpt lat="50.22837" lon="4.91483">
        <ele>213</ele>
        <time>2026-08-25T09:14:09+00:00</time>
      </trkpt>
      <trkpt lat="50.22854" lon="4.91472">
        <ele>213</ele>
        <time>2026-08-25T09:14:12+00:00</time>
      </trkpt>
      <trkpt lat="50.2285" lon="4.91459">
        <ele>213</ele>
        <time>2026-08-25T09:14:15+00:00</time>
      </trkpt>
      <trkpt lat="50.22867" lon="4.91463">
        <ele>213</ele>
        <time>2026-08-25T09:14:18+00:00</time>
      </trkpt>
      <trkpt lat="50.22885" lon="4.91468">
        <ele>213</ele>
        <time>2026-08-25T09:14:21+00:00</time>
      </trkpt>
      <trkpt lat="50.22902" lon="4.91461">
        <ele>211</ele>
        <time>2026-08-25T09:14:24+00:00</time>
      </trkpt>
      <trkpt lat="50.22913" lon="4.9145">
        <ele>211</ele>
        <time>2026-08-25T09:14:27+00:00</time>
      </trkpt>
      <trkpt lat="50.22916" lon="4.91439">
        <ele>211</ele>
        <time>2026-08-25T09:14:30+00:00</time>
      </trkpt>
      <trkpt lat="50.22918" lon="4.91406">
        <ele>207</ele>
        <time>2026-08-25T09:14:33+00:00</time>
      </trkpt>
      <trkpt lat="50.22925" lon="4.91357">
        <ele>211</ele>
        <time>2026-08-25T09:14:36+00:00</time>
      </trkpt>
      <trkpt lat="50.22933" lon="4.91348">
        <ele>212</ele>
        <time>2026-08-25T09:14:39+00:00</time>
      </trkpt>
      <trkpt lat="50.22957" lon="4.91332">
        <ele>210</ele>
        <time>2026-08-25T09:14:42+00:00</time>
      </trkpt>
      <trkpt lat="50.22964" lon="4.9131">
        <ele>213</ele>
        <time>2026-08-25T09:14:45+00:00</time>
      </trkpt>
      <trkpt lat="50.22973" lon="4.91299">
        <ele>209</ele>
        <time>2026-08-25T09:14:48+00:00</time>
      </trkpt>
      <trkpt lat="50.22979" lon="4.91284">
        <ele>207</ele>
        <time>2026-08-25T09:14:51+00:00</time>
      </trkpt>
      <trkpt lat="50.22986" lon="4.91259">
        <ele>200</ele>
        <time>2026-08-25T09:14:54+00:00</time>
      </trkpt>
      <trkpt lat="50.22998" lon="4.91239">
        <ele>196</ele>
        <time>2026-08-25T09:14:57+00:00</time>
      </trkpt>
      <trkpt lat="50.23022" lon="4.91209">
        <ele>194</ele>
        <time>2026-08-25T09:15:00+00:00</time>
      </trkpt>
      <trkpt lat="50.23036" lon="4.91202">
        <ele>195</ele>
        <time>2026-08-25T09:15:03+00:00</time>
      </trkpt>
      <trkpt lat="50.2306" lon="4.91199">
        <ele>190</ele>
        <time>2026-08-25T09:15:06+00:00</time>
      </trkpt>
      <trkpt lat="50.23074" lon="4.9119">
        <ele>187</ele>
        <time>2026-08-25T09:15:09+00:00</time>
      </trkpt>
      <trkpt lat="50.23073" lon="4.91179">
        <ele>184</ele>
        <time>2026-08-25T09:15:12+00:00</time>
      </trkpt>
      <trkpt lat="50.23052" lon="4.91168">
        <ele>183</ele>
        <time>2026-08-25T09:15:15+00:00</time>
      </trkpt>
      <trkpt lat="50.23074" lon="4.91137">
        <ele>175</ele>
        <time>2026-08-25T09:15:18+00:00</time>
      </trkpt>
      <trkpt lat="50.23078" lon="4.9112">
        <ele>173</ele>
        <time>2026-08-25T09:15:21+00:00</time>
      </trkpt>
      <trkpt lat="50.23079" lon="4.91102">
        <ele>170</ele>
        <time>2026-08-25T09:15:24+00:00</time>
      </trkpt>
      <trkpt lat="50.23078" lon="4.9108">
        <ele>165</ele>
        <time>2026-08-25T09:15:27+00:00</time>
      </trkpt>
      <trkpt lat="50.23073" lon="4.91051">
        <ele>159</ele>
        <time>2026-08-25T09:15:30+00:00</time>
      </trkpt>
      <trkpt lat="50.23067" lon="4.9101">
        <ele>151</ele>
        <time>2026-08-25T09:15:33+00:00</time>
      </trkpt>
      <trkpt lat="50.23065" lon="4.90987">
        <ele>148</ele>
        <time>2026-08-25T09:15:36+00:00</time>
      </trkpt>
      <trkpt lat="50.23062" lon="4.90972">
        <ele>147</ele>
        <time>2026-08-25T09:15:39+00:00</time>
      </trkpt>
      <trkpt lat="50.23061" lon="4.90964">
        <ele>146</ele>
        <time>2026-08-25T09:15:42+00:00</time>
      </trkpt>
      <trkpt lat="50.23074" lon="4.90958">
        <ele>148</ele>
        <time>2026-08-25T09:15:45+00:00</time>
      </trkpt>
      <trkpt lat="50.23101" lon="4.9093">
        <ele>149</ele>
        <time>2026-08-25T09:15:48+00:00</time>
      </trkpt>
      <trkpt lat="50.23114" lon="4.90909">
        <ele>149</ele>
        <time>2026-08-25T09:15:51+00:00</time>
      </trkpt>
      <trkpt lat="50.23122" lon="4.9089">
        <ele>149</ele>
        <time>2026-08-25T09:15:54+00:00</time>
      </trkpt>
      <trkpt lat="50.2312" lon="4.90868">
        <ele>149</ele>
        <time>2026-08-25T09:15:57+00:00</time>
      </trkpt>
      <trkpt lat="50.23122" lon="4.90845">
        <ele>149</ele>
        <time>2026-08-25T09:16:00+00:00</time>
      </trkpt>
      <trkpt lat="50.23114" lon="4.90828">
        <ele>149</ele>
        <time>2026-08-25T09:16:03+00:00</time>
      </trkpt>
      <trkpt lat="50.23119" lon="4.90787">
        <ele>149</ele>
        <time>2026-08-25T09:16:06+00:00</time>
      </trkpt>
      <trkpt lat="50.23116" lon="4.90751">
        <ele>150</ele>
        <time>2026-08-25T09:16:09+00:00</time>
      </trkpt>
      <trkpt lat="50.23112" lon="4.90709">
        <ele>154</ele>
        <time>2026-08-25T09:16:12+00:00</time>
      </trkpt>
      <trkpt lat="50.23109" lon="4.90657">
        <ele>156</ele>
        <time>2026-08-25T09:16:15+00:00</time>
      </trkpt>
      <trkpt lat="50.2311" lon="4.90627">
        <ele>157</ele>
        <time>2026-08-25T09:16:18+00:00</time>
      </trkpt>
      <trkpt lat="50.23102" lon="4.90596">
        <ele>158</ele>
        <time>2026-08-25T09:16:21+00:00</time>
      </trkpt>
      <trkpt lat="50.23097" lon="4.90563">
        <ele>161</ele>
        <time>2026-08-25T09:16:24+00:00</time>
      </trkpt>
      <trkpt lat="50.23091" lon="4.90529">
        <ele>163</ele>
        <time>2026-08-25T09:16:27+00:00</time>
      </trkpt>
      <trkpt lat="50.23071" lon="4.90495">
        <ele>164</ele>
        <time>2026-08-25T09:16:30+00:00</time>
      </trkpt>
      <trkpt lat="50.23056" lon="4.90476">
        <ele>162</ele>
        <time>2026-08-25T09:16:33+00:00</time>
      </trkpt>
      <trkpt lat="50.23036" lon="4.90439">
        <ele>161</ele>
        <time>2026-08-25T09:16:36+00:00</time>
      </trkpt>
      <trkpt lat="50.23029" lon="4.90391">
        <ele>160</ele>
        <time>2026-08-25T09:16:39+00:00</time>
      </trkpt>
      <trkpt lat="50.2303" lon="4.90372">
        <ele>159</ele>
        <time>2026-08-25T09:16:42+00:00</time>
      </trkpt>
      <trkpt lat="50.2303" lon="4.90333">
        <ele>159</ele>
        <time>2026-08-25T09:16:45+00:00</time>
      </trkpt>
      <trkpt lat="50.23027" lon="4.903">
        <ele>159</ele>
        <time>2026-08-25T09:16:48+00:00</time>
      </trkpt>
      <trkpt lat="50.23004" lon="4.90245">
        <ele>160</ele>
        <time>2026-08-25T09:16:51+00:00</time>
      </trkpt>
      <trkpt lat="50.23008" lon="4.90204">
        <ele>160</ele>
        <time>2026-08-25T09:16:54+00:00</time>
      </trkpt>
      <trkpt lat="50.23016" lon="4.90197">
        <ele>160</ele>
        <time>2026-08-25T09:16:57+00:00</time>
      </trkpt>
      <trkpt lat="50.23036" lon="4.90189">
        <ele>161</ele>
        <time>2026-08-25T09:17:00+00:00</time>
      </trkpt>
      <trkpt lat="50.23059" lon="4.90172">
        <ele>160</ele>
        <time>2026-08-25T09:17:03+00:00</time>
      </trkpt>
      <trkpt lat="50.23057" lon="4.9015">
        <ele>161</ele>
        <time>2026-08-25T09:17:06+00:00</time>
      </trkpt>
      <trkpt lat="50.23046" lon="4.90124">
        <ele>159</ele>
        <time>2026-08-25T09:17:09+00:00</time>
      </trkpt>
      <trkpt lat="50.23027" lon="4.90094">
        <ele>158</ele>
        <time>2026-08-25T09:17:12+00:00</time>
      </trkpt>
      <trkpt lat="50.23009" lon="4.9005">
        <ele>155</ele>
        <time>2026-08-25T09:17:15+00:00</time>
      </trkpt>
      <trkpt lat="50.23007" lon="4.90047">
        <ele>147</ele>
        <time>2026-08-25T09:17:18+00:00</time>
      </trkpt>
      <trkpt lat="50.23016" lon="4.90038">
        <ele>147</ele>
        <time>2026-08-25T09:17:21+00:00</time>
      </trkpt>
      <trkpt lat="50.23043" lon="4.9003">
        <ele>153</ele>
        <time>2026-08-25T09:17:24+00:00</time>
      </trkpt>
      <trkpt lat="50.23076" lon="4.90042">
        <ele>153</ele>
        <time>2026-08-25T09:17:27+00:00</time>
      </trkpt>
      <trkpt lat="50.2309" lon="4.90036">
        <ele>148</ele>
        <time>2026-08-25T09:17:30+00:00</time>
      </trkpt>
      <trkpt lat="50.23106" lon="4.90018">
        <ele>150</ele>
        <time>2026-08-25T09:17:33+00:00</time>
      </trkpt>
      <trkpt lat="50.23106" lon="4.90025">
        <ele>140</ele>
        <time>2026-08-25T09:17:36+00:00</time>
      </trkpt>
      <trkpt lat="50.23109" lon="4.90045">
        <ele>147</ele>
        <time>2026-08-25T09:17:39+00:00</time>
      </trkpt>
      <trkpt lat="50.23113" lon="4.90064">
        <ele>145</ele>
        <time>2026-08-25T09:17:42+00:00</time>
      </trkpt>
      <trkpt lat="50.23121" lon="4.90091">
        <ele>144</ele>
        <time>2026-08-25T09:17:45+00:00</time>
      </trkpt>
      <trkpt lat="50.23131" lon="4.90121">
        <ele>144</ele>
        <time>2026-08-25T09:17:48+00:00</time>
      </trkpt>
      <trkpt lat="50.23142" lon="4.90152">
        <ele>145</ele>
        <time>2026-08-25T09:17:51+00:00</time>
      </trkpt>
      <trkpt lat="50.23162" lon="4.90204">
        <ele>146</ele>
        <time>2026-08-25T09:17:54+00:00</time>
      </trkpt>
      <trkpt lat="50.23183" lon="4.90254">
        <ele>149</ele>
        <time>2026-08-25T09:17:57+00:00</time>
      </trkpt>
      <trkpt lat="50.23208" lon="4.90305">
        <ele>151</ele>
        <time>2026-08-25T09:18:00+00:00</time>
      </trkpt>
      <trkpt lat="50.23223" lon="4.90326">
        <ele>151</ele>
        <time>2026-08-25T09:18:03+00:00</time>
      </trkpt>
      <trkpt lat="50.23225" lon="4.90332">
        <ele>152</ele>
        <time>2026-08-25T09:18:06+00:00</time>
      </trkpt>
      <trkpt lat="50.23246" lon="4.90353">
        <ele>150</ele>
        <time>2026-08-25T09:18:09+00:00</time>
      </trkpt>
      <trkpt lat="50.23263" lon="4.90368">
        <ele>150</ele>
        <time>2026-08-25T09:18:12+00:00</time>
      </trkpt>
      <trkpt lat="50.23283" lon="4.90382">
        <ele>150</ele>
        <time>2026-08-25T09:18:15+00:00</time>
      </trkpt>
      <trkpt lat="50.23292" lon="4.90393">
        <ele>149</ele>
        <time>2026-08-25T09:18:18+00:00</time>
      </trkpt>
      <trkpt lat="50.23306" lon="4.90416">
        <ele>150</ele>
        <time>2026-08-25T09:18:21+00:00</time>
      </trkpt>
      <trkpt lat="50.23315" lon="4.90435">
        <ele>151</ele>
        <time>2026-08-25T09:18:24+00:00</time>
      </trkpt>
      <trkpt lat="50.23337" lon="4.90422">
        <ele>145</ele>
        <time>2026-08-25T09:18:27+00:00</time>
      </trkpt>
      <trkpt lat="50.2336" lon="4.90443">
        <ele>142</ele>
        <time>2026-08-25T09:18:30+00:00</time>
      </trkpt>
      <trkpt lat="50.23397" lon="4.90476">
        <ele>139</ele>
        <time>2026-08-25T09:18:33+00:00</time>
      </trkpt>
      <trkpt lat="50.23412" lon="4.90488">
        <ele>135</ele>
        <time>2026-08-25T09:18:36+00:00</time>
      </trkpt>
      <trkpt lat="50.23418" lon="4.90503">
        <ele>137</ele>
        <time>2026-08-25T09:18:39+00:00</time>
      </trkpt>
      <trkpt lat="50.23422" lon="4.9053">
        <ele>137</ele>
        <time>2026-08-25T09:18:42+00:00</time>
      </trkpt>
      <trkpt lat="50.2343" lon="4.9055">
        <ele>139</ele>
        <time>2026-08-25T09:18:45+00:00</time>
      </trkpt>
      <trkpt lat="50.23437" lon="4.90559">
        <ele>137</ele>
        <time>2026-08-25T09:18:48+00:00</time>
      </trkpt>
      <trkpt lat="50.2345" lon="4.90547">
        <ele>134</ele>
        <time>2026-08-25T09:18:51+00:00</time>
      </trkpt>
      <trkpt lat="50.23466" lon="4.90554">
        <ele>131</ele>
        <time>2026-08-25T09:18:54+00:00</time>
      </trkpt>
      <trkpt lat="50.2348" lon="4.90563">
        <ele>128</ele>
        <time>2026-08-25T09:18:57+00:00</time>
      </trkpt>
      <trkpt lat="50.23493" lon="4.90575">
        <ele>131</ele>
        <time>2026-08-25T09:19:00+00:00</time>
      </trkpt>
      <trkpt lat="50.23509" lon="4.90601">
        <ele>131</ele>
        <time>2026-08-25T09:19:03+00:00</time>
      </trkpt>
      <trkpt lat="50.23517" lon="4.90623">
        <ele>133</ele>
        <time>2026-08-25T09:19:06+00:00</time>
      </trkpt>
      <trkpt lat="50.23524" lon="4.90631">
        <ele>133</ele>
        <time>2026-08-25T09:19:09+00:00</time>
      </trkpt>
      <trkpt lat="50.2355" lon="4.90667">
        <ele>133</ele>
        <time>2026-08-25T09:19:12+00:00</time>
      </trkpt>
      <trkpt lat="50.23583" lon="4.90692">
        <ele>133</ele>
        <time>2026-08-25T09:19:15+00:00</time>
      </trkpt>
      <trkpt lat="50.23578" lon="4.90679">
        <ele>133</ele>
        <time>2026-08-25T09:19:18+00:00</time>
      </trkpt>
      <trkpt lat="50.23592" lon="4.90714">
        <ele>133</ele>
        <time>2026-08-25T09:19:21+00:00</time>
      </trkpt>
      <trkpt lat="50.23607" lon="4.90749">
        <ele>133</ele>
        <time>2026-08-25T09:19:24+00:00</time>
      </trkpt>
      <trkpt lat="50.23624" lon="4.90791">
        <ele>134</ele>
        <time>2026-08-25T09:19:27+00:00</time>
      </trkpt>
      <trkpt lat="50.23639" lon="4.90824">
        <ele>134</ele>
        <time>2026-08-25T09:19:30+00:00</time>
      </trkpt>
      <trkpt lat="50.23639" lon="4.90836">
        <ele>134</ele>
        <time>2026-08-25T09:19:33+00:00</time>
      </trkpt>
      <trkpt lat="50.23647" lon="4.90851">
        <ele>134</ele>
        <time>2026-08-25T09:19:36+00:00</time>
      </trkpt>
      <trkpt lat="50.23661" lon="4.90887">
        <ele>131</ele>
        <time>2026-08-25T09:19:39+00:00</time>
      </trkpt>
      <trkpt lat="50.23666" lon="4.90898">
        <ele>131</ele>
        <time>2026-08-25T09:19:42+00:00</time>
      </trkpt>
      <trkpt lat="50.2368" lon="4.90917">
        <ele>128</ele>
        <time>2026-08-25T09:19:45+00:00</time>
      </trkpt>
      <trkpt lat="50.23696" lon="4.90939">
        <ele>128</ele>
        <time>2026-08-25T09:19:48+00:00</time>
      </trkpt>
      <trkpt lat="50.23728" lon="4.90976">
        <ele>123</ele>
        <time>2026-08-25T09:19:51+00:00</time>
      </trkpt>
      <trkpt lat="50.23746" lon="4.91">
        <ele>120</ele>
        <time>2026-08-25T09:19:54+00:00</time>
      </trkpt>
      <trkpt lat="50.23769" lon="4.91029">
        <ele>117</ele>
        <time>2026-08-25T09:19:57+00:00</time>
      </trkpt>
      <trkpt lat="50.23781" lon="4.91043">
        <ele>114</ele>
        <time>2026-08-25T09:20:00+00:00</time>
      </trkpt>
      <trkpt lat="50.23783" lon="4.91034">
        <ele>113</ele>
        <time>2026-08-25T09:20:03+00:00</time>
      </trkpt>
      <trkpt lat="50.23785" lon="4.91015">
        <ele>112</ele>
        <time>2026-08-25T09:20:06+00:00</time>
      </trkpt>
      <trkpt lat="50.23785" lon="4.90996">
        <ele>111</ele>
        <time>2026-08-25T09:20:09+00:00</time>
      </trkpt>
      <trkpt lat="50.23786" lon="4.90993">
        <ele>111</ele>
        <time>2026-08-25T09:20:12+00:00</time>
      </trkpt>
      <trkpt lat="50.23792" lon="4.90995">
        <ele>109</ele>
        <time>2026-08-25T09:20:15+00:00</time>
      </trkpt>
      <trkpt lat="50.23803" lon="4.91007">
        <ele>106</ele>
        <time>2026-08-25T09:20:18+00:00</time>
      </trkpt>
      <trkpt lat="50.23804" lon="4.91005">
        <ele>106</ele>
        <time>2026-08-25T09:20:21+00:00</time>
      </trkpt>
      <trkpt lat="50.23802" lon="4.90984">
        <ele>104</ele>
        <time>2026-08-25T09:20:24+00:00</time>
      </trkpt>
      <trkpt lat="50.23817" lon="4.91006">
        <ele>104</ele>
        <time>2026-08-25T09:20:27+00:00</time>
      </trkpt>
      <trkpt lat="50.23807" lon="4.9098">
        <ele>104</ele>
        <time>2026-08-25T09:20:30+00:00</time>
      </trkpt>
      <trkpt lat="50.23805" lon="4.90969">
        <ele>101</ele>
        <time>2026-08-25T09:20:33+00:00</time>
      </trkpt>
      <trkpt lat="50.23806" lon="4.90961">
        <ele>101</ele>
        <time>2026-08-25T09:20:36+00:00</time>
      </trkpt>
      <trkpt lat="50.23817" lon="4.90929">
        <ele>96</ele>
        <time>2026-08-25T09:20:39+00:00</time>
      </trkpt>
      <trkpt lat="50.2382" lon="4.90918">
        <ele>92</ele>
        <time>2026-08-25T09:20:42+00:00</time>
      </trkpt>
      <trkpt lat="50.23821" lon="4.909">
        <ele>92</ele>
        <time>2026-08-25T09:20:45+00:00</time>
      </trkpt>
      <trkpt lat="50.23827" lon="4.90852">
        <ele>92</ele>
        <time>2026-08-25T09:20:48+00:00</time>
      </trkpt>
      <trkpt lat="50.23831" lon="4.90818">
        <ele>92</ele>
        <time>2026-08-25T09:20:51+00:00</time>
      </trkpt>
      <trkpt lat="50.23835" lon="4.90781">
        <ele>92</ele>
        <time>2026-08-25T09:20:54+00:00</time>
      </trkpt>
      <trkpt lat="50.23857" lon="4.90793">
        <ele>92</ele>
        <time>2026-08-25T09:20:57+00:00</time>
      </trkpt>
      <trkpt lat="50.23877" lon="4.90805">
        <ele>91</ele>
        <time>2026-08-25T09:21:00+00:00</time>
      </trkpt>
      <trkpt lat="50.23898" lon="4.90817">
        <ele>91</ele>
        <time>2026-08-25T09:21:03+00:00</time>
      </trkpt>
      <trkpt lat="50.23906" lon="4.90821">
        <ele>93</ele>
        <time>2026-08-25T09:21:06+00:00</time>
      </trkpt>
      <trkpt lat="50.2391" lon="4.90826">
        <ele>93</ele>
        <time>2026-08-25T09:21:09+00:00</time>
      </trkpt>
      <trkpt lat="50.23912" lon="4.90827">
        <ele>93</ele>
        <time>2026-08-25T09:21:12+00:00</time>
      </trkpt>
      <trkpt lat="50.23916" lon="4.90834">
        <ele>91</ele>
        <time>2026-08-25T09:21:15+00:00</time>
      </trkpt>
      <trkpt lat="50.2392" lon="4.90873">
        <ele>92</ele>
        <time>2026-08-25T09:21:18+00:00</time>
      </trkpt>
      <trkpt lat="50.2392" lon="4.90885">
        <ele>91</ele>
        <time>2026-08-25T09:21:21+00:00</time>
      </trkpt>
      <trkpt lat="50.23924" lon="4.90932">
        <ele>92</ele>
        <time>2026-08-25T09:21:24+00:00</time>
      </trkpt>
      <trkpt lat="50.23931" lon="4.9093">
        <ele>92</ele>
        <time>2026-08-25T09:21:27+00:00</time>
      </trkpt>
      <trkpt lat="50.23951" lon="4.90926">
        <ele>91</ele>
        <time>2026-08-25T09:21:30+00:00</time>
      </trkpt>
      <trkpt lat="50.23974" lon="4.90922">
        <ele>91</ele>
        <time>2026-08-25T09:21:33+00:00</time>
      </trkpt>
      <trkpt lat="50.2399" lon="4.90918">
        <ele>91</ele>
        <time>2026-08-25T09:21:36+00:00</time>
      </trkpt>
      <trkpt lat="50.23997" lon="4.90917">
        <ele>91</ele>
        <time>2026-08-25T09:21:39+00:00</time>
      </trkpt>
      <trkpt lat="50.23998" lon="4.90915">
        <ele>91</ele>
        <time>2026-08-25T09:21:42+00:00</time>
      </trkpt>
      <trkpt lat="50.24004" lon="4.9091">
        <ele>91</ele>
        <time>2026-08-25T09:21:45+00:00</time>
      </trkpt>
      <trkpt lat="50.2401" lon="4.90913">
        <ele>91</ele>
        <time>2026-08-25T09:21:48+00:00</time>
      </trkpt>
      <trkpt lat="50.24026" lon="4.90908">
        <ele>93</ele>
        <time>2026-08-25T09:21:51+00:00</time>
      </trkpt>
      <trkpt lat="50.24032" lon="4.90884">
        <ele>94</ele>
        <time>2026-08-25T09:21:54+00:00</time>
      </trkpt>
      <trkpt lat="50.24036" lon="4.90879">
        <ele>94</ele>
        <time>2026-08-25T09:21:57+00:00</time>
      </trkpt>
      <trkpt lat="50.24045" lon="4.909">
        <ele>95</ele>
        <time>2026-08-25T09:22:00+00:00</time>
      </trkpt>
      <trkpt lat="50.24052" lon="4.90933">
        <ele>96</ele>
        <time>2026-08-25T09:22:03+00:00</time>
      </trkpt>
      <trkpt lat="50.24056" lon="4.91">
        <ele>96</ele>
        <time>2026-08-25T09:22:06+00:00</time>
      </trkpt>
      <trkpt lat="50.24057" lon="4.91047">
        <ele>95</ele>
        <time>2026-08-25T09:22:09+00:00</time>
      </trkpt>
      <trkpt lat="50.24059" lon="4.91093">
        <ele>95</ele>
        <time>2026-08-25T09:22:12+00:00</time>
      </trkpt>
      <trkpt lat="50.24061" lon="4.91151">
        <ele>95</ele>
        <time>2026-08-25T09:22:15+00:00</time>
      </trkpt>
      <trkpt lat="50.24063" lon="4.91185">
        <ele>96</ele>
        <time>2026-08-25T09:22:18+00:00</time>
      </trkpt>
      <trkpt lat="50.24066" lon="4.91219">
        <ele>96</ele>
        <time>2026-08-25T09:22:21+00:00</time>
      </trkpt>
      <trkpt lat="50.24069" lon="4.91243">
        <ele>95</ele>
        <time>2026-08-25T09:22:24+00:00</time>
      </trkpt>
      <trkpt lat="50.24073" lon="4.91239">
        <ele>96</ele>
        <time>2026-08-25T09:22:27+00:00</time>
      </trkpt>
      <trkpt lat="50.24075" lon="4.91246">
        <ele>96</ele>
        <time>2026-08-25T09:22:30+00:00</time>
      </trkpt>
      <trkpt lat="50.24084" lon="4.91261">
        <ele>98</ele>
        <time>2026-08-25T09:22:33+00:00</time>
      </trkpt>
      <trkpt lat="50.24085" lon="4.91268">
        <ele>98</ele>
        <time>2026-08-25T09:22:36+00:00</time>
      </trkpt>
      <trkpt lat="50.24085" lon="4.91278">
        <ele>98</ele>
        <time>2026-08-25T09:22:39+00:00</time>
      </trkpt>
      <trkpt lat="50.24086" lon="4.91281">
        <ele>97</ele>
        <time>2026-08-25T09:22:42+00:00</time>
      </trkpt>
      <trkpt lat="50.24089" lon="4.91284">
        <ele>97</ele>
        <time>2026-08-25T09:22:45+00:00</time>
      </trkpt>
      <trkpt lat="50.24096" lon="4.91247">
        <ele>98</ele>
        <time>2026-08-25T09:22:48+00:00</time>
      </trkpt>
      <trkpt lat="50.241" lon="4.91244">
        <ele>98</ele>
        <time>2026-08-25T09:22:51+00:00</time>
      </trkpt>
      <trkpt lat="50.24119" lon="4.9124">
        <ele>100</ele>
        <time>2026-08-25T09:22:54+00:00</time>
      </trkpt>
      <trkpt lat="50.24122" lon="4.9124">
        <ele>111</ele>
        <time>2026-08-25T09:22:57+00:00</time>
      </trkpt>
      <trkpt lat="50.24126" lon="4.91278">
        <ele>109</ele>
        <time>2026-08-25T09:23:00+00:00</time>
      </trkpt>
      <trkpt lat="50.24131" lon="4.91336">
        <ele>109</ele>
        <time>2026-08-25T09:23:03+00:00</time>
      </trkpt>
      <trkpt lat="50.2414" lon="4.91401">
        <ele>108</ele>
        <time>2026-08-25T09:23:06+00:00</time>
      </trkpt>
      <trkpt lat="50.24148" lon="4.91438">
        <ele>108</ele>
        <time>2026-08-25T09:23:09+00:00</time>
      </trkpt>
      <trkpt lat="50.24159" lon="4.91488">
        <ele>107</ele>
        <time>2026-08-25T09:23:12+00:00</time>
      </trkpt>
      <trkpt lat="50.24177" lon="4.91532">
        <ele>112</ele>
        <time>2026-08-25T09:23:15+00:00</time>
      </trkpt>
      <trkpt lat="50.24193" lon="4.91557">
        <ele>114</ele>
        <time>2026-08-25T09:23:18+00:00</time>
      </trkpt>
      <trkpt lat="50.24211" lon="4.91583">
        <ele>113</ele>
        <time>2026-08-25T09:23:21+00:00</time>
      </trkpt>
      <trkpt lat="50.24234" lon="4.91616">
        <ele>113</ele>
        <time>2026-08-25T09:23:24+00:00</time>
      </trkpt>
      <trkpt lat="50.24264" lon="4.91664">
        <ele>111</ele>
        <time>2026-08-25T09:23:27+00:00</time>
      </trkpt>
      <trkpt lat="50.24289" lon="4.91694">
        <ele>109</ele>
        <time>2026-08-25T09:23:30+00:00</time>
      </trkpt>
      <trkpt lat="50.24303" lon="4.91712">
        <ele>108</ele>
        <time>2026-08-25T09:23:33+00:00</time>
      </trkpt>
      <trkpt lat="50.24323" lon="4.91731">
        <ele>106</ele>
        <time>2026-08-25T09:23:36+00:00</time>
      </trkpt>
      <trkpt lat="50.24349" lon="4.91756">
        <ele>103</ele>
        <time>2026-08-25T09:23:39+00:00</time>
      </trkpt>
      <trkpt lat="50.24384" lon="4.91771">
        <ele>102</ele>
        <time>2026-08-25T09:23:42+00:00</time>
      </trkpt>
      <trkpt lat="50.24411" lon="4.91774">
        <ele>101</ele>
        <time>2026-08-25T09:23:45+00:00</time>
      </trkpt>
      <trkpt lat="50.24454" lon="4.91778">
        <ele>99</ele>
        <time>2026-08-25T09:23:48+00:00</time>
      </trkpt>
      <trkpt lat="50.2447" lon="4.91763">
        <ele>99</ele>
        <time>2026-08-25T09:23:51+00:00</time>
      </trkpt>
      <trkpt lat="50.24495" lon="4.91765">
        <ele>99</ele>
        <time>2026-08-25T09:23:54+00:00</time>
      </trkpt>
      <trkpt lat="50.24509" lon="4.9177">
        <ele>98</ele>
        <time>2026-08-25T09:23:57+00:00</time>
      </trkpt>
      <trkpt lat="50.24514" lon="4.91766">
        <ele>98</ele>
        <time>2026-08-25T09:24:00+00:00</time>
      </trkpt>
      <trkpt lat="50.2452" lon="4.91763">
        <ele>96</ele>
        <time>2026-08-25T09:24:03+00:00</time>
      </trkpt>
      <trkpt lat="50.24544" lon="4.91757">
        <ele>98</ele>
        <time>2026-08-25T09:24:06+00:00</time>
      </trkpt>
      <trkpt lat="50.24584" lon="4.91746">
        <ele>98</ele>
        <time>2026-08-25T09:24:09+00:00</time>
      </trkpt>
      <trkpt lat="50.24605" lon="4.91738">
        <ele>98</ele>
        <time>2026-08-25T09:24:12+00:00</time>
      </trkpt>
      <trkpt lat="50.24632" lon="4.91724">
        <ele>98</ele>
        <time>2026-08-25T09:24:15+00:00</time>
      </trkpt>
      <trkpt lat="50.24635" lon="4.91718">
        <ele>99</ele>
        <time>2026-08-25T09:24:18+00:00</time>
      </trkpt>
      <trkpt lat="50.24637" lon="4.91712">
        <ele>99</ele>
        <time>2026-08-25T09:24:21+00:00</time>
      </trkpt>
      <trkpt lat="50.24636" lon="4.91705">
        <ele>101</ele>
        <time>2026-08-25T09:24:24+00:00</time>
      </trkpt>
      <trkpt lat="50.2463" lon="4.91675">
        <ele>102</ele>
        <time>2026-08-25T09:24:27+00:00</time>
      </trkpt>
      <trkpt lat="50.24629" lon="4.91663">
        <ele>103</ele>
        <time>2026-08-25T09:24:30+00:00</time>
      </trkpt>
      <trkpt lat="50.24629" lon="4.91654">
        <ele>104</ele>
        <time>2026-08-25T09:24:33+00:00</time>
      </trkpt>
      <trkpt lat="50.24631" lon="4.91645">
        <ele>105</ele>
        <time>2026-08-25T09:24:36+00:00</time>
      </trkpt>
      <trkpt lat="50.24636" lon="4.91636">
        <ele>106</ele>
        <time>2026-08-25T09:24:39+00:00</time>
      </trkpt>
      <trkpt lat="50.24643" lon="4.9163">
        <ele>106</ele>
        <time>2026-08-25T09:24:42+00:00</time>
      </trkpt>
      <trkpt lat="50.24662" lon="4.91612">
        <ele>107</ele>
        <time>2026-08-25T09:24:45+00:00</time>
      </trkpt>
      <trkpt lat="50.24696" lon="4.91579">
        <ele>109</ele>
        <time>2026-08-25T09:24:48+00:00</time>
      </trkpt>
      <trkpt lat="50.24712" lon="4.91572">
        <ele>110</ele>
        <time>2026-08-25T09:24:51+00:00</time>
      </trkpt>
      <trkpt lat="50.24726" lon="4.91563">
        <ele>111</ele>
        <time>2026-08-25T09:24:54+00:00</time>
      </trkpt>
      <trkpt lat="50.24741" lon="4.91552">
        <ele>111</ele>
        <time>2026-08-25T09:24:57+00:00</time>
      </trkpt>
      <trkpt lat="50.24763" lon="4.91542">
        <ele>112</ele>
        <time>2026-08-25T09:25:00+00:00</time>
      </trkpt>
      <trkpt lat="50.24789" lon="4.91531">
        <ele>112</ele>
        <time>2026-08-25T09:25:03+00:00</time>
      </trkpt>
      <trkpt lat="50.24801" lon="4.91523">
        <ele>111</ele>
        <time>2026-08-25T09:25:06+00:00</time>
      </trkpt>
      <trkpt lat="50.24802" lon="4.9152">
        <ele>114</ele>
        <time>2026-08-25T09:25:09+00:00</time>
      </trkpt>
      <trkpt lat="50.2481" lon="4.91515">
        <ele>112</ele>
        <time>2026-08-25T09:25:12+00:00</time>
      </trkpt>
      <trkpt lat="50.24832" lon="4.91508">
        <ele>112</ele>
        <time>2026-08-25T09:25:15+00:00</time>
      </trkpt>
      <trkpt lat="50.24855" lon="4.91501">
        <ele>109</ele>
        <time>2026-08-25T09:25:18+00:00</time>
      </trkpt>
      <trkpt lat="50.24872" lon="4.915">
        <ele>108</ele>
        <time>2026-08-25T09:25:21+00:00</time>
      </trkpt>
      <trkpt lat="50.24884" lon="4.91505">
        <ele>105</ele>
        <time>2026-08-25T09:25:24+00:00</time>
      </trkpt>
      <trkpt lat="50.24886" lon="4.91509">
        <ele>105</ele>
        <time>2026-08-25T09:25:27+00:00</time>
      </trkpt>
      <trkpt lat="50.24917" lon="4.91507">
        <ele>104</ele>
        <time>2026-08-25T09:25:30+00:00</time>
      </trkpt>
      <trkpt lat="50.24941" lon="4.91497">
        <ele>104</ele>
        <time>2026-08-25T09:25:33+00:00</time>
      </trkpt>
      <trkpt lat="50.24972" lon="4.91484">
        <ele>104</ele>
        <time>2026-08-25T09:25:36+00:00</time>
      </trkpt>
      <trkpt lat="50.24989" lon="4.91478">
        <ele>105</ele>
        <time>2026-08-25T09:25:39+00:00</time>
      </trkpt>
      <trkpt lat="50.25002" lon="4.91469">
        <ele>106</ele>
        <time>2026-08-25T09:25:42+00:00</time>
      </trkpt>
      <trkpt lat="50.25019" lon="4.9145">
        <ele>107</ele>
        <time>2026-08-25T09:25:45+00:00</time>
      </trkpt>
      <trkpt lat="50.2505" lon="4.91437">
        <ele>110</ele>
        <time>2026-08-25T09:25:48+00:00</time>
      </trkpt>
      <trkpt lat="50.25071" lon="4.91437">
        <ele>113</ele>
        <time>2026-08-25T09:25:51+00:00</time>
      </trkpt>
      <trkpt lat="50.25082" lon="4.91424">
        <ele>111</ele>
        <time>2026-08-25T09:25:54+00:00</time>
      </trkpt>
      <trkpt lat="50.25088" lon="4.91414">
        <ele>114</ele>
        <time>2026-08-25T09:25:57+00:00</time>
      </trkpt>
      <trkpt lat="50.25107" lon="4.91397">
        <ele>112</ele>
        <time>2026-08-25T09:26:00+00:00</time>
      </trkpt>
      <trkpt lat="50.25118" lon="4.91379">
        <ele>114</ele>
        <time>2026-08-25T09:26:03+00:00</time>
      </trkpt>
      <trkpt lat="50.25127" lon="4.91361">
        <ele>112</ele>
        <time>2026-08-25T09:26:06+00:00</time>
      </trkpt>
      <trkpt lat="50.25136" lon="4.91341">
        <ele>113</ele>
        <time>2026-08-25T09:26:09+00:00</time>
      </trkpt>
      <trkpt lat="50.25159" lon="4.91323">
        <ele>124</ele>
        <time>2026-08-25T09:26:12+00:00</time>
      </trkpt>
      <trkpt lat="50.25193" lon="4.91296">
        <ele>127</ele>
        <time>2026-08-25T09:26:15+00:00</time>
      </trkpt>
      <trkpt lat="50.25206" lon="4.91284">
        <ele>127</ele>
        <time>2026-08-25T09:26:18+00:00</time>
      </trkpt>
      <trkpt lat="50.25232" lon="4.91276">
        <ele>127</ele>
        <time>2026-08-25T09:26:21+00:00</time>
      </trkpt>
      <trkpt lat="50.25257" lon="4.91268">
        <ele>126</ele>
        <time>2026-08-25T09:26:24+00:00</time>
      </trkpt>
      <trkpt lat="50.25294" lon="4.91256">
        <ele>126</ele>
        <time>2026-08-25T09:26:27+00:00</time>
      </trkpt>
      <trkpt lat="50.25311" lon="4.91244">
        <ele>129</ele>
        <time>2026-08-25T09:26:30+00:00</time>
      </trkpt>
      <trkpt lat="50.25333" lon="4.91204">
        <ele>132</ele>
        <time>2026-08-25T09:26:33+00:00</time>
      </trkpt>
      <trkpt lat="50.25332" lon="4.91192">
        <ele>134</ele>
        <time>2026-08-25T09:26:36+00:00</time>
      </trkpt>
      <trkpt lat="50.25336" lon="4.91181">
        <ele>136</ele>
        <time>2026-08-25T09:26:39+00:00</time>
      </trkpt>
      <trkpt lat="50.2534" lon="4.91178">
        <ele>138</ele>
        <time>2026-08-25T09:26:42+00:00</time>
      </trkpt>
      <trkpt lat="50.25343" lon="4.91174">
        <ele>137</ele>
        <time>2026-08-25T09:26:45+00:00</time>
      </trkpt>
      <trkpt lat="50.25351" lon="4.91168">
        <ele>138</ele>
        <time>2026-08-25T09:26:48+00:00</time>
      </trkpt>
      <trkpt lat="50.25362" lon="4.91165">
        <ele>138</ele>
        <time>2026-08-25T09:26:51+00:00</time>
      </trkpt>
      <trkpt lat="50.25385" lon="4.9116">
        <ele>133</ele>
        <time>2026-08-25T09:26:54+00:00</time>
      </trkpt>
      <trkpt lat="50.25414" lon="4.91154">
        <ele>131</ele>
        <time>2026-08-25T09:26:57+00:00</time>
      </trkpt>
      <trkpt lat="50.2544" lon="4.91154">
        <ele>127</ele>
        <time>2026-08-25T09:27:00+00:00</time>
      </trkpt>
      <trkpt lat="50.2548" lon="4.91154">
        <ele>126</ele>
        <time>2026-08-25T09:27:03+00:00</time>
      </trkpt>
      <trkpt lat="50.25511" lon="4.91157">
        <ele>124</ele>
        <time>2026-08-25T09:27:06+00:00</time>
      </trkpt>
      <trkpt lat="50.25542" lon="4.91159">
        <ele>122</ele>
        <time>2026-08-25T09:27:09+00:00</time>
      </trkpt>
      <trkpt lat="50.25594" lon="4.91164">
        <ele>115</ele>
        <time>2026-08-25T09:27:12+00:00</time>
      </trkpt>
      <trkpt lat="50.25617" lon="4.91156">
        <ele>115</ele>
        <time>2026-08-25T09:27:15+00:00</time>
      </trkpt>
      <trkpt lat="50.25644" lon="4.91147">
        <ele>113</ele>
        <time>2026-08-25T09:27:18+00:00</time>
      </trkpt>
      <trkpt lat="50.25657" lon="4.91139">
        <ele>114</ele>
        <time>2026-08-25T09:27:21+00:00</time>
      </trkpt>
      <trkpt lat="50.25664" lon="4.91133">
        <ele>113</ele>
        <time>2026-08-25T09:27:24+00:00</time>
      </trkpt>
      <trkpt lat="50.25678" lon="4.91125">
        <ele>114</ele>
        <time>2026-08-25T09:27:27+00:00</time>
      </trkpt>
      <trkpt lat="50.25691" lon="4.9112">
        <ele>113</ele>
        <time>2026-08-25T09:27:30+00:00</time>
      </trkpt>
      <trkpt lat="50.25711" lon="4.9111">
        <ele>113</ele>
        <time>2026-08-25T09:27:33+00:00</time>
      </trkpt>
      <trkpt lat="50.25718" lon="4.91105">
        <ele>115</ele>
        <time>2026-08-25T09:27:36+00:00</time>
      </trkpt>
      <trkpt lat="50.25724" lon="4.91094">
        <ele>116</ele>
        <time>2026-08-25T09:27:39+00:00</time>
      </trkpt>
      <trkpt lat="50.2573" lon="4.91093">
        <ele>116</ele>
        <time>2026-08-25T09:27:42+00:00</time>
      </trkpt>
      <trkpt lat="50.25765" lon="4.91077">
        <ele>114</ele>
        <time>2026-08-25T09:27:45+00:00</time>
      </trkpt>
      <trkpt lat="50.25802" lon="4.91059">
        <ele>113</ele>
        <time>2026-08-25T09:27:48+00:00</time>
      </trkpt>
      <trkpt lat="50.25835" lon="4.91041">
        <ele>108</ele>
        <time>2026-08-25T09:27:51+00:00</time>
      </trkpt>
      <trkpt lat="50.25842" lon="4.91033">
        <ele>106</ele>
        <time>2026-08-25T09:27:54+00:00</time>
      </trkpt>
      <trkpt lat="50.25855" lon="4.91013">
        <ele>110</ele>
        <time>2026-08-25T09:27:57+00:00</time>
      </trkpt>
      <trkpt lat="50.25838" lon="4.90989">
        <ele>112</ele>
        <time>2026-08-25T09:28:00+00:00</time>
      </trkpt>
      <trkpt lat="50.25819" lon="4.90962">
        <ele>112</ele>
        <time>2026-08-25T09:28:03+00:00</time>
      </trkpt>
      <trkpt lat="50.25799" lon="4.90929">
        <ele>112</ele>
        <time>2026-08-25T09:28:06+00:00</time>
      </trkpt>
      <trkpt lat="50.25789" lon="4.90907">
        <ele>112</ele>
        <time>2026-08-25T09:28:09+00:00</time>
      </trkpt>
      <trkpt lat="50.25813" lon="4.90911">
        <ele>105</ele>
        <time>2026-08-25T09:28:12+00:00</time>
      </trkpt>
      <trkpt lat="50.25836" lon="4.9092">
        <ele>103</ele>
        <time>2026-08-25T09:28:15+00:00</time>
      </trkpt>
      <trkpt lat="50.25865" lon="4.90932">
        <ele>102</ele>
        <time>2026-08-25T09:28:18+00:00</time>
      </trkpt>
      <trkpt lat="50.25885" lon="4.90943">
        <ele>100</ele>
        <time>2026-08-25T09:28:21+00:00</time>
      </trkpt>
      <trkpt lat="50.2591" lon="4.9096">
        <ele>104</ele>
        <time>2026-08-25T09:28:24+00:00</time>
      </trkpt>
      <trkpt lat="50.2592" lon="4.90949">
        <ele>104</ele>
        <time>2026-08-25T09:28:27+00:00</time>
      </trkpt>
      <trkpt lat="50.25941" lon="4.90919">
        <ele>108</ele>
        <time>2026-08-25T09:28:30+00:00</time>
      </trkpt>
      <trkpt lat="50.25958" lon="4.90899">
        <ele>112</ele>
        <time>2026-08-25T09:28:33+00:00</time>
      </trkpt>
      <trkpt lat="50.25976" lon="4.90878">
        <ele>111</ele>
        <time>2026-08-25T09:28:36+00:00</time>
      </trkpt>
      <trkpt lat="50.25971" lon="4.90872">
        <ele>114</ele>
        <time>2026-08-25T09:28:39+00:00</time>
      </trkpt>
      <trkpt lat="50.25948" lon="4.909">
        <ele>111</ele>
        <time>2026-08-25T09:28:42+00:00</time>
      </trkpt>
      <trkpt lat="50.25936" lon="4.90905">
        <ele>112</ele>
        <time>2026-08-25T09:28:45+00:00</time>
      </trkpt>
      <trkpt lat="50.25924" lon="4.90898">
        <ele>115</ele>
        <time>2026-08-25T09:28:48+00:00</time>
      </trkpt>
      <trkpt lat="50.25914" lon="4.90891">
        <ele>116</ele>
        <time>2026-08-25T09:28:51+00:00</time>
      </trkpt>
      <trkpt lat="50.25905" lon="4.90883">
        <ele>119</ele>
        <time>2026-08-25T09:28:54+00:00</time>
      </trkpt>
      <trkpt lat="50.25894" lon="4.90867">
        <ele>124</ele>
        <time>2026-08-25T09:28:57+00:00</time>
      </trkpt>
      <trkpt lat="50.25888" lon="4.90864">
        <ele>124</ele>
        <time>2026-08-25T09:29:00+00:00</time>
      </trkpt>
      <trkpt lat="50.25879" lon="4.9085">
        <ele>129</ele>
        <time>2026-08-25T09:29:03+00:00</time>
      </trkpt>
      <trkpt lat="50.25866" lon="4.90827">
        <ele>133</ele>
        <time>2026-08-25T09:29:06+00:00</time>
      </trkpt>
      <trkpt lat="50.25862" lon="4.90821">
        <ele>133</ele>
        <time>2026-08-25T09:29:09+00:00</time>
      </trkpt>
      <trkpt lat="50.25861" lon="4.90816">
        <ele>135</ele>
        <time>2026-08-25T09:29:12+00:00</time>
      </trkpt>
      <trkpt lat="50.2585" lon="4.90786">
        <ele>142</ele>
        <time>2026-08-25T09:29:15+00:00</time>
      </trkpt>
      <trkpt lat="50.25825" lon="4.90763">
        <ele>145</ele>
        <time>2026-08-25T09:29:18+00:00</time>
      </trkpt>
      <trkpt lat="50.25819" lon="4.90746">
        <ele>149</ele>
        <time>2026-08-25T09:29:21+00:00</time>
      </trkpt>
      <trkpt lat="50.2582" lon="4.90722">
        <ele>154</ele>
        <time>2026-08-25T09:29:24+00:00</time>
      </trkpt>
      <trkpt lat="50.25818" lon="4.90698">
        <ele>162</ele>
        <time>2026-08-25T09:29:27+00:00</time>
      </trkpt>
      <trkpt lat="50.25824" lon="4.90695">
        <ele>154</ele>
        <time>2026-08-25T09:29:30+00:00</time>
      </trkpt>
      <trkpt lat="50.25825" lon="4.907">
        <ele>159</ele>
        <time>2026-08-25T09:29:33+00:00</time>
      </trkpt>
      <trkpt lat="50.25829" lon="4.90708">
        <ele>159</ele>
        <time>2026-08-25T09:29:36+00:00</time>
      </trkpt>
      <trkpt lat="50.25856" lon="4.9071">
        <ele>154</ele>
        <time>2026-08-25T09:29:39+00:00</time>
      </trkpt>
      <trkpt lat="50.25885" lon="4.90707">
        <ele>153</ele>
        <time>2026-08-25T09:29:42+00:00</time>
      </trkpt>
      <trkpt lat="50.25907" lon="4.907">
        <ele>152</ele>
        <time>2026-08-25T09:29:45+00:00</time>
      </trkpt>
      <trkpt lat="50.2593" lon="4.90692">
        <ele>148</ele>
        <time>2026-08-25T09:29:48+00:00</time>
      </trkpt>
      <trkpt lat="50.25939" lon="4.90693">
        <ele>146</ele>
        <time>2026-08-25T09:29:51+00:00</time>
      </trkpt>
      <trkpt lat="50.25947" lon="4.90698">
        <ele>146</ele>
        <time>2026-08-25T09:29:54+00:00</time>
      </trkpt>
      <trkpt lat="50.25923" lon="4.90709">
        <ele>144</ele>
        <time>2026-08-25T09:29:57+00:00</time>
      </trkpt>
      <trkpt lat="50.25892" lon="4.90725">
        <ele>144</ele>
        <time>2026-08-25T09:30:00+00:00</time>
      </trkpt>
      <trkpt lat="50.25887" lon="4.90728">
        <ele>145</ele>
        <time>2026-08-25T09:30:03+00:00</time>
      </trkpt>
    </trkseg>
  </trk>
</gpx>
